<?xml version="1.0" encoding="UTF-8" standalone="no" ?>
<gpx xmlns="http://www.topografix.com/GPX/1/1" xmlns:xsi="http://www.w3.org/2001/XMLSchema-instance" xsi:schemaLocation="http://www.topografix.com/GPX/1/1 http://www.topografix.com/GPX/1/1/gpx.xsd" version="1.1" creator="VisuGPX - https://www.visugpx.com">
  <metadata>
    <name>Aiguilles de Valbelle</name>
  </metadata>
  <trk>
    <name><![CDATA[2017-03-19-D-méounes]]></name>
    <trkseg>
      <trkpt lat="43.26294" lon="5.96335">
        <ele>242.2</ele>
        <time>2017-03-19T15:28:50Z</time>
      </trkpt>
      <trkpt lat="43.26291" lon="5.96341">
        <ele>242.7</ele>
        <time>2017-03-19T15:28:24Z</time>
      </trkpt>
      <trkpt lat="43.26286" lon="5.96351">
        <ele>243.3</ele>
        <time>2017-03-19T15:28:14Z</time>
      </trkpt>
      <trkpt lat="43.26281" lon="5.96363">
        <ele>244.4</ele>
        <time>2017-03-19T15:28:02Z</time>
      </trkpt>
      <trkpt lat="43.26279" lon="5.96375">
        <ele>245</ele>
        <time>2017-03-19T15:27:53Z</time>
      </trkpt>
      <trkpt lat="43.26274" lon="5.96387">
        <ele>245.4</ele>
        <time>2017-03-19T15:27:44Z</time>
      </trkpt>
      <trkpt lat="43.26272" lon="5.96401">
        <ele>246</ele>
        <time>2017-03-19T15:27:30Z</time>
      </trkpt>
      <trkpt lat="43.26268" lon="5.96414">
        <ele>246.3</ele>
        <time>2017-03-19T15:27:22Z</time>
      </trkpt>
      <trkpt lat="43.26261" lon="5.96423">
        <ele>246.8</ele>
        <time>2017-03-19T15:27:15Z</time>
      </trkpt>
      <trkpt lat="43.26255" lon="5.96433">
        <ele>247.4</ele>
        <time>2017-03-19T15:27:07Z</time>
      </trkpt>
      <trkpt lat="43.26246" lon="5.96438">
        <ele>248.1</ele>
        <time>2017-03-19T15:26:59Z</time>
      </trkpt>
      <trkpt lat="43.26238" lon="5.96446">
        <ele>249.2</ele>
        <time>2017-03-19T15:26:50Z</time>
      </trkpt>
      <trkpt lat="43.26232" lon="5.96456">
        <ele>250</ele>
        <time>2017-03-19T15:26:44Z</time>
      </trkpt>
      <trkpt lat="43.26229" lon="5.96468">
        <ele>250.8</ele>
        <time>2017-03-19T15:26:38Z</time>
      </trkpt>
      <trkpt lat="43.26227" lon="5.9648">
        <ele>251.4</ele>
        <time>2017-03-19T15:26:31Z</time>
      </trkpt>
      <trkpt lat="43.26225" lon="5.96493">
        <ele>251.7</ele>
        <time>2017-03-19T15:26:23Z</time>
      </trkpt>
      <trkpt lat="43.26219" lon="5.96503">
        <ele>252.2</ele>
        <time>2017-03-19T15:26:15Z</time>
      </trkpt>
      <trkpt lat="43.26219" lon="5.96518">
        <ele>252.6</ele>
        <time>2017-03-19T15:26:06Z</time>
      </trkpt>
      <trkpt lat="43.26212" lon="5.96509">
        <ele>253</ele>
        <time>2017-03-19T15:26:01Z</time>
      </trkpt>
      <trkpt lat="43.26201" lon="5.96502">
        <ele>254.7</ele>
        <time>2017-03-19T15:25:43Z</time>
      </trkpt>
      <trkpt lat="43.26193" lon="5.96509">
        <ele>255.6</ele>
        <time>2017-03-19T15:25:36Z</time>
      </trkpt>
      <trkpt lat="43.26189" lon="5.96521">
        <ele>256.9</ele>
        <time>2017-03-19T15:25:26Z</time>
      </trkpt>
      <trkpt lat="43.2619" lon="5.96535">
        <ele>258.5</ele>
        <time>2017-03-19T15:25:15Z</time>
      </trkpt>
      <trkpt lat="43.26186" lon="5.96547">
        <ele>259.2</ele>
        <time>2017-03-19T15:25:09Z</time>
      </trkpt>
      <trkpt lat="43.2618" lon="5.96557">
        <ele>259.9</ele>
        <time>2017-03-19T15:25:02Z</time>
      </trkpt>
      <trkpt lat="43.26172" lon="5.96566">
        <ele>261</ele>
        <time>2017-03-19T15:24:53Z</time>
      </trkpt>
      <trkpt lat="43.26163" lon="5.9657">
        <ele>261.6</ele>
        <time>2017-03-19T15:24:47Z</time>
      </trkpt>
      <trkpt lat="43.26154" lon="5.96572">
        <ele>263</ele>
        <time>2017-03-19T15:24:35Z</time>
      </trkpt>
      <trkpt lat="43.26148" lon="5.96582">
        <ele>264.1</ele>
        <time>2017-03-19T15:24:26Z</time>
      </trkpt>
      <trkpt lat="43.2614" lon="5.96589">
        <ele>265.7</ele>
        <time>2017-03-19T15:24:17Z</time>
      </trkpt>
      <trkpt lat="43.26131" lon="5.96593">
        <ele>266.8</ele>
        <time>2017-03-19T15:24:07Z</time>
      </trkpt>
      <trkpt lat="43.26126" lon="5.96604">
        <ele>267.5</ele>
        <time>2017-03-19T15:23:59Z</time>
      </trkpt>
      <trkpt lat="43.26124" lon="5.96617">
        <ele>269.1</ele>
        <time>2017-03-19T15:23:42Z</time>
      </trkpt>
      <trkpt lat="43.26118" lon="5.96627">
        <ele>269.7</ele>
        <time>2017-03-19T15:23:32Z</time>
      </trkpt>
      <trkpt lat="43.26111" lon="5.96638">
        <ele>270.2</ele>
        <time>2017-03-19T15:23:25Z</time>
      </trkpt>
      <trkpt lat="43.26107" lon="5.96651">
        <ele>271.1</ele>
        <time>2017-03-19T15:23:16Z</time>
      </trkpt>
      <trkpt lat="43.26104" lon="5.96663">
        <ele>272.1</ele>
        <time>2017-03-19T15:23:07Z</time>
      </trkpt>
      <trkpt lat="43.26099" lon="5.96674">
        <ele>273.1</ele>
        <time>2017-03-19T15:22:58Z</time>
      </trkpt>
      <trkpt lat="43.26095" lon="5.96685">
        <ele>274.1</ele>
        <time>2017-03-19T15:22:46Z</time>
      </trkpt>
      <trkpt lat="43.26093" lon="5.96698">
        <ele>275</ele>
        <time>2017-03-19T15:22:37Z</time>
      </trkpt>
      <trkpt lat="43.26086" lon="5.96709">
        <ele>275.5</ele>
        <time>2017-03-19T15:22:29Z</time>
      </trkpt>
      <trkpt lat="43.26081" lon="5.96719">
        <ele>276.1</ele>
        <time>2017-03-19T15:22:20Z</time>
      </trkpt>
      <trkpt lat="43.26073" lon="5.96726">
        <ele>276.6</ele>
        <time>2017-03-19T15:22:11Z</time>
      </trkpt>
      <trkpt lat="43.26072" lon="5.96738">
        <ele>277</ele>
        <time>2017-03-19T15:22:03Z</time>
      </trkpt>
      <trkpt lat="43.26069" lon="5.9675">
        <ele>277.7</ele>
        <time>2017-03-19T15:21:54Z</time>
      </trkpt>
      <trkpt lat="43.26067" lon="5.96764">
        <ele>278.3</ele>
        <time>2017-03-19T15:21:46Z</time>
      </trkpt>
      <trkpt lat="43.26066" lon="5.96777">
        <ele>278.9</ele>
        <time>2017-03-19T15:21:40Z</time>
      </trkpt>
      <trkpt lat="43.26067" lon="5.96791">
        <ele>280.6</ele>
        <time>2017-03-19T15:21:11Z</time>
      </trkpt>
      <trkpt lat="43.26075" lon="5.96797">
        <ele>282</ele>
        <time>2017-03-19T15:21:01Z</time>
      </trkpt>
      <trkpt lat="43.26074" lon="5.9681">
        <ele>282.9</ele>
        <time>2017-03-19T15:20:52Z</time>
      </trkpt>
      <trkpt lat="43.26067" lon="5.96821">
        <ele>284</ele>
        <time>2017-03-19T15:20:43Z</time>
      </trkpt>
      <trkpt lat="43.2607" lon="5.96834">
        <ele>284.6</ele>
        <time>2017-03-19T15:20:39Z</time>
      </trkpt>
      <trkpt lat="43.26073" lon="5.96847">
        <ele>285.3</ele>
        <time>2017-03-19T15:20:33Z</time>
      </trkpt>
      <trkpt lat="43.2607" lon="5.96859">
        <ele>286.6</ele>
        <time>2017-03-19T15:20:23Z</time>
      </trkpt>
      <trkpt lat="43.26072" lon="5.96873">
        <ele>287.9</ele>
        <time>2017-03-19T15:20:13Z</time>
      </trkpt>
      <trkpt lat="43.2607" lon="5.96885">
        <ele>289.5</ele>
        <time>2017-03-19T15:20:01Z</time>
      </trkpt>
      <trkpt lat="43.26067" lon="5.96897">
        <ele>290.9</ele>
        <time>2017-03-19T15:19:51Z</time>
      </trkpt>
      <trkpt lat="43.26065" lon="5.9691">
        <ele>291.6</ele>
        <time>2017-03-19T15:19:44Z</time>
      </trkpt>
      <trkpt lat="43.26066" lon="5.96924">
        <ele>292.5</ele>
        <time>2017-03-19T15:19:36Z</time>
      </trkpt>
      <trkpt lat="43.2606" lon="5.96936">
        <ele>293.3</ele>
        <time>2017-03-19T15:19:29Z</time>
      </trkpt>
      <trkpt lat="43.2605" lon="5.96936">
        <ele>294.6</ele>
        <time>2017-03-19T15:19:13Z</time>
      </trkpt>
      <trkpt lat="43.26041" lon="5.96933">
        <ele>295.2</ele>
        <time>2017-03-19T15:19:01Z</time>
      </trkpt>
      <trkpt lat="43.26032" lon="5.96931">
        <ele>296.4</ele>
        <time>2017-03-19T15:18:41Z</time>
      </trkpt>
      <trkpt lat="43.26023" lon="5.96925">
        <ele>297.3</ele>
        <time>2017-03-19T15:18:32Z</time>
      </trkpt>
      <trkpt lat="43.26014" lon="5.9692">
        <ele>298.5</ele>
        <time>2017-03-19T15:18:21Z</time>
      </trkpt>
      <trkpt lat="43.26005" lon="5.96913">
        <ele>299.5</ele>
        <time>2017-03-19T15:18:11Z</time>
      </trkpt>
      <trkpt lat="43.25998" lon="5.96907">
        <ele>300.1</ele>
        <time>2017-03-19T15:18:02Z</time>
      </trkpt>
      <trkpt lat="43.25989" lon="5.96901">
        <ele>300.9</ele>
        <time>2017-03-19T15:17:53Z</time>
      </trkpt>
      <trkpt lat="43.25981" lon="5.96895">
        <ele>301.3</ele>
        <time>2017-03-19T15:17:47Z</time>
      </trkpt>
      <trkpt lat="43.25973" lon="5.96888">
        <ele>302.1</ele>
        <time>2017-03-19T15:17:37Z</time>
      </trkpt>
      <trkpt lat="43.25966" lon="5.96879">
        <ele>302.5</ele>
        <time>2017-03-19T15:17:30Z</time>
      </trkpt>
      <trkpt lat="43.25959" lon="5.9687">
        <ele>302.7</ele>
        <time>2017-03-19T15:17:22Z</time>
      </trkpt>
      <trkpt lat="43.25953" lon="5.96861">
        <ele>302.8</ele>
        <time>2017-03-19T15:17:14Z</time>
      </trkpt>
      <trkpt lat="43.25946" lon="5.96852">
        <ele>302.9</ele>
        <time>2017-03-19T15:16:57Z</time>
      </trkpt>
      <trkpt lat="43.25939" lon="5.96844">
        <ele>302.7</ele>
        <time>2017-03-19T15:16:47Z</time>
      </trkpt>
      <trkpt lat="43.2593" lon="5.96839">
        <ele>302.5</ele>
        <time>2017-03-19T15:16:37Z</time>
      </trkpt>
      <trkpt lat="43.25925" lon="5.96828">
        <ele>302.4</ele>
        <time>2017-03-19T15:16:25Z</time>
      </trkpt>
      <trkpt lat="43.25918" lon="5.96818">
        <ele>302.6</ele>
        <time>2017-03-19T15:16:17Z</time>
      </trkpt>
      <trkpt lat="43.25911" lon="5.96809">
        <ele>302.6</ele>
        <time>2017-03-19T15:16:07Z</time>
      </trkpt>
      <trkpt lat="43.25904" lon="5.96799">
        <ele>302.7</ele>
        <time>2017-03-19T15:16:00Z</time>
      </trkpt>
      <trkpt lat="43.25897" lon="5.96788">
        <ele>302.8</ele>
        <time>2017-03-19T15:15:51Z</time>
      </trkpt>
      <trkpt lat="43.2589" lon="5.96779">
        <ele>302.9</ele>
        <time>2017-03-19T15:15:39Z</time>
      </trkpt>
      <trkpt lat="43.25885" lon="5.96768">
        <ele>303.2</ele>
        <time>2017-03-19T15:15:26Z</time>
      </trkpt>
      <trkpt lat="43.25882" lon="5.96755">
        <ele>303.5</ele>
        <time>2017-03-19T15:15:11Z</time>
      </trkpt>
      <trkpt lat="43.25879" lon="5.96743">
        <ele>303.4</ele>
        <time>2017-03-19T15:15:04Z</time>
      </trkpt>
      <trkpt lat="43.25873" lon="5.96734">
        <ele>303.3</ele>
        <time>2017-03-19T15:14:57Z</time>
      </trkpt>
      <trkpt lat="43.25867" lon="5.96721">
        <ele>302.9</ele>
        <time>2017-03-19T15:14:49Z</time>
      </trkpt>
      <trkpt lat="43.25863" lon="5.96709">
        <ele>302.6</ele>
        <time>2017-03-19T15:14:39Z</time>
      </trkpt>
      <trkpt lat="43.25857" lon="5.96698">
        <ele>302.9</ele>
        <time>2017-03-19T15:14:30Z</time>
      </trkpt>
      <trkpt lat="43.2585" lon="5.9669">
        <ele>303</ele>
        <time>2017-03-19T15:14:21Z</time>
      </trkpt>
      <trkpt lat="43.25844" lon="5.9668">
        <ele>303.3</ele>
        <time>2017-03-19T15:14:11Z</time>
      </trkpt>
      <trkpt lat="43.25839" lon="5.96668">
        <ele>304.1</ele>
        <time>2017-03-19T15:13:57Z</time>
      </trkpt>
      <trkpt lat="43.25834" lon="5.96657">
        <ele>304.6</ele>
        <time>2017-03-19T15:13:45Z</time>
      </trkpt>
      <trkpt lat="43.25828" lon="5.96648">
        <ele>304.9</ele>
        <time>2017-03-19T15:13:38Z</time>
      </trkpt>
      <trkpt lat="43.25819" lon="5.96644">
        <ele>305.4</ele>
        <time>2017-03-19T15:13:30Z</time>
      </trkpt>
      <trkpt lat="43.25812" lon="5.96636">
        <ele>306.6</ele>
        <time>2017-03-19T15:13:16Z</time>
      </trkpt>
      <trkpt lat="43.25804" lon="5.96628">
        <ele>307.2</ele>
        <time>2017-03-19T15:12:47Z</time>
      </trkpt>
      <trkpt lat="43.25801" lon="5.9664">
        <ele>307.4</ele>
        <time>2017-03-19T15:09:15Z</time>
      </trkpt>
      <trkpt lat="43.25796" lon="5.96651">
        <ele>307.8</ele>
        <time>2017-03-19T15:07:05Z</time>
      </trkpt>
      <trkpt lat="43.25794" lon="5.96638">
        <ele>307.5</ele>
        <time>2017-03-19T15:03:24Z</time>
      </trkpt>
      <trkpt lat="43.25787" lon="5.96628">
        <ele>307.4</ele>
        <time>2017-03-19T15:03:00Z</time>
      </trkpt>
      <trkpt lat="43.25782" lon="5.96618">
        <ele>307.3</ele>
        <time>2017-03-19T15:02:49Z</time>
      </trkpt>
      <trkpt lat="43.25779" lon="5.96604">
        <ele>307.6</ele>
        <time>2017-03-19T15:02:40Z</time>
      </trkpt>
      <trkpt lat="43.25778" lon="5.96591">
        <ele>307.8</ele>
        <time>2017-03-19T15:02:30Z</time>
      </trkpt>
      <trkpt lat="43.25769" lon="5.96593">
        <ele>307.4</ele>
        <time>2017-03-19T15:01:09Z</time>
      </trkpt>
      <trkpt lat="43.25771" lon="5.9658">
        <ele>308</ele>
        <time>2017-03-19T14:59:53Z</time>
      </trkpt>
      <trkpt lat="43.25764" lon="5.96572">
        <ele>308.8</ele>
        <time>2017-03-19T14:59:33Z</time>
      </trkpt>
      <trkpt lat="43.25762" lon="5.96558">
        <ele>309.4</ele>
        <time>2017-03-19T14:59:24Z</time>
      </trkpt>
      <trkpt lat="43.25757" lon="5.96547">
        <ele>310.4</ele>
        <time>2017-03-19T14:59:14Z</time>
      </trkpt>
      <trkpt lat="43.25754" lon="5.96535">
        <ele>311.4</ele>
        <time>2017-03-19T14:59:05Z</time>
      </trkpt>
      <trkpt lat="43.2575" lon="5.96522">
        <ele>312.6</ele>
        <time>2017-03-19T14:58:54Z</time>
      </trkpt>
      <trkpt lat="43.25749" lon="5.9651">
        <ele>313.6</ele>
        <time>2017-03-19T14:58:44Z</time>
      </trkpt>
      <trkpt lat="43.25743" lon="5.965">
        <ele>314.7</ele>
        <time>2017-03-19T14:58:33Z</time>
      </trkpt>
      <trkpt lat="43.25735" lon="5.96492">
        <ele>315.6</ele>
        <time>2017-03-19T14:58:22Z</time>
      </trkpt>
      <trkpt lat="43.25726" lon="5.96487">
        <ele>315.9</ele>
        <time>2017-03-19T14:58:15Z</time>
      </trkpt>
      <trkpt lat="43.25717" lon="5.96483">
        <ele>316.4</ele>
        <time>2017-03-19T14:58:07Z</time>
      </trkpt>
      <trkpt lat="43.25708" lon="5.96477">
        <ele>317.1</ele>
        <time>2017-03-19T14:57:59Z</time>
      </trkpt>
      <trkpt lat="43.25699" lon="5.96471">
        <ele>317.7</ele>
        <time>2017-03-19T14:57:51Z</time>
      </trkpt>
      <trkpt lat="43.25692" lon="5.96464">
        <ele>318.5</ele>
        <time>2017-03-19T14:57:39Z</time>
      </trkpt>
      <trkpt lat="43.25682" lon="5.96462">
        <ele>319.3</ele>
        <time>2017-03-19T14:57:29Z</time>
      </trkpt>
      <trkpt lat="43.25676" lon="5.96452">
        <ele>320.3</ele>
        <time>2017-03-19T14:57:17Z</time>
      </trkpt>
      <trkpt lat="43.25668" lon="5.96444">
        <ele>321.3</ele>
        <time>2017-03-19T14:57:08Z</time>
      </trkpt>
      <trkpt lat="43.2566" lon="5.96438">
        <ele>322.7</ele>
        <time>2017-03-19T14:56:57Z</time>
      </trkpt>
      <trkpt lat="43.2565" lon="5.96439">
        <ele>323.2</ele>
        <time>2017-03-19T14:56:48Z</time>
      </trkpt>
      <trkpt lat="43.25641" lon="5.96441">
        <ele>323.8</ele>
        <time>2017-03-19T14:56:40Z</time>
      </trkpt>
      <trkpt lat="43.25634" lon="5.96449">
        <ele>324.8</ele>
        <time>2017-03-19T14:56:32Z</time>
      </trkpt>
      <trkpt lat="43.25627" lon="5.96457">
        <ele>325.9</ele>
        <time>2017-03-19T14:56:22Z</time>
      </trkpt>
      <trkpt lat="43.25619" lon="5.96465">
        <ele>327.1</ele>
        <time>2017-03-19T14:56:10Z</time>
      </trkpt>
      <trkpt lat="43.25612" lon="5.96472">
        <ele>328.1</ele>
        <time>2017-03-19T14:56:03Z</time>
      </trkpt>
      <trkpt lat="43.25606" lon="5.96483">
        <ele>328.6</ele>
        <time>2017-03-19T14:55:56Z</time>
      </trkpt>
      <trkpt lat="43.25598" lon="5.96491">
        <ele>329.4</ele>
        <time>2017-03-19T14:55:47Z</time>
      </trkpt>
      <trkpt lat="43.2559" lon="5.965">
        <ele>330</ele>
        <time>2017-03-19T14:55:39Z</time>
      </trkpt>
      <trkpt lat="43.25583" lon="5.96508">
        <ele>330.6</ele>
        <time>2017-03-19T14:55:31Z</time>
      </trkpt>
      <trkpt lat="43.25575" lon="5.96513">
        <ele>331.2</ele>
        <time>2017-03-19T14:55:21Z</time>
      </trkpt>
      <trkpt lat="43.25566" lon="5.96518">
        <ele>332.4</ele>
        <time>2017-03-19T14:55:03Z</time>
      </trkpt>
      <trkpt lat="43.25558" lon="5.96524">
        <ele>333.9</ele>
        <time>2017-03-19T14:54:46Z</time>
      </trkpt>
      <trkpt lat="43.2555" lon="5.96531">
        <ele>334.7</ele>
        <time>2017-03-19T14:54:39Z</time>
      </trkpt>
      <trkpt lat="43.2554" lon="5.96535">
        <ele>336.3</ele>
        <time>2017-03-19T14:54:27Z</time>
      </trkpt>
      <trkpt lat="43.25531" lon="5.96533">
        <ele>337.6</ele>
        <time>2017-03-19T14:54:15Z</time>
      </trkpt>
      <trkpt lat="43.25522" lon="5.96529">
        <ele>338.4</ele>
        <time>2017-03-19T14:54:04Z</time>
      </trkpt>
      <trkpt lat="43.25516" lon="5.9652">
        <ele>338.6</ele>
        <time>2017-03-19T14:53:54Z</time>
      </trkpt>
      <trkpt lat="43.25517" lon="5.96506">
        <ele>338.9</ele>
        <time>2017-03-19T14:53:41Z</time>
      </trkpt>
      <trkpt lat="43.25515" lon="5.96493">
        <ele>339</ele>
        <time>2017-03-19T14:53:32Z</time>
      </trkpt>
      <trkpt lat="43.25514" lon="5.96479">
        <ele>339.2</ele>
        <time>2017-03-19T14:53:21Z</time>
      </trkpt>
      <trkpt lat="43.2552" lon="5.96469">
        <ele>339.7</ele>
        <time>2017-03-19T14:53:05Z</time>
      </trkpt>
      <trkpt lat="43.25521" lon="5.96456">
        <ele>340.4</ele>
        <time>2017-03-19T14:52:50Z</time>
      </trkpt>
      <trkpt lat="43.25518" lon="5.96444">
        <ele>341.3</ele>
        <time>2017-03-19T14:52:37Z</time>
      </trkpt>
      <trkpt lat="43.25516" lon="5.96431">
        <ele>341.5</ele>
        <time>2017-03-19T14:52:25Z</time>
      </trkpt>
      <trkpt lat="43.25518" lon="5.96419">
        <ele>342</ele>
        <time>2017-03-19T14:52:13Z</time>
      </trkpt>
      <trkpt lat="43.25514" lon="5.96407">
        <ele>342.4</ele>
        <time>2017-03-19T14:52:04Z</time>
      </trkpt>
      <trkpt lat="43.25507" lon="5.96397">
        <ele>343</ele>
        <time>2017-03-19T14:51:55Z</time>
      </trkpt>
      <trkpt lat="43.25506" lon="5.96384">
        <ele>343.3</ele>
        <time>2017-03-19T14:51:43Z</time>
      </trkpt>
      <trkpt lat="43.25505" lon="5.96371">
        <ele>344</ele>
        <time>2017-03-19T14:51:28Z</time>
      </trkpt>
      <trkpt lat="43.25504" lon="5.96358">
        <ele>345.5</ele>
        <time>2017-03-19T14:51:08Z</time>
      </trkpt>
      <trkpt lat="43.25502" lon="5.96345">
        <ele>346.4</ele>
        <time>2017-03-19T14:50:51Z</time>
      </trkpt>
      <trkpt lat="43.25501" lon="5.96333">
        <ele>346.8</ele>
        <time>2017-03-19T14:50:28Z</time>
      </trkpt>
      <trkpt lat="43.25499" lon="5.96321">
        <ele>347.5</ele>
        <time>2017-03-19T14:50:14Z</time>
      </trkpt>
      <trkpt lat="43.25496" lon="5.96308">
        <ele>348.5</ele>
        <time>2017-03-19T14:49:53Z</time>
      </trkpt>
      <trkpt lat="43.25492" lon="5.96297">
        <ele>349.5</ele>
        <time>2017-03-19T14:49:39Z</time>
      </trkpt>
      <trkpt lat="43.25499" lon="5.96287">
        <ele>349.8</ele>
        <time>2017-03-19T14:49:33Z</time>
      </trkpt>
      <trkpt lat="43.25502" lon="5.96275">
        <ele>350.9</ele>
        <time>2017-03-19T14:49:20Z</time>
      </trkpt>
      <trkpt lat="43.255" lon="5.96262">
        <ele>351.8</ele>
        <time>2017-03-19T14:49:04Z</time>
      </trkpt>
      <trkpt lat="43.25492" lon="5.96257">
        <ele>352.5</ele>
        <time>2017-03-19T14:48:55Z</time>
      </trkpt>
      <trkpt lat="43.25483" lon="5.96256">
        <ele>353.1</ele>
        <time>2017-03-19T14:48:48Z</time>
      </trkpt>
      <trkpt lat="43.25475" lon="5.96248">
        <ele>353</ele>
        <time>2017-03-19T14:48:38Z</time>
      </trkpt>
      <trkpt lat="43.25476" lon="5.96232">
        <ele>355</ele>
        <time>2017-03-19T14:48:22Z</time>
      </trkpt>
      <trkpt lat="43.25477" lon="5.96217">
        <ele>356</ele>
        <time>2017-03-19T14:48:10Z</time>
      </trkpt>
      <trkpt lat="43.25485" lon="5.96202">
        <ele>356</ele>
        <time>2017-03-19T14:48:02Z</time>
      </trkpt>
      <trkpt lat="43.25493" lon="5.96192">
        <ele>357</ele>
        <time>2017-03-19T14:47:58Z</time>
      </trkpt>
      <trkpt lat="43.25501" lon="5.96183">
        <ele>357</ele>
        <time>2017-03-19T14:47:54Z</time>
      </trkpt>
      <trkpt lat="43.25513" lon="5.96164">
        <ele>358.9</ele>
        <time>2017-03-19T14:47:44Z</time>
      </trkpt>
      <trkpt lat="43.25515" lon="5.96152">
        <ele>361.2</ele>
        <time>2017-03-19T14:47:26Z</time>
      </trkpt>
      <trkpt lat="43.25505" lon="5.96152">
        <ele>361.8</ele>
        <time>2017-03-19T14:47:18Z</time>
      </trkpt>
      <trkpt lat="43.25502" lon="5.9614">
        <ele>364.8</ele>
        <time>2017-03-19T14:46:55Z</time>
      </trkpt>
      <trkpt lat="43.25509" lon="5.96132">
        <ele>367.5</ele>
        <time>2017-03-19T14:46:34Z</time>
      </trkpt>
      <trkpt lat="43.25516" lon="5.96123">
        <ele>370.3</ele>
        <time>2017-03-19T14:46:13Z</time>
      </trkpt>
      <trkpt lat="43.25523" lon="5.96115">
        <ele>372.9</ele>
        <time>2017-03-19T14:45:56Z</time>
      </trkpt>
      <trkpt lat="43.25531" lon="5.96109">
        <ele>374.6</ele>
        <time>2017-03-19T14:45:44Z</time>
      </trkpt>
      <trkpt lat="43.25539" lon="5.96102">
        <ele>377.2</ele>
        <time>2017-03-19T14:45:25Z</time>
      </trkpt>
      <trkpt lat="43.25545" lon="5.96092">
        <ele>379.4</ele>
        <time>2017-03-19T14:44:51Z</time>
      </trkpt>
      <trkpt lat="43.25552" lon="5.96083">
        <ele>380.4</ele>
        <time>2017-03-19T14:44:41Z</time>
      </trkpt>
      <trkpt lat="43.2556" lon="5.96074">
        <ele>381.2</ele>
        <time>2017-03-19T14:44:34Z</time>
      </trkpt>
      <trkpt lat="43.25568" lon="5.96066">
        <ele>382.2</ele>
        <time>2017-03-19T14:44:26Z</time>
      </trkpt>
      <trkpt lat="43.25572" lon="5.96054">
        <ele>382.8</ele>
        <time>2017-03-19T14:44:14Z</time>
      </trkpt>
      <trkpt lat="43.2557" lon="5.96041">
        <ele>383.2</ele>
        <time>2017-03-19T14:44:04Z</time>
      </trkpt>
      <trkpt lat="43.25564" lon="5.9603">
        <ele>383.9</ele>
        <time>2017-03-19T14:43:52Z</time>
      </trkpt>
      <trkpt lat="43.25559" lon="5.96019">
        <ele>384.1</ele>
        <time>2017-03-19T14:43:42Z</time>
      </trkpt>
      <trkpt lat="43.25555" lon="5.96006">
        <ele>383.9</ele>
        <time>2017-03-19T14:43:31Z</time>
      </trkpt>
      <trkpt lat="43.25558" lon="5.95994">
        <ele>383.3</ele>
        <time>2017-03-19T14:43:19Z</time>
      </trkpt>
      <trkpt lat="43.25565" lon="5.95985">
        <ele>383</ele>
        <time>2017-03-19T14:43:08Z</time>
      </trkpt>
      <trkpt lat="43.25573" lon="5.95978">
        <ele>382.8</ele>
        <time>2017-03-19T14:43:01Z</time>
      </trkpt>
      <trkpt lat="43.25582" lon="5.95974">
        <ele>382.9</ele>
        <time>2017-03-19T14:42:53Z</time>
      </trkpt>
      <trkpt lat="43.25591" lon="5.95969">
        <ele>383.1</ele>
        <time>2017-03-19T14:42:41Z</time>
      </trkpt>
      <trkpt lat="43.256" lon="5.95964">
        <ele>383</ele>
        <time>2017-03-19T14:42:33Z</time>
      </trkpt>
      <trkpt lat="43.25609" lon="5.95959">
        <ele>383.1</ele>
        <time>2017-03-19T14:42:25Z</time>
      </trkpt>
      <trkpt lat="43.25618" lon="5.95954">
        <ele>383.5</ele>
        <time>2017-03-19T14:42:14Z</time>
      </trkpt>
      <trkpt lat="43.25626" lon="5.9595">
        <ele>383.9</ele>
        <time>2017-03-19T14:42:02Z</time>
      </trkpt>
      <trkpt lat="43.25635" lon="5.95944">
        <ele>384.5</ele>
        <time>2017-03-19T14:41:49Z</time>
      </trkpt>
      <trkpt lat="43.25641" lon="5.95935">
        <ele>385.1</ele>
        <time>2017-03-19T14:41:40Z</time>
      </trkpt>
      <trkpt lat="43.25647" lon="5.95924">
        <ele>385.8</ele>
        <time>2017-03-19T14:41:30Z</time>
      </trkpt>
      <trkpt lat="43.25645" lon="5.95912">
        <ele>385.8</ele>
        <time>2017-03-19T14:41:21Z</time>
      </trkpt>
      <trkpt lat="43.25646" lon="5.959">
        <ele>385.5</ele>
        <time>2017-03-19T14:41:08Z</time>
      </trkpt>
      <trkpt lat="43.25649" lon="5.95888">
        <ele>385.7</ele>
        <time>2017-03-19T14:40:52Z</time>
      </trkpt>
      <trkpt lat="43.25656" lon="5.95879">
        <ele>386</ele>
        <time>2017-03-19T14:40:44Z</time>
      </trkpt>
      <trkpt lat="43.25663" lon="5.95871">
        <ele>386.5</ele>
        <time>2017-03-19T14:40:35Z</time>
      </trkpt>
      <trkpt lat="43.25671" lon="5.95861">
        <ele>386.8</ele>
        <time>2017-03-19T14:40:26Z</time>
      </trkpt>
      <trkpt lat="43.25675" lon="5.95849">
        <ele>386.9</ele>
        <time>2017-03-19T14:40:19Z</time>
      </trkpt>
      <trkpt lat="43.25679" lon="5.95837">
        <ele>387</ele>
        <time>2017-03-19T14:40:07Z</time>
      </trkpt>
      <trkpt lat="43.25681" lon="5.95825">
        <ele>387.2</ele>
        <time>2017-03-19T14:39:58Z</time>
      </trkpt>
      <trkpt lat="43.25681" lon="5.95811">
        <ele>387.6</ele>
        <time>2017-03-19T14:39:47Z</time>
      </trkpt>
      <trkpt lat="43.25689" lon="5.95802">
        <ele>387.9</ele>
        <time>2017-03-19T14:39:40Z</time>
      </trkpt>
      <trkpt lat="43.25696" lon="5.95792">
        <ele>387.7</ele>
        <time>2017-03-19T14:39:30Z</time>
      </trkpt>
      <trkpt lat="43.25704" lon="5.95784">
        <ele>387.3</ele>
        <time>2017-03-19T14:39:16Z</time>
      </trkpt>
      <trkpt lat="43.25711" lon="5.95776">
        <ele>386.8</ele>
        <time>2017-03-19T14:39:04Z</time>
      </trkpt>
      <trkpt lat="43.25718" lon="5.95767">
        <ele>386.2</ele>
        <time>2017-03-19T14:38:55Z</time>
      </trkpt>
      <trkpt lat="43.25725" lon="5.95759">
        <ele>385.9</ele>
        <time>2017-03-19T14:38:41Z</time>
      </trkpt>
      <trkpt lat="43.25731" lon="5.95748">
        <ele>384.6</ele>
        <time>2017-03-19T14:38:06Z</time>
      </trkpt>
      <trkpt lat="43.25736" lon="5.95737">
        <ele>384.3</ele>
        <time>2017-03-19T14:37:58Z</time>
      </trkpt>
      <trkpt lat="43.25739" lon="5.95725">
        <ele>383.9</ele>
        <time>2017-03-19T14:37:48Z</time>
      </trkpt>
      <trkpt lat="43.25742" lon="5.95713">
        <ele>383.7</ele>
        <time>2017-03-19T14:37:41Z</time>
      </trkpt>
      <trkpt lat="43.25745" lon="5.957">
        <ele>383.5</ele>
        <time>2017-03-19T14:37:35Z</time>
      </trkpt>
      <trkpt lat="43.25746" lon="5.95686">
        <ele>383.4</ele>
        <time>2017-03-19T14:37:25Z</time>
      </trkpt>
      <trkpt lat="43.25751" lon="5.95676">
        <ele>383.1</ele>
        <time>2017-03-19T14:37:19Z</time>
      </trkpt>
      <trkpt lat="43.25755" lon="5.95662">
        <ele>382.2</ele>
        <time>2017-03-19T14:37:08Z</time>
      </trkpt>
      <trkpt lat="43.25759" lon="5.95649">
        <ele>381.2</ele>
        <time>2017-03-19T14:36:55Z</time>
      </trkpt>
      <trkpt lat="43.25766" lon="5.9564">
        <ele>380.2</ele>
        <time>2017-03-19T14:36:44Z</time>
      </trkpt>
      <trkpt lat="43.25775" lon="5.95634">
        <ele>379.7</ele>
        <time>2017-03-19T14:36:30Z</time>
      </trkpt>
      <trkpt lat="43.25784" lon="5.95628">
        <ele>379.6</ele>
        <time>2017-03-19T14:36:23Z</time>
      </trkpt>
      <trkpt lat="43.25793" lon="5.95624">
        <ele>379.4</ele>
        <time>2017-03-19T14:36:15Z</time>
      </trkpt>
      <trkpt lat="43.25802" lon="5.95619">
        <ele>379.1</ele>
        <time>2017-03-19T14:36:08Z</time>
      </trkpt>
      <trkpt lat="43.25808" lon="5.95609">
        <ele>378.8</ele>
        <time>2017-03-19T14:35:58Z</time>
      </trkpt>
      <trkpt lat="43.25817" lon="5.95601">
        <ele>378.4</ele>
        <time>2017-03-19T14:35:50Z</time>
      </trkpt>
      <trkpt lat="43.25824" lon="5.95593">
        <ele>377.8</ele>
        <time>2017-03-19T14:35:41Z</time>
      </trkpt>
      <trkpt lat="43.25833" lon="5.95587">
        <ele>377.4</ele>
        <time>2017-03-19T14:35:34Z</time>
      </trkpt>
      <trkpt lat="43.25841" lon="5.95578">
        <ele>377.3</ele>
        <time>2017-03-19T14:35:26Z</time>
      </trkpt>
      <trkpt lat="43.25849" lon="5.9557">
        <ele>377.1</ele>
        <time>2017-03-19T14:35:20Z</time>
      </trkpt>
      <trkpt lat="43.25857" lon="5.95565">
        <ele>377.1</ele>
        <time>2017-03-19T14:35:14Z</time>
      </trkpt>
      <trkpt lat="43.25867" lon="5.95565">
        <ele>376.9</ele>
        <time>2017-03-19T14:35:00Z</time>
      </trkpt>
      <trkpt lat="43.25875" lon="5.95557">
        <ele>376.6</ele>
        <time>2017-03-19T14:34:50Z</time>
      </trkpt>
      <trkpt lat="43.2588" lon="5.95546">
        <ele>376.4</ele>
        <time>2017-03-19T14:34:41Z</time>
      </trkpt>
      <trkpt lat="43.25885" lon="5.95534">
        <ele>376.4</ele>
        <time>2017-03-19T14:34:32Z</time>
      </trkpt>
      <trkpt lat="43.25887" lon="5.9552">
        <ele>376.3</ele>
        <time>2017-03-19T14:34:21Z</time>
      </trkpt>
      <trkpt lat="43.25896" lon="5.95523">
        <ele>376.7</ele>
        <time>2017-03-19T14:33:27Z</time>
      </trkpt>
      <trkpt lat="43.25893" lon="5.95511">
        <ele>377.1</ele>
        <time>2017-03-19T14:33:17Z</time>
      </trkpt>
      <trkpt lat="43.25889" lon="5.95499">
        <ele>378.5</ele>
        <time>2017-03-19T14:33:04Z</time>
      </trkpt>
      <trkpt lat="43.25888" lon="5.95486">
        <ele>381.1</ele>
        <time>2017-03-19T14:32:49Z</time>
      </trkpt>
      <trkpt lat="43.25887" lon="5.95472">
        <ele>383.7</ele>
        <time>2017-03-19T14:32:34Z</time>
      </trkpt>
      <trkpt lat="43.25886" lon="5.95459">
        <ele>385.9</ele>
        <time>2017-03-19T14:32:22Z</time>
      </trkpt>
      <trkpt lat="43.25892" lon="5.95447">
        <ele>387.6</ele>
        <time>2017-03-19T14:32:12Z</time>
      </trkpt>
      <trkpt lat="43.25899" lon="5.95438">
        <ele>389.7</ele>
        <time>2017-03-19T14:31:56Z</time>
      </trkpt>
      <trkpt lat="43.25905" lon="5.95427">
        <ele>390.7</ele>
        <time>2017-03-19T14:31:45Z</time>
      </trkpt>
      <trkpt lat="43.25908" lon="5.95415">
        <ele>391.4</ele>
        <time>2017-03-19T14:31:35Z</time>
      </trkpt>
      <trkpt lat="43.25912" lon="5.95403">
        <ele>391.8</ele>
        <time>2017-03-19T14:31:27Z</time>
      </trkpt>
      <trkpt lat="43.25915" lon="5.95391">
        <ele>392.6</ele>
        <time>2017-03-19T14:31:19Z</time>
      </trkpt>
      <trkpt lat="43.25916" lon="5.95378">
        <ele>393.1</ele>
        <time>2017-03-19T14:31:12Z</time>
      </trkpt>
      <trkpt lat="43.25914" lon="5.95366">
        <ele>393.8</ele>
        <time>2017-03-19T14:30:59Z</time>
      </trkpt>
      <trkpt lat="43.25909" lon="5.95354">
        <ele>394.8</ele>
        <time>2017-03-19T14:30:47Z</time>
      </trkpt>
      <trkpt lat="43.25905" lon="5.95342">
        <ele>395.5</ele>
        <time>2017-03-19T14:30:39Z</time>
      </trkpt>
      <trkpt lat="43.25903" lon="5.9533">
        <ele>396</ele>
        <time>2017-03-19T14:30:28Z</time>
      </trkpt>
      <trkpt lat="43.25902" lon="5.95317">
        <ele>396.4</ele>
        <time>2017-03-19T14:30:19Z</time>
      </trkpt>
      <trkpt lat="43.25899" lon="5.95305">
        <ele>397.2</ele>
        <time>2017-03-19T14:30:10Z</time>
      </trkpt>
      <trkpt lat="43.25899" lon="5.95292">
        <ele>398.3</ele>
        <time>2017-03-19T14:30:00Z</time>
      </trkpt>
      <trkpt lat="43.25901" lon="5.9528">
        <ele>398.9</ele>
        <time>2017-03-19T14:29:49Z</time>
      </trkpt>
      <trkpt lat="43.25901" lon="5.95267">
        <ele>399.2</ele>
        <time>2017-03-19T14:29:38Z</time>
      </trkpt>
      <trkpt lat="43.25903" lon="5.95253">
        <ele>399.7</ele>
        <time>2017-03-19T14:29:23Z</time>
      </trkpt>
      <trkpt lat="43.25901" lon="5.95241">
        <ele>400</ele>
        <time>2017-03-19T14:29:04Z</time>
      </trkpt>
      <trkpt lat="43.25903" lon="5.95227">
        <ele>400.6</ele>
        <time>2017-03-19T14:27:22Z</time>
      </trkpt>
      <trkpt lat="43.25903" lon="5.95214">
        <ele>401.1</ele>
        <time>2017-03-19T14:26:49Z</time>
      </trkpt>
      <trkpt lat="43.25901" lon="5.95202">
        <ele>401.6</ele>
        <time>2017-03-19T14:26:37Z</time>
      </trkpt>
      <trkpt lat="43.25902" lon="5.95189">
        <ele>401.8</ele>
        <time>2017-03-19T14:26:23Z</time>
      </trkpt>
      <trkpt lat="43.25899" lon="5.95176">
        <ele>401.1</ele>
        <time>2017-03-19T14:26:12Z</time>
      </trkpt>
      <trkpt lat="43.25895" lon="5.95165">
        <ele>400.3</ele>
        <time>2017-03-19T14:25:58Z</time>
      </trkpt>
      <trkpt lat="43.25888" lon="5.95157">
        <ele>399.1</ele>
        <time>2017-03-19T14:25:43Z</time>
      </trkpt>
      <trkpt lat="43.25879" lon="5.95155">
        <ele>398.1</ele>
        <time>2017-03-19T14:25:31Z</time>
      </trkpt>
      <trkpt lat="43.2587" lon="5.95152">
        <ele>396.9</ele>
        <time>2017-03-19T14:25:14Z</time>
      </trkpt>
      <trkpt lat="43.25862" lon="5.95146">
        <ele>396.2</ele>
        <time>2017-03-19T14:25:03Z</time>
      </trkpt>
      <trkpt lat="43.25863" lon="5.95133">
        <ele>395.9</ele>
        <time>2017-03-19T14:24:51Z</time>
      </trkpt>
      <trkpt lat="43.25867" lon="5.95122">
        <ele>396.4</ele>
        <time>2017-03-19T14:24:37Z</time>
      </trkpt>
      <trkpt lat="43.25865" lon="5.95109">
        <ele>397.2</ele>
        <time>2017-03-19T14:24:29Z</time>
      </trkpt>
      <trkpt lat="43.25857" lon="5.95103">
        <ele>399.6</ele>
        <time>2017-03-19T14:24:15Z</time>
      </trkpt>
      <trkpt lat="43.25851" lon="5.95094">
        <ele>401</ele>
        <time>2017-03-19T14:24:01Z</time>
      </trkpt>
      <trkpt lat="43.25842" lon="5.95091">
        <ele>402</ele>
        <time>2017-03-19T14:23:52Z</time>
      </trkpt>
      <trkpt lat="43.25835" lon="5.95082">
        <ele>403.9</ele>
        <time>2017-03-19T14:23:40Z</time>
      </trkpt>
      <trkpt lat="43.25829" lon="5.95073">
        <ele>406.3</ele>
        <time>2017-03-19T14:23:23Z</time>
      </trkpt>
      <trkpt lat="43.25831" lon="5.9506">
        <ele>408.1</ele>
        <time>2017-03-19T14:23:10Z</time>
      </trkpt>
      <trkpt lat="43.25837" lon="5.9505">
        <ele>409.7</ele>
        <time>2017-03-19T14:22:56Z</time>
      </trkpt>
      <trkpt lat="43.25844" lon="5.95042">
        <ele>410.5</ele>
        <time>2017-03-19T14:22:39Z</time>
      </trkpt>
      <trkpt lat="43.25853" lon="5.95036">
        <ele>410.7</ele>
        <time>2017-03-19T14:22:27Z</time>
      </trkpt>
      <trkpt lat="43.25861" lon="5.95029">
        <ele>410.6</ele>
        <time>2017-03-19T14:22:15Z</time>
      </trkpt>
      <trkpt lat="43.25869" lon="5.95021">
        <ele>410.1</ele>
        <time>2017-03-19T14:22:05Z</time>
      </trkpt>
      <trkpt lat="43.25878" lon="5.95015">
        <ele>410.1</ele>
        <time>2017-03-19T14:21:55Z</time>
      </trkpt>
      <trkpt lat="43.25884" lon="5.95006">
        <ele>410.2</ele>
        <time>2017-03-19T14:21:48Z</time>
      </trkpt>
      <trkpt lat="43.2589" lon="5.94995">
        <ele>410.6</ele>
        <time>2017-03-19T14:21:39Z</time>
      </trkpt>
      <trkpt lat="43.25891" lon="5.94983">
        <ele>411.4</ele>
        <time>2017-03-19T14:21:26Z</time>
      </trkpt>
      <trkpt lat="43.25892" lon="5.94969">
        <ele>411.8</ele>
        <time>2017-03-19T14:21:17Z</time>
      </trkpt>
      <trkpt lat="43.25891" lon="5.94957">
        <ele>411.7</ele>
        <time>2017-03-19T14:21:03Z</time>
      </trkpt>
      <trkpt lat="43.25893" lon="5.94944">
        <ele>411.6</ele>
        <time>2017-03-19T14:20:50Z</time>
      </trkpt>
      <trkpt lat="43.25895" lon="5.94931">
        <ele>411.6</ele>
        <time>2017-03-19T14:20:42Z</time>
      </trkpt>
      <trkpt lat="43.25902" lon="5.9492">
        <ele>411.8</ele>
        <time>2017-03-19T14:20:32Z</time>
      </trkpt>
      <trkpt lat="43.25907" lon="5.94909">
        <ele>412.1</ele>
        <time>2017-03-19T14:20:19Z</time>
      </trkpt>
      <trkpt lat="43.25915" lon="5.949">
        <ele>412.4</ele>
        <time>2017-03-19T14:20:06Z</time>
      </trkpt>
      <trkpt lat="43.25919" lon="5.94889">
        <ele>412.9</ele>
        <time>2017-03-19T14:19:53Z</time>
      </trkpt>
      <trkpt lat="43.25922" lon="5.94876">
        <ele>414.1</ele>
        <time>2017-03-19T14:19:34Z</time>
      </trkpt>
      <trkpt lat="43.25929" lon="5.94867">
        <ele>415.1</ele>
        <time>2017-03-19T14:19:26Z</time>
      </trkpt>
      <trkpt lat="43.25933" lon="5.94855">
        <ele>416.3</ele>
        <time>2017-03-19T14:19:18Z</time>
      </trkpt>
      <trkpt lat="43.2594" lon="5.94847">
        <ele>417.3</ele>
        <time>2017-03-19T14:19:09Z</time>
      </trkpt>
      <trkpt lat="43.25943" lon="5.94834">
        <ele>419.6</ele>
        <time>2017-03-19T14:18:38Z</time>
      </trkpt>
      <trkpt lat="43.25945" lon="5.94822">
        <ele>420.1</ele>
        <time>2017-03-19T14:18:25Z</time>
      </trkpt>
      <trkpt lat="43.25949" lon="5.94811">
        <ele>420.7</ele>
        <time>2017-03-19T14:18:10Z</time>
      </trkpt>
      <trkpt lat="43.25956" lon="5.94801">
        <ele>421.4</ele>
        <time>2017-03-19T14:18:03Z</time>
      </trkpt>
      <trkpt lat="43.25963" lon="5.94792">
        <ele>422.7</ele>
        <time>2017-03-19T14:17:44Z</time>
      </trkpt>
      <trkpt lat="43.25972" lon="5.94793">
        <ele>424.2</ele>
        <time>2017-03-19T14:17:18Z</time>
      </trkpt>
      <trkpt lat="43.25979" lon="5.94783">
        <ele>425</ele>
        <time>2017-03-19T14:17:12Z</time>
      </trkpt>
      <trkpt lat="43.25989" lon="5.94778">
        <ele>425.6</ele>
        <time>2017-03-19T14:16:59Z</time>
      </trkpt>
      <trkpt lat="43.25997" lon="5.94773">
        <ele>425.8</ele>
        <time>2017-03-19T14:16:49Z</time>
      </trkpt>
      <trkpt lat="43.26005" lon="5.94766">
        <ele>426.8</ele>
        <time>2017-03-19T14:16:35Z</time>
      </trkpt>
      <trkpt lat="43.26013" lon="5.94757">
        <ele>427.7</ele>
        <time>2017-03-19T14:16:23Z</time>
      </trkpt>
      <trkpt lat="43.2602" lon="5.94749">
        <ele>427.6</ele>
        <time>2017-03-19T14:16:10Z</time>
      </trkpt>
      <trkpt lat="43.26025" lon="5.94738">
        <ele>427.3</ele>
        <time>2017-03-19T14:16:02Z</time>
      </trkpt>
      <trkpt lat="43.2603" lon="5.94727">
        <ele>426.8</ele>
        <time>2017-03-19T14:15:50Z</time>
      </trkpt>
      <trkpt lat="43.26036" lon="5.94716">
        <ele>426.6</ele>
        <time>2017-03-19T14:15:40Z</time>
      </trkpt>
      <trkpt lat="43.26039" lon="5.94703">
        <ele>426.6</ele>
        <time>2017-03-19T14:15:30Z</time>
      </trkpt>
      <trkpt lat="43.26045" lon="5.94692">
        <ele>426</ele>
        <time>2017-03-19T14:15:21Z</time>
      </trkpt>
      <trkpt lat="43.26048" lon="5.9468">
        <ele>425.5</ele>
        <time>2017-03-19T14:15:12Z</time>
      </trkpt>
      <trkpt lat="43.26051" lon="5.94668">
        <ele>425.3</ele>
        <time>2017-03-19T14:15:06Z</time>
      </trkpt>
      <trkpt lat="43.26053" lon="5.94656">
        <ele>424.9</ele>
        <time>2017-03-19T14:14:57Z</time>
      </trkpt>
      <trkpt lat="43.26053" lon="5.94643">
        <ele>424.9</ele>
        <time>2017-03-19T14:14:49Z</time>
      </trkpt>
      <trkpt lat="43.26056" lon="5.94631">
        <ele>425.1</ele>
        <time>2017-03-19T14:14:42Z</time>
      </trkpt>
      <trkpt lat="43.26057" lon="5.94618">
        <ele>425.2</ele>
        <time>2017-03-19T14:14:32Z</time>
      </trkpt>
      <trkpt lat="43.26061" lon="5.94606">
        <ele>425</ele>
        <time>2017-03-19T14:14:23Z</time>
      </trkpt>
      <trkpt lat="43.26064" lon="5.94593">
        <ele>425.8</ele>
        <time>2017-03-19T14:13:49Z</time>
      </trkpt>
      <trkpt lat="43.26064" lon="5.9458">
        <ele>426.6</ele>
        <time>2017-03-19T14:13:36Z</time>
      </trkpt>
      <trkpt lat="43.26071" lon="5.9457">
        <ele>427.7</ele>
        <time>2017-03-19T14:13:25Z</time>
      </trkpt>
      <trkpt lat="43.26075" lon="5.94558">
        <ele>428.1</ele>
        <time>2017-03-19T14:13:17Z</time>
      </trkpt>
      <trkpt lat="43.26081" lon="5.94546">
        <ele>429.4</ele>
        <time>2017-03-19T14:13:07Z</time>
      </trkpt>
      <trkpt lat="43.26082" lon="5.94533">
        <ele>430.9</ele>
        <time>2017-03-19T14:12:56Z</time>
      </trkpt>
      <trkpt lat="43.26085" lon="5.9452">
        <ele>432.1</ele>
        <time>2017-03-19T14:12:47Z</time>
      </trkpt>
      <trkpt lat="43.26081" lon="5.94509">
        <ele>434.6</ele>
        <time>2017-03-19T14:12:32Z</time>
      </trkpt>
      <trkpt lat="43.26081" lon="5.94496">
        <ele>435.8</ele>
        <time>2017-03-19T14:12:25Z</time>
      </trkpt>
      <trkpt lat="43.26077" lon="5.94485">
        <ele>436.9</ele>
        <time>2017-03-19T14:12:15Z</time>
      </trkpt>
      <trkpt lat="43.26072" lon="5.94473">
        <ele>438.9</ele>
        <time>2017-03-19T14:11:59Z</time>
      </trkpt>
      <trkpt lat="43.26072" lon="5.9446">
        <ele>440.2</ele>
        <time>2017-03-19T14:11:44Z</time>
      </trkpt>
      <trkpt lat="43.2608" lon="5.94452">
        <ele>441</ele>
        <time>2017-03-19T14:11:19Z</time>
      </trkpt>
      <trkpt lat="43.26086" lon="5.94442">
        <ele>441.5</ele>
        <time>2017-03-19T14:11:09Z</time>
      </trkpt>
      <trkpt lat="43.26094" lon="5.94435">
        <ele>441.8</ele>
        <time>2017-03-19T14:10:58Z</time>
      </trkpt>
      <trkpt lat="43.26103" lon="5.94435">
        <ele>441.7</ele>
        <time>2017-03-19T14:10:48Z</time>
      </trkpt>
      <trkpt lat="43.2611" lon="5.94427">
        <ele>441.7</ele>
        <time>2017-03-19T14:10:39Z</time>
      </trkpt>
      <trkpt lat="43.26118" lon="5.9442">
        <ele>441.8</ele>
        <time>2017-03-19T14:10:31Z</time>
      </trkpt>
      <trkpt lat="43.26126" lon="5.94412">
        <ele>442</ele>
        <time>2017-03-19T14:10:21Z</time>
      </trkpt>
      <trkpt lat="43.26134" lon="5.94404">
        <ele>442.1</ele>
        <time>2017-03-19T14:10:10Z</time>
      </trkpt>
      <trkpt lat="43.26141" lon="5.94396">
        <ele>442.4</ele>
        <time>2017-03-19T14:10:01Z</time>
      </trkpt>
      <trkpt lat="43.26139" lon="5.94383">
        <ele>442.8</ele>
        <time>2017-03-19T14:09:51Z</time>
      </trkpt>
      <trkpt lat="43.26137" lon="5.9437">
        <ele>443.9</ele>
        <time>2017-03-19T14:09:36Z</time>
      </trkpt>
      <trkpt lat="43.26139" lon="5.94358">
        <ele>444</ele>
        <time>2017-03-19T14:09:25Z</time>
      </trkpt>
      <trkpt lat="43.2614" lon="5.94345">
        <ele>444.3</ele>
        <time>2017-03-19T14:09:17Z</time>
      </trkpt>
      <trkpt lat="43.2614" lon="5.94331">
        <ele>444.9</ele>
        <time>2017-03-19T14:09:08Z</time>
      </trkpt>
      <trkpt lat="43.26137" lon="5.94319">
        <ele>445.1</ele>
        <time>2017-03-19T14:08:59Z</time>
      </trkpt>
      <trkpt lat="43.26133" lon="5.94307">
        <ele>445.3</ele>
        <time>2017-03-19T14:08:50Z</time>
      </trkpt>
      <trkpt lat="43.26138" lon="5.94296">
        <ele>445.2</ele>
        <time>2017-03-19T14:08:40Z</time>
      </trkpt>
      <trkpt lat="43.26142" lon="5.94284">
        <ele>445.3</ele>
        <time>2017-03-19T14:08:31Z</time>
      </trkpt>
      <trkpt lat="43.26141" lon="5.94271">
        <ele>445.5</ele>
        <time>2017-03-19T14:08:23Z</time>
      </trkpt>
      <trkpt lat="43.26144" lon="5.94259">
        <ele>445.2</ele>
        <time>2017-03-19T14:08:13Z</time>
      </trkpt>
      <trkpt lat="43.26144" lon="5.94245">
        <ele>445.3</ele>
        <time>2017-03-19T14:08:03Z</time>
      </trkpt>
      <trkpt lat="43.26146" lon="5.94233">
        <ele>445.4</ele>
        <time>2017-03-19T14:07:53Z</time>
      </trkpt>
      <trkpt lat="43.26153" lon="5.94224">
        <ele>445</ele>
        <time>2017-03-19T14:07:43Z</time>
      </trkpt>
      <trkpt lat="43.26157" lon="5.94212">
        <ele>445</ele>
        <time>2017-03-19T14:07:32Z</time>
      </trkpt>
      <trkpt lat="43.26163" lon="5.94202">
        <ele>444.8</ele>
        <time>2017-03-19T14:07:19Z</time>
      </trkpt>
      <trkpt lat="43.26167" lon="5.94191">
        <ele>444.8</ele>
        <time>2017-03-19T14:07:10Z</time>
      </trkpt>
      <trkpt lat="43.26171" lon="5.94179">
        <ele>444.9</ele>
        <time>2017-03-19T14:06:58Z</time>
      </trkpt>
      <trkpt lat="43.26173" lon="5.94167">
        <ele>444.7</ele>
        <time>2017-03-19T14:06:47Z</time>
      </trkpt>
      <trkpt lat="43.26175" lon="5.94154">
        <ele>444</ele>
        <time>2017-03-19T14:06:35Z</time>
      </trkpt>
      <trkpt lat="43.26178" lon="5.94142">
        <ele>443.7</ele>
        <time>2017-03-19T14:06:25Z</time>
      </trkpt>
      <trkpt lat="43.26182" lon="5.9413">
        <ele>443.1</ele>
        <time>2017-03-19T14:06:13Z</time>
      </trkpt>
      <trkpt lat="43.26183" lon="5.94117">
        <ele>442.4</ele>
        <time>2017-03-19T14:06:02Z</time>
      </trkpt>
      <trkpt lat="43.26191" lon="5.94109">
        <ele>441.2</ele>
        <time>2017-03-19T14:05:43Z</time>
      </trkpt>
      <trkpt lat="43.26197" lon="5.941">
        <ele>440.3</ele>
        <time>2017-03-19T14:05:28Z</time>
      </trkpt>
      <trkpt lat="43.26202" lon="5.94089">
        <ele>440.2</ele>
        <time>2017-03-19T14:05:15Z</time>
      </trkpt>
      <trkpt lat="43.26207" lon="5.94078">
        <ele>439.5</ele>
        <time>2017-03-19T14:03:31Z</time>
      </trkpt>
      <trkpt lat="43.26202" lon="5.94068">
        <ele>439.1</ele>
        <time>2017-03-19T14:02:06Z</time>
      </trkpt>
      <trkpt lat="43.26205" lon="5.94056">
        <ele>438.3</ele>
        <time>2017-03-19T14:01:44Z</time>
      </trkpt>
      <trkpt lat="43.26204" lon="5.94042">
        <ele>437.1</ele>
        <time>2017-03-19T14:01:29Z</time>
      </trkpt>
      <trkpt lat="43.26208" lon="5.94031">
        <ele>435.8</ele>
        <time>2017-03-19T14:01:17Z</time>
      </trkpt>
      <trkpt lat="43.26214" lon="5.9402">
        <ele>434.9</ele>
        <time>2017-03-19T14:01:09Z</time>
      </trkpt>
      <trkpt lat="43.26214" lon="5.94007">
        <ele>434.4</ele>
        <time>2017-03-19T14:00:58Z</time>
      </trkpt>
      <trkpt lat="43.26222" lon="5.93999">
        <ele>433.2</ele>
        <time>2017-03-19T13:59:45Z</time>
      </trkpt>
      <trkpt lat="43.26225" lon="5.93988">
        <ele>432.7</ele>
        <time>2017-03-19T13:59:34Z</time>
      </trkpt>
      <trkpt lat="43.26228" lon="5.93975">
        <ele>432.3</ele>
        <time>2017-03-19T13:59:25Z</time>
      </trkpt>
      <trkpt lat="43.26235" lon="5.93966">
        <ele>432.1</ele>
        <time>2017-03-19T13:59:17Z</time>
      </trkpt>
      <trkpt lat="43.26234" lon="5.93953">
        <ele>432</ele>
        <time>2017-03-19T13:58:58Z</time>
      </trkpt>
      <trkpt lat="43.26236" lon="5.93941">
        <ele>432.8</ele>
        <time>2017-03-19T13:58:45Z</time>
      </trkpt>
      <trkpt lat="43.26231" lon="5.93929">
        <ele>432.7</ele>
        <time>2017-03-19T13:58:35Z</time>
      </trkpt>
      <trkpt lat="43.2623" lon="5.93917">
        <ele>433.7</ele>
        <time>2017-03-19T13:58:26Z</time>
      </trkpt>
      <trkpt lat="43.26226" lon="5.93906">
        <ele>434</ele>
        <time>2017-03-19T13:58:16Z</time>
      </trkpt>
      <trkpt lat="43.26225" lon="5.93893">
        <ele>434.1</ele>
        <time>2017-03-19T13:58:06Z</time>
      </trkpt>
      <trkpt lat="43.26225" lon="5.9388">
        <ele>434.1</ele>
        <time>2017-03-19T13:57:57Z</time>
      </trkpt>
      <trkpt lat="43.26224" lon="5.93867">
        <ele>434.6</ele>
        <time>2017-03-19T13:57:48Z</time>
      </trkpt>
      <trkpt lat="43.26222" lon="5.93854">
        <ele>434.1</ele>
        <time>2017-03-19T13:57:37Z</time>
      </trkpt>
      <trkpt lat="43.26219" lon="5.93843">
        <ele>433.9</ele>
        <time>2017-03-19T13:57:19Z</time>
      </trkpt>
      <trkpt lat="43.26219" lon="5.9383">
        <ele>433.3</ele>
        <time>2017-03-19T13:57:09Z</time>
      </trkpt>
      <trkpt lat="43.2622" lon="5.93818">
        <ele>432.4</ele>
        <time>2017-03-19T13:56:58Z</time>
      </trkpt>
      <trkpt lat="43.26227" lon="5.9381">
        <ele>431.3</ele>
        <time>2017-03-19T13:56:42Z</time>
      </trkpt>
      <trkpt lat="43.26237" lon="5.93808">
        <ele>430.3</ele>
        <time>2017-03-19T13:56:30Z</time>
      </trkpt>
      <trkpt lat="43.26246" lon="5.93804">
        <ele>429.8</ele>
        <time>2017-03-19T13:56:20Z</time>
      </trkpt>
      <trkpt lat="43.26255" lon="5.93804">
        <ele>429.3</ele>
        <time>2017-03-19T13:56:10Z</time>
      </trkpt>
      <trkpt lat="43.26265" lon="5.93805">
        <ele>429.6</ele>
        <time>2017-03-19T13:56:01Z</time>
      </trkpt>
      <trkpt lat="43.26275" lon="5.93808">
        <ele>429</ele>
        <time>2017-03-19T13:55:50Z</time>
      </trkpt>
      <trkpt lat="43.26284" lon="5.93809">
        <ele>428.5</ele>
        <time>2017-03-19T13:55:39Z</time>
      </trkpt>
      <trkpt lat="43.26291" lon="5.93799">
        <ele>426.6</ele>
        <time>2017-03-19T13:55:23Z</time>
      </trkpt>
      <trkpt lat="43.26286" lon="5.93788">
        <ele>425.8</ele>
        <time>2017-03-19T13:55:11Z</time>
      </trkpt>
      <trkpt lat="43.26277" lon="5.93781">
        <ele>424.5</ele>
        <time>2017-03-19T13:54:59Z</time>
      </trkpt>
      <trkpt lat="43.26269" lon="5.93777">
        <ele>423.9</ele>
        <time>2017-03-19T13:54:45Z</time>
      </trkpt>
      <trkpt lat="43.2626" lon="5.93773">
        <ele>423.1</ele>
        <time>2017-03-19T13:54:29Z</time>
      </trkpt>
      <trkpt lat="43.26251" lon="5.93767">
        <ele>422.5</ele>
        <time>2017-03-19T13:54:10Z</time>
      </trkpt>
      <trkpt lat="43.26243" lon="5.93762">
        <ele>421.7</ele>
        <time>2017-03-19T13:53:53Z</time>
      </trkpt>
      <trkpt lat="43.26236" lon="5.93754">
        <ele>421.1</ele>
        <time>2017-03-19T13:53:35Z</time>
      </trkpt>
      <trkpt lat="43.2623" lon="5.93745">
        <ele>420.6</ele>
        <time>2017-03-19T13:53:12Z</time>
      </trkpt>
      <trkpt lat="43.26223" lon="5.93737">
        <ele>419.8</ele>
        <time>2017-03-19T13:52:34Z</time>
      </trkpt>
      <trkpt lat="43.26218" lon="5.93727">
        <ele>418.9</ele>
        <time>2017-03-19T13:52:16Z</time>
      </trkpt>
      <trkpt lat="43.26212" lon="5.93717">
        <ele>418.1</ele>
        <time>2017-03-19T13:51:59Z</time>
      </trkpt>
      <trkpt lat="43.26207" lon="5.93707">
        <ele>417.2</ele>
        <time>2017-03-19T13:51:38Z</time>
      </trkpt>
      <trkpt lat="43.26202" lon="5.93696">
        <ele>417</ele>
        <time>2017-03-19T13:51:24Z</time>
      </trkpt>
      <trkpt lat="43.26196" lon="5.93686">
        <ele>416.7</ele>
        <time>2017-03-19T13:50:21Z</time>
      </trkpt>
      <trkpt lat="43.26192" lon="5.93674">
        <ele>416.2</ele>
        <time>2017-03-19T13:48:33Z</time>
      </trkpt>
      <trkpt lat="43.26185" lon="5.93667">
        <ele>415.4</ele>
        <time>2017-03-19T13:48:11Z</time>
      </trkpt>
      <trkpt lat="43.26177" lon="5.9366">
        <ele>414.7</ele>
        <time>2017-03-19T13:47:56Z</time>
      </trkpt>
      <trkpt lat="43.26169" lon="5.93654">
        <ele>413.6</ele>
        <time>2017-03-19T13:47:42Z</time>
      </trkpt>
      <trkpt lat="43.26161" lon="5.93647">
        <ele>412.9</ele>
        <time>2017-03-19T13:47:28Z</time>
      </trkpt>
      <trkpt lat="43.26153" lon="5.93641">
        <ele>412.8</ele>
        <time>2017-03-19T13:47:15Z</time>
      </trkpt>
      <trkpt lat="43.26146" lon="5.93632">
        <ele>412.8</ele>
        <time>2017-03-19T13:47:03Z</time>
      </trkpt>
      <trkpt lat="43.26138" lon="5.93625">
        <ele>412.5</ele>
        <time>2017-03-19T13:46:52Z</time>
      </trkpt>
      <trkpt lat="43.26131" lon="5.93617">
        <ele>412</ele>
        <time>2017-03-19T13:46:43Z</time>
      </trkpt>
      <trkpt lat="43.26124" lon="5.93609">
        <ele>412.4</ele>
        <time>2017-03-19T13:46:31Z</time>
      </trkpt>
      <trkpt lat="43.26116" lon="5.93602">
        <ele>412.7</ele>
        <time>2017-03-19T13:46:20Z</time>
      </trkpt>
      <trkpt lat="43.26109" lon="5.93593">
        <ele>413.5</ele>
        <time>2017-03-19T13:46:06Z</time>
      </trkpt>
      <trkpt lat="43.26104" lon="5.93583">
        <ele>414.2</ele>
        <time>2017-03-19T13:45:54Z</time>
      </trkpt>
      <trkpt lat="43.26095" lon="5.93579">
        <ele>414.8</ele>
        <time>2017-03-19T13:45:35Z</time>
      </trkpt>
      <trkpt lat="43.26086" lon="5.93577">
        <ele>415.4</ele>
        <time>2017-03-19T13:45:18Z</time>
      </trkpt>
      <trkpt lat="43.26076" lon="5.93576">
        <ele>416.7</ele>
        <time>2017-03-19T13:44:59Z</time>
      </trkpt>
      <trkpt lat="43.26067" lon="5.93573">
        <ele>417</ele>
        <time>2017-03-19T13:44:47Z</time>
      </trkpt>
      <trkpt lat="43.26058" lon="5.9357">
        <ele>417.2</ele>
        <time>2017-03-19T13:44:37Z</time>
      </trkpt>
      <trkpt lat="43.26049" lon="5.93564">
        <ele>417.1</ele>
        <time>2017-03-19T13:44:28Z</time>
      </trkpt>
      <trkpt lat="43.2604" lon="5.9356">
        <ele>417.6</ele>
        <time>2017-03-19T13:44:16Z</time>
      </trkpt>
      <trkpt lat="43.2603" lon="5.93557">
        <ele>418</ele>
        <time>2017-03-19T13:44:08Z</time>
      </trkpt>
      <trkpt lat="43.26021" lon="5.93552">
        <ele>418.4</ele>
        <time>2017-03-19T13:43:56Z</time>
      </trkpt>
      <trkpt lat="43.26012" lon="5.93549">
        <ele>418.8</ele>
        <time>2017-03-19T13:43:47Z</time>
      </trkpt>
      <trkpt lat="43.26003" lon="5.93548">
        <ele>419</ele>
        <time>2017-03-19T13:43:37Z</time>
      </trkpt>
      <trkpt lat="43.25994" lon="5.93552">
        <ele>419.4</ele>
        <time>2017-03-19T13:43:25Z</time>
      </trkpt>
      <trkpt lat="43.25985" lon="5.93558">
        <ele>420</ele>
        <time>2017-03-19T13:43:15Z</time>
      </trkpt>
      <trkpt lat="43.25978" lon="5.93566">
        <ele>420.3</ele>
        <time>2017-03-19T13:43:08Z</time>
      </trkpt>
      <trkpt lat="43.25974" lon="5.93577">
        <ele>420.6</ele>
        <time>2017-03-19T13:42:52Z</time>
      </trkpt>
      <trkpt lat="43.25968" lon="5.93586">
        <ele>421</ele>
        <time>2017-03-19T13:41:44Z</time>
      </trkpt>
      <trkpt lat="43.25959" lon="5.93591">
        <ele>421.7</ele>
        <time>2017-03-19T13:41:11Z</time>
      </trkpt>
      <trkpt lat="43.25951" lon="5.93598">
        <ele>422.8</ele>
        <time>2017-03-19T13:41:00Z</time>
      </trkpt>
      <trkpt lat="43.25943" lon="5.93602">
        <ele>423.3</ele>
        <time>2017-03-19T13:40:51Z</time>
      </trkpt>
      <trkpt lat="43.25934" lon="5.93606">
        <ele>423.8</ele>
        <time>2017-03-19T13:40:40Z</time>
      </trkpt>
      <trkpt lat="43.25924" lon="5.93607">
        <ele>424.4</ele>
        <time>2017-03-19T13:40:28Z</time>
      </trkpt>
      <trkpt lat="43.25914" lon="5.93609">
        <ele>425.2</ele>
        <time>2017-03-19T13:40:16Z</time>
      </trkpt>
      <trkpt lat="43.25905" lon="5.93608">
        <ele>425.9</ele>
        <time>2017-03-19T13:40:03Z</time>
      </trkpt>
      <trkpt lat="43.25896" lon="5.93604">
        <ele>425.7</ele>
        <time>2017-03-19T13:39:52Z</time>
      </trkpt>
      <trkpt lat="43.2589" lon="5.93594">
        <ele>425.9</ele>
        <time>2017-03-19T13:39:43Z</time>
      </trkpt>
      <trkpt lat="43.25883" lon="5.93585">
        <ele>425.5</ele>
        <time>2017-03-19T13:39:34Z</time>
      </trkpt>
      <trkpt lat="43.25879" lon="5.93573">
        <ele>425.5</ele>
        <time>2017-03-19T13:39:24Z</time>
      </trkpt>
      <trkpt lat="43.25874" lon="5.93563">
        <ele>425.7</ele>
        <time>2017-03-19T13:39:15Z</time>
      </trkpt>
      <trkpt lat="43.25867" lon="5.93553">
        <ele>425.7</ele>
        <time>2017-03-19T13:39:05Z</time>
      </trkpt>
      <trkpt lat="43.25863" lon="5.93541">
        <ele>425.2</ele>
        <time>2017-03-19T13:38:54Z</time>
      </trkpt>
      <trkpt lat="43.25857" lon="5.93531">
        <ele>424.4</ele>
        <time>2017-03-19T13:38:44Z</time>
      </trkpt>
      <trkpt lat="43.25851" lon="5.9352">
        <ele>424</ele>
        <time>2017-03-19T13:38:35Z</time>
      </trkpt>
      <trkpt lat="43.25844" lon="5.93511">
        <ele>423.8</ele>
        <time>2017-03-19T13:38:24Z</time>
      </trkpt>
      <trkpt lat="43.25839" lon="5.935">
        <ele>423.4</ele>
        <time>2017-03-19T13:38:17Z</time>
      </trkpt>
      <trkpt lat="43.25833" lon="5.93489">
        <ele>423</ele>
        <time>2017-03-19T13:38:07Z</time>
      </trkpt>
      <trkpt lat="43.25832" lon="5.93477">
        <ele>423.3</ele>
        <time>2017-03-19T13:37:57Z</time>
      </trkpt>
      <trkpt lat="43.25827" lon="5.93465">
        <ele>423.9</ele>
        <time>2017-03-19T13:37:48Z</time>
      </trkpt>
      <trkpt lat="43.2582" lon="5.93456">
        <ele>424.1</ele>
        <time>2017-03-19T13:37:42Z</time>
      </trkpt>
      <trkpt lat="43.25811" lon="5.9345">
        <ele>424.5</ele>
        <time>2017-03-19T13:37:33Z</time>
      </trkpt>
      <trkpt lat="43.25804" lon="5.93442">
        <ele>424.6</ele>
        <time>2017-03-19T13:37:24Z</time>
      </trkpt>
      <trkpt lat="43.25795" lon="5.93433">
        <ele>424.5</ele>
        <time>2017-03-19T13:37:16Z</time>
      </trkpt>
      <trkpt lat="43.25787" lon="5.93426">
        <ele>424</ele>
        <time>2017-03-19T13:37:08Z</time>
      </trkpt>
      <trkpt lat="43.25778" lon="5.93425">
        <ele>424.1</ele>
        <time>2017-03-19T13:37:01Z</time>
      </trkpt>
      <trkpt lat="43.2577" lon="5.93418">
        <ele>423.7</ele>
        <time>2017-03-19T13:36:50Z</time>
      </trkpt>
      <trkpt lat="43.25762" lon="5.9341">
        <ele>422.6</ele>
        <time>2017-03-19T13:36:41Z</time>
      </trkpt>
      <trkpt lat="43.25753" lon="5.93405">
        <ele>421.3</ele>
        <time>2017-03-19T13:36:32Z</time>
      </trkpt>
      <trkpt lat="43.25745" lon="5.93399">
        <ele>420.6</ele>
        <time>2017-03-19T13:36:22Z</time>
      </trkpt>
      <trkpt lat="43.25737" lon="5.93392">
        <ele>420.2</ele>
        <time>2017-03-19T13:36:10Z</time>
      </trkpt>
      <trkpt lat="43.25729" lon="5.93386">
        <ele>419.5</ele>
        <time>2017-03-19T13:36:01Z</time>
      </trkpt>
      <trkpt lat="43.2572" lon="5.9338">
        <ele>418.2</ele>
        <time>2017-03-19T13:35:50Z</time>
      </trkpt>
      <trkpt lat="43.25713" lon="5.93374">
        <ele>417.2</ele>
        <time>2017-03-19T13:35:42Z</time>
      </trkpt>
      <trkpt lat="43.25706" lon="5.93366">
        <ele>416</ele>
        <time>2017-03-19T13:35:31Z</time>
      </trkpt>
      <trkpt lat="43.25698" lon="5.93357">
        <ele>415</ele>
        <time>2017-03-19T13:35:20Z</time>
      </trkpt>
      <trkpt lat="43.25693" lon="5.93346">
        <ele>413.5</ele>
        <time>2017-03-19T13:35:06Z</time>
      </trkpt>
      <trkpt lat="43.25688" lon="5.93337">
        <ele>412.1</ele>
        <time>2017-03-19T13:34:51Z</time>
      </trkpt>
      <trkpt lat="43.25679" lon="5.9333">
        <ele>411.3</ele>
        <time>2017-03-19T13:34:43Z</time>
      </trkpt>
      <trkpt lat="43.2567" lon="5.93327">
        <ele>410.3</ele>
        <time>2017-03-19T13:34:34Z</time>
      </trkpt>
      <trkpt lat="43.2566" lon="5.93326">
        <ele>409.6</ele>
        <time>2017-03-19T13:34:25Z</time>
      </trkpt>
      <trkpt lat="43.25651" lon="5.93321">
        <ele>408.5</ele>
        <time>2017-03-19T13:34:14Z</time>
      </trkpt>
      <trkpt lat="43.25642" lon="5.93315">
        <ele>407.8</ele>
        <time>2017-03-19T13:34:02Z</time>
      </trkpt>
      <trkpt lat="43.25633" lon="5.93313">
        <ele>407.5</ele>
        <time>2017-03-19T13:33:53Z</time>
      </trkpt>
      <trkpt lat="43.25625" lon="5.93307">
        <ele>407.2</ele>
        <time>2017-03-19T13:33:48Z</time>
      </trkpt>
      <trkpt lat="43.25615" lon="5.93305">
        <ele>407.4</ele>
        <time>2017-03-19T13:33:39Z</time>
      </trkpt>
      <trkpt lat="43.25606" lon="5.93304">
        <ele>407.2</ele>
        <time>2017-03-19T13:33:31Z</time>
      </trkpt>
      <trkpt lat="43.25598" lon="5.93299">
        <ele>406.9</ele>
        <time>2017-03-19T13:33:23Z</time>
      </trkpt>
      <trkpt lat="43.25588" lon="5.93294">
        <ele>407</ele>
        <time>2017-03-19T13:33:15Z</time>
      </trkpt>
      <trkpt lat="43.2558" lon="5.93287">
        <ele>406.8</ele>
        <time>2017-03-19T13:33:07Z</time>
      </trkpt>
      <trkpt lat="43.25572" lon="5.9328">
        <ele>406.8</ele>
        <time>2017-03-19T13:32:59Z</time>
      </trkpt>
      <trkpt lat="43.25564" lon="5.93273">
        <ele>406.7</ele>
        <time>2017-03-19T13:32:50Z</time>
      </trkpt>
      <trkpt lat="43.25559" lon="5.93263">
        <ele>405.7</ele>
        <time>2017-03-19T13:32:18Z</time>
      </trkpt>
      <trkpt lat="43.25549" lon="5.93261">
        <ele>405.7</ele>
        <time>2017-03-19T13:32:02Z</time>
      </trkpt>
      <trkpt lat="43.25542" lon="5.93252">
        <ele>405.6</ele>
        <time>2017-03-19T13:31:42Z</time>
      </trkpt>
      <trkpt lat="43.25536" lon="5.93243">
        <ele>404.6</ele>
        <time>2017-03-19T13:31:28Z</time>
      </trkpt>
      <trkpt lat="43.25531" lon="5.93233">
        <ele>403.2</ele>
        <time>2017-03-19T13:31:12Z</time>
      </trkpt>
      <trkpt lat="43.25525" lon="5.93223">
        <ele>401.8</ele>
        <time>2017-03-19T13:30:53Z</time>
      </trkpt>
      <trkpt lat="43.25532" lon="5.93215">
        <ele>401.8</ele>
        <time>2017-03-19T13:30:40Z</time>
      </trkpt>
      <trkpt lat="43.25538" lon="5.93204">
        <ele>401.2</ele>
        <time>2017-03-19T13:30:23Z</time>
      </trkpt>
      <trkpt lat="43.25544" lon="5.93194">
        <ele>401.2</ele>
        <time>2017-03-19T13:30:12Z</time>
      </trkpt>
      <trkpt lat="43.25548" lon="5.93183">
        <ele>400.6</ele>
        <time>2017-03-19T13:30:03Z</time>
      </trkpt>
      <trkpt lat="43.25552" lon="5.93171">
        <ele>400.3</ele>
        <time>2017-03-19T13:29:53Z</time>
      </trkpt>
      <trkpt lat="43.25552" lon="5.93158">
        <ele>400.7</ele>
        <time>2017-03-19T13:29:44Z</time>
      </trkpt>
      <trkpt lat="43.2555" lon="5.93145">
        <ele>401</ele>
        <time>2017-03-19T13:29:36Z</time>
      </trkpt>
      <trkpt lat="43.25549" lon="5.93132">
        <ele>401.8</ele>
        <time>2017-03-19T13:29:28Z</time>
      </trkpt>
      <trkpt lat="43.25549" lon="5.93119">
        <ele>401.9</ele>
        <time>2017-03-19T13:29:19Z</time>
      </trkpt>
      <trkpt lat="43.25542" lon="5.9311">
        <ele>402.2</ele>
        <time>2017-03-19T13:28:27Z</time>
      </trkpt>
      <trkpt lat="43.25533" lon="5.93115">
        <ele>402.8</ele>
        <time>2017-03-19T13:28:03Z</time>
      </trkpt>
      <trkpt lat="43.25524" lon="5.93118">
        <ele>403.2</ele>
        <time>2017-03-19T13:27:54Z</time>
      </trkpt>
      <trkpt lat="43.25514" lon="5.93118">
        <ele>403.8</ele>
        <time>2017-03-19T13:27:46Z</time>
      </trkpt>
      <trkpt lat="43.25505" lon="5.93119">
        <ele>404.7</ele>
        <time>2017-03-19T13:27:38Z</time>
      </trkpt>
      <trkpt lat="43.25495" lon="5.93118">
        <ele>405</ele>
        <time>2017-03-19T13:27:30Z</time>
      </trkpt>
      <trkpt lat="43.25486" lon="5.93113">
        <ele>405.6</ele>
        <time>2017-03-19T13:27:19Z</time>
      </trkpt>
      <trkpt lat="43.25477" lon="5.93112">
        <ele>405.9</ele>
        <time>2017-03-19T13:27:09Z</time>
      </trkpt>
      <trkpt lat="43.25467" lon="5.9311">
        <ele>406.4</ele>
        <time>2017-03-19T13:27:00Z</time>
      </trkpt>
      <trkpt lat="43.25457" lon="5.9311">
        <ele>407.3</ele>
        <time>2017-03-19T13:26:50Z</time>
      </trkpt>
      <trkpt lat="43.25448" lon="5.93108">
        <ele>408.3</ele>
        <time>2017-03-19T13:26:41Z</time>
      </trkpt>
      <trkpt lat="43.25438" lon="5.93107">
        <ele>409.7</ele>
        <time>2017-03-19T13:26:32Z</time>
      </trkpt>
      <trkpt lat="43.25429" lon="5.931">
        <ele>410.6</ele>
        <time>2017-03-19T13:26:20Z</time>
      </trkpt>
      <trkpt lat="43.2542" lon="5.93098">
        <ele>411.5</ele>
        <time>2017-03-19T13:26:08Z</time>
      </trkpt>
      <trkpt lat="43.25411" lon="5.93099">
        <ele>411.5</ele>
        <time>2017-03-19T13:25:58Z</time>
      </trkpt>
      <trkpt lat="43.25402" lon="5.93102">
        <ele>412</ele>
        <time>2017-03-19T13:25:48Z</time>
      </trkpt>
      <trkpt lat="43.25393" lon="5.93106">
        <ele>411.3</ele>
        <time>2017-03-19T13:25:38Z</time>
      </trkpt>
      <trkpt lat="43.25383" lon="5.9311">
        <ele>411.2</ele>
        <time>2017-03-19T13:25:27Z</time>
      </trkpt>
      <trkpt lat="43.25375" lon="5.93116">
        <ele>411.3</ele>
        <time>2017-03-19T13:25:19Z</time>
      </trkpt>
      <trkpt lat="43.25366" lon="5.93119">
        <ele>411.9</ele>
        <time>2017-03-19T13:25:09Z</time>
      </trkpt>
      <trkpt lat="43.25356" lon="5.93121">
        <ele>412.5</ele>
        <time>2017-03-19T13:25:00Z</time>
      </trkpt>
      <trkpt lat="43.25347" lon="5.93121">
        <ele>413.1</ele>
        <time>2017-03-19T13:24:51Z</time>
      </trkpt>
      <trkpt lat="43.25338" lon="5.93123">
        <ele>413.7</ele>
        <time>2017-03-19T13:24:42Z</time>
      </trkpt>
      <trkpt lat="43.25328" lon="5.93125">
        <ele>413.9</ele>
        <time>2017-03-19T13:24:32Z</time>
      </trkpt>
      <trkpt lat="43.25318" lon="5.93126">
        <ele>414.1</ele>
        <time>2017-03-19T13:24:21Z</time>
      </trkpt>
      <trkpt lat="43.25309" lon="5.93129">
        <ele>414.4</ele>
        <time>2017-03-19T13:24:12Z</time>
      </trkpt>
      <trkpt lat="43.25299" lon="5.93129">
        <ele>414.8</ele>
        <time>2017-03-19T13:24:03Z</time>
      </trkpt>
      <trkpt lat="43.2529" lon="5.9313">
        <ele>415.2</ele>
        <time>2017-03-19T13:23:52Z</time>
      </trkpt>
      <trkpt lat="43.25281" lon="5.9313">
        <ele>415.6</ele>
        <time>2017-03-19T13:23:43Z</time>
      </trkpt>
      <trkpt lat="43.25271" lon="5.93132">
        <ele>415.7</ele>
        <time>2017-03-19T13:23:36Z</time>
      </trkpt>
      <trkpt lat="43.25263" lon="5.93138">
        <ele>416.1</ele>
        <time>2017-03-19T13:23:26Z</time>
      </trkpt>
      <trkpt lat="43.25255" lon="5.93144">
        <ele>416.5</ele>
        <time>2017-03-19T13:23:16Z</time>
      </trkpt>
      <trkpt lat="43.25246" lon="5.93144">
        <ele>417.3</ele>
        <time>2017-03-19T13:23:09Z</time>
      </trkpt>
      <trkpt lat="43.25236" lon="5.93141">
        <ele>418.9</ele>
        <time>2017-03-19T13:22:58Z</time>
      </trkpt>
      <trkpt lat="43.25227" lon="5.93138">
        <ele>421.4</ele>
        <time>2017-03-19T13:22:44Z</time>
      </trkpt>
      <trkpt lat="43.25218" lon="5.93138">
        <ele>422.8</ele>
        <time>2017-03-19T13:22:33Z</time>
      </trkpt>
      <trkpt lat="43.25208" lon="5.93138">
        <ele>424.6</ele>
        <time>2017-03-19T13:22:19Z</time>
      </trkpt>
      <trkpt lat="43.25198" lon="5.93136">
        <ele>425</ele>
        <time>2017-03-19T13:22:05Z</time>
      </trkpt>
      <trkpt lat="43.25188" lon="5.93133">
        <ele>427.2</ele>
        <time>2017-03-19T13:21:53Z</time>
      </trkpt>
      <trkpt lat="43.25179" lon="5.93136">
        <ele>427.7</ele>
        <time>2017-03-19T13:21:42Z</time>
      </trkpt>
      <trkpt lat="43.25169" lon="5.93137">
        <ele>428.1</ele>
        <time>2017-03-19T13:21:32Z</time>
      </trkpt>
      <trkpt lat="43.25159" lon="5.93133">
        <ele>428.8</ele>
        <time>2017-03-19T13:21:24Z</time>
      </trkpt>
      <trkpt lat="43.2515" lon="5.9313">
        <ele>429.8</ele>
        <time>2017-03-19T13:21:13Z</time>
      </trkpt>
      <trkpt lat="43.25141" lon="5.9313">
        <ele>431.1</ele>
        <time>2017-03-19T13:21:03Z</time>
      </trkpt>
      <trkpt lat="43.25131" lon="5.93129">
        <ele>432.4</ele>
        <time>2017-03-19T13:20:50Z</time>
      </trkpt>
      <trkpt lat="43.25122" lon="5.93128">
        <ele>433.1</ele>
        <time>2017-03-19T13:20:39Z</time>
      </trkpt>
      <trkpt lat="43.25113" lon="5.93127">
        <ele>433.8</ele>
        <time>2017-03-19T13:20:28Z</time>
      </trkpt>
      <trkpt lat="43.25104" lon="5.93123">
        <ele>434.6</ele>
        <time>2017-03-19T13:20:18Z</time>
      </trkpt>
      <trkpt lat="43.25095" lon="5.93119">
        <ele>434.7</ele>
        <time>2017-03-19T13:20:10Z</time>
      </trkpt>
      <trkpt lat="43.25086" lon="5.93114">
        <ele>435.3</ele>
        <time>2017-03-19T13:19:59Z</time>
      </trkpt>
      <trkpt lat="43.25078" lon="5.93108">
        <ele>435.8</ele>
        <time>2017-03-19T13:19:49Z</time>
      </trkpt>
      <trkpt lat="43.25069" lon="5.931">
        <ele>435.4</ele>
        <time>2017-03-19T13:19:37Z</time>
      </trkpt>
      <trkpt lat="43.25064" lon="5.93089">
        <ele>434.8</ele>
        <time>2017-03-19T13:19:25Z</time>
      </trkpt>
      <trkpt lat="43.25058" lon="5.93079">
        <ele>434.3</ele>
        <time>2017-03-19T13:19:13Z</time>
      </trkpt>
      <trkpt lat="43.2505" lon="5.93072">
        <ele>433.2</ele>
        <time>2017-03-19T13:19:00Z</time>
      </trkpt>
      <trkpt lat="43.25041" lon="5.93068">
        <ele>431.9</ele>
        <time>2017-03-19T13:18:46Z</time>
      </trkpt>
      <trkpt lat="43.25032" lon="5.93067">
        <ele>431.8</ele>
        <time>2017-03-19T13:18:36Z</time>
      </trkpt>
      <trkpt lat="43.25023" lon="5.93065">
        <ele>431.7</ele>
        <time>2017-03-19T13:18:25Z</time>
      </trkpt>
      <trkpt lat="43.25014" lon="5.93062">
        <ele>432.6</ele>
        <time>2017-03-19T13:18:14Z</time>
      </trkpt>
      <trkpt lat="43.25005" lon="5.93058">
        <ele>432.7</ele>
        <time>2017-03-19T13:18:01Z</time>
      </trkpt>
      <trkpt lat="43.24995" lon="5.93057">
        <ele>433.6</ele>
        <time>2017-03-19T13:17:51Z</time>
      </trkpt>
      <trkpt lat="43.24985" lon="5.93058">
        <ele>434.7</ele>
        <time>2017-03-19T13:17:40Z</time>
      </trkpt>
      <trkpt lat="43.24977" lon="5.93065">
        <ele>435</ele>
        <time>2017-03-19T13:17:31Z</time>
      </trkpt>
      <trkpt lat="43.24968" lon="5.93069">
        <ele>435.8</ele>
        <time>2017-03-19T13:17:20Z</time>
      </trkpt>
      <trkpt lat="43.2496" lon="5.93073">
        <ele>436.7</ele>
        <time>2017-03-19T13:17:08Z</time>
      </trkpt>
      <trkpt lat="43.24952" lon="5.9308">
        <ele>437.5</ele>
        <time>2017-03-19T13:16:56Z</time>
      </trkpt>
      <trkpt lat="43.24946" lon="5.93091">
        <ele>438.2</ele>
        <time>2017-03-19T13:16:41Z</time>
      </trkpt>
      <trkpt lat="43.24941" lon="5.93102">
        <ele>439.1</ele>
        <time>2017-03-19T13:16:29Z</time>
      </trkpt>
      <trkpt lat="43.24932" lon="5.93107">
        <ele>440.2</ele>
        <time>2017-03-19T13:16:19Z</time>
      </trkpt>
      <trkpt lat="43.24925" lon="5.93116">
        <ele>441.2</ele>
        <time>2017-03-19T13:16:08Z</time>
      </trkpt>
      <trkpt lat="43.24918" lon="5.93124">
        <ele>442.2</ele>
        <time>2017-03-19T13:15:56Z</time>
      </trkpt>
      <trkpt lat="43.24911" lon="5.93133">
        <ele>442.8</ele>
        <time>2017-03-19T13:15:45Z</time>
      </trkpt>
      <trkpt lat="43.24903" lon="5.93139">
        <ele>443.6</ele>
        <time>2017-03-19T13:15:34Z</time>
      </trkpt>
      <trkpt lat="43.24894" lon="5.93146">
        <ele>444.5</ele>
        <time>2017-03-19T13:15:23Z</time>
      </trkpt>
      <trkpt lat="43.24885" lon="5.93145">
        <ele>445.3</ele>
        <time>2017-03-19T13:15:14Z</time>
      </trkpt>
      <trkpt lat="43.24876" lon="5.93141">
        <ele>446.5</ele>
        <time>2017-03-19T13:15:02Z</time>
      </trkpt>
      <trkpt lat="43.24867" lon="5.93134">
        <ele>448</ele>
        <time>2017-03-19T13:14:49Z</time>
      </trkpt>
      <trkpt lat="43.24858" lon="5.9313">
        <ele>449.3</ele>
        <time>2017-03-19T13:14:38Z</time>
      </trkpt>
      <trkpt lat="43.24848" lon="5.93126">
        <ele>450.9</ele>
        <time>2017-03-19T13:14:26Z</time>
      </trkpt>
      <trkpt lat="43.2484" lon="5.93122">
        <ele>452.6</ele>
        <time>2017-03-19T13:14:15Z</time>
      </trkpt>
      <trkpt lat="43.24832" lon="5.93115">
        <ele>454.2</ele>
        <time>2017-03-19T13:14:00Z</time>
      </trkpt>
      <trkpt lat="43.24823" lon="5.9311">
        <ele>454.8</ele>
        <time>2017-03-19T13:13:52Z</time>
      </trkpt>
      <trkpt lat="43.24813" lon="5.93105">
        <ele>455.8</ele>
        <time>2017-03-19T13:13:43Z</time>
      </trkpt>
      <trkpt lat="43.24804" lon="5.93106">
        <ele>456.7</ele>
        <time>2017-03-19T13:13:18Z</time>
      </trkpt>
      <trkpt lat="43.24802" lon="5.93119">
        <ele>456.3</ele>
        <time>2017-03-19T13:12:32Z</time>
      </trkpt>
      <trkpt lat="43.248" lon="5.93131">
        <ele>456.9</ele>
        <time>2017-03-19T13:12:08Z</time>
      </trkpt>
      <trkpt lat="43.24798" lon="5.93143">
        <ele>457</ele>
        <time>2017-03-19T13:11:55Z</time>
      </trkpt>
      <trkpt lat="43.24792" lon="5.93153">
        <ele>457</ele>
        <time>2017-03-19T13:10:42Z</time>
      </trkpt>
      <trkpt lat="43.24792" lon="5.93166">
        <ele>457.2</ele>
        <time>2017-03-19T13:10:32Z</time>
      </trkpt>
      <trkpt lat="43.24791" lon="5.93178">
        <ele>458.1</ele>
        <time>2017-03-19T13:10:23Z</time>
      </trkpt>
      <trkpt lat="43.24787" lon="5.93191">
        <ele>458.6</ele>
        <time>2017-03-19T13:10:14Z</time>
      </trkpt>
      <trkpt lat="43.24784" lon="5.93204">
        <ele>459.1</ele>
        <time>2017-03-19T13:10:05Z</time>
      </trkpt>
      <trkpt lat="43.24783" lon="5.93217">
        <ele>459.4</ele>
        <time>2017-03-19T13:09:57Z</time>
      </trkpt>
      <trkpt lat="43.24777" lon="5.93226">
        <ele>460</ele>
        <time>2017-03-19T13:09:50Z</time>
      </trkpt>
      <trkpt lat="43.24769" lon="5.93234">
        <ele>460.8</ele>
        <time>2017-03-19T13:09:43Z</time>
      </trkpt>
      <trkpt lat="43.24764" lon="5.93246">
        <ele>461.5</ele>
        <time>2017-03-19T13:09:34Z</time>
      </trkpt>
      <trkpt lat="43.24759" lon="5.93257">
        <ele>461.7</ele>
        <time>2017-03-19T13:09:26Z</time>
      </trkpt>
      <trkpt lat="43.24752" lon="5.93267">
        <ele>462.4</ele>
        <time>2017-03-19T13:09:15Z</time>
      </trkpt>
      <trkpt lat="43.24751" lon="5.93281">
        <ele>463.1</ele>
        <time>2017-03-19T13:09:06Z</time>
      </trkpt>
      <trkpt lat="43.2475" lon="5.93293">
        <ele>463.6</ele>
        <time>2017-03-19T13:08:57Z</time>
      </trkpt>
      <trkpt lat="43.2475" lon="5.93306">
        <ele>463.9</ele>
        <time>2017-03-19T13:08:49Z</time>
      </trkpt>
      <trkpt lat="43.24746" lon="5.93318">
        <ele>464.5</ele>
        <time>2017-03-19T13:08:41Z</time>
      </trkpt>
      <trkpt lat="43.24742" lon="5.9333">
        <ele>465.1</ele>
        <time>2017-03-19T13:08:32Z</time>
      </trkpt>
      <trkpt lat="43.24739" lon="5.93343">
        <ele>465.7</ele>
        <time>2017-03-19T13:08:23Z</time>
      </trkpt>
      <trkpt lat="43.24738" lon="5.93356">
        <ele>466.1</ele>
        <time>2017-03-19T13:08:15Z</time>
      </trkpt>
      <trkpt lat="43.24739" lon="5.9337">
        <ele>466.3</ele>
        <time>2017-03-19T13:08:07Z</time>
      </trkpt>
      <trkpt lat="43.24736" lon="5.93383">
        <ele>466.9</ele>
        <time>2017-03-19T13:07:58Z</time>
      </trkpt>
      <trkpt lat="43.24734" lon="5.93395">
        <ele>467.2</ele>
        <time>2017-03-19T13:07:50Z</time>
      </trkpt>
      <trkpt lat="43.2473" lon="5.93407">
        <ele>467.6</ele>
        <time>2017-03-19T13:07:42Z</time>
      </trkpt>
      <trkpt lat="43.24724" lon="5.93416">
        <ele>468.2</ele>
        <time>2017-03-19T13:07:36Z</time>
      </trkpt>
      <trkpt lat="43.24719" lon="5.93426">
        <ele>469.1</ele>
        <time>2017-03-19T13:07:29Z</time>
      </trkpt>
      <trkpt lat="43.24715" lon="5.93439">
        <ele>469.5</ele>
        <time>2017-03-19T13:07:19Z</time>
      </trkpt>
      <trkpt lat="43.24712" lon="5.93452">
        <ele>469.9</ele>
        <time>2017-03-19T13:07:08Z</time>
      </trkpt>
      <trkpt lat="43.24706" lon="5.93462">
        <ele>470.3</ele>
        <time>2017-03-19T13:07:00Z</time>
      </trkpt>
      <trkpt lat="43.24703" lon="5.93474">
        <ele>470.6</ele>
        <time>2017-03-19T13:06:53Z</time>
      </trkpt>
      <trkpt lat="43.24695" lon="5.93484">
        <ele>471.1</ele>
        <time>2017-03-19T13:06:45Z</time>
      </trkpt>
      <trkpt lat="43.24689" lon="5.93494">
        <ele>472</ele>
        <time>2017-03-19T13:06:37Z</time>
      </trkpt>
      <trkpt lat="43.24685" lon="5.93506">
        <ele>472.4</ele>
        <time>2017-03-19T13:06:29Z</time>
      </trkpt>
      <trkpt lat="43.24681" lon="5.9352">
        <ele>472.6</ele>
        <time>2017-03-19T13:06:21Z</time>
      </trkpt>
      <trkpt lat="43.24676" lon="5.93531">
        <ele>472.5</ele>
        <time>2017-03-19T13:06:13Z</time>
      </trkpt>
      <trkpt lat="43.24671" lon="5.93541">
        <ele>472.6</ele>
        <time>2017-03-19T13:06:04Z</time>
      </trkpt>
      <trkpt lat="43.24665" lon="5.93552">
        <ele>472.7</ele>
        <time>2017-03-19T13:05:56Z</time>
      </trkpt>
      <trkpt lat="43.24657" lon="5.93559">
        <ele>472.8</ele>
        <time>2017-03-19T13:05:49Z</time>
      </trkpt>
      <trkpt lat="43.24651" lon="5.93571">
        <ele>473.5</ele>
        <time>2017-03-19T13:05:41Z</time>
      </trkpt>
      <trkpt lat="43.24645" lon="5.93584">
        <ele>474.2</ele>
        <time>2017-03-19T13:05:33Z</time>
      </trkpt>
      <trkpt lat="43.24643" lon="5.93596">
        <ele>474.6</ele>
        <time>2017-03-19T13:05:25Z</time>
      </trkpt>
      <trkpt lat="43.24639" lon="5.93608">
        <ele>475.3</ele>
        <time>2017-03-19T13:05:17Z</time>
      </trkpt>
      <trkpt lat="43.24632" lon="5.93619">
        <ele>475.7</ele>
        <time>2017-03-19T13:05:08Z</time>
      </trkpt>
      <trkpt lat="43.24627" lon="5.9363">
        <ele>476.1</ele>
        <time>2017-03-19T13:04:59Z</time>
      </trkpt>
      <trkpt lat="43.24626" lon="5.93643">
        <ele>476.7</ele>
        <time>2017-03-19T13:04:50Z</time>
      </trkpt>
      <trkpt lat="43.24624" lon="5.93656">
        <ele>476.9</ele>
        <time>2017-03-19T13:04:41Z</time>
      </trkpt>
      <trkpt lat="43.24622" lon="5.93668">
        <ele>477.4</ele>
        <time>2017-03-19T13:04:32Z</time>
      </trkpt>
      <trkpt lat="43.24618" lon="5.9368">
        <ele>477.8</ele>
        <time>2017-03-19T13:04:25Z</time>
      </trkpt>
      <trkpt lat="43.24617" lon="5.93692">
        <ele>478.1</ele>
        <time>2017-03-19T13:04:17Z</time>
      </trkpt>
      <trkpt lat="43.24617" lon="5.93705">
        <ele>478.5</ele>
        <time>2017-03-19T13:04:09Z</time>
      </trkpt>
      <trkpt lat="43.24613" lon="5.93716">
        <ele>478.5</ele>
        <time>2017-03-19T13:04:02Z</time>
      </trkpt>
      <trkpt lat="43.24605" lon="5.93723">
        <ele>478.3</ele>
        <time>2017-03-19T13:03:48Z</time>
      </trkpt>
      <trkpt lat="43.24612" lon="5.93715">
        <ele>478.3</ele>
        <time>2017-03-19T13:03:35Z</time>
      </trkpt>
      <trkpt lat="43.24613" lon="5.93702">
        <ele>478</ele>
        <time>2017-03-19T13:03:24Z</time>
      </trkpt>
      <trkpt lat="43.24622" lon="5.93697">
        <ele>478.1</ele>
        <time>2017-03-19T13:03:16Z</time>
      </trkpt>
      <trkpt lat="43.24628" lon="5.93707">
        <ele>478.6</ele>
        <time>2017-03-19T13:03:09Z</time>
      </trkpt>
      <trkpt lat="43.24627" lon="5.93719">
        <ele>478.9</ele>
        <time>2017-03-19T13:03:01Z</time>
      </trkpt>
      <trkpt lat="43.2462" lon="5.93728">
        <ele>479.4</ele>
        <time>2017-03-19T13:02:53Z</time>
      </trkpt>
      <trkpt lat="43.24613" lon="5.93737">
        <ele>480.3</ele>
        <time>2017-03-19T13:02:44Z</time>
      </trkpt>
      <trkpt lat="43.24609" lon="5.93749">
        <ele>480.4</ele>
        <time>2017-03-19T13:02:37Z</time>
      </trkpt>
      <trkpt lat="43.24607" lon="5.93762">
        <ele>480.2</ele>
        <time>2017-03-19T13:02:29Z</time>
      </trkpt>
      <trkpt lat="43.24603" lon="5.93774">
        <ele>480.5</ele>
        <time>2017-03-19T13:02:20Z</time>
      </trkpt>
      <trkpt lat="43.24602" lon="5.93789">
        <ele>480.9</ele>
        <time>2017-03-19T13:02:11Z</time>
      </trkpt>
      <trkpt lat="43.24596" lon="5.938">
        <ele>481.5</ele>
        <time>2017-03-19T13:01:42Z</time>
      </trkpt>
      <trkpt lat="43.24592" lon="5.93812">
        <ele>481.3</ele>
        <time>2017-03-19T13:01:30Z</time>
      </trkpt>
      <trkpt lat="43.24594" lon="5.93824">
        <ele>480.7</ele>
        <time>2017-03-19T13:01:21Z</time>
      </trkpt>
      <trkpt lat="43.24599" lon="5.93836">
        <ele>480.3</ele>
        <time>2017-03-19T13:01:11Z</time>
      </trkpt>
      <trkpt lat="43.24605" lon="5.93846">
        <ele>480.2</ele>
        <time>2017-03-19T13:01:03Z</time>
      </trkpt>
      <trkpt lat="43.24608" lon="5.93858">
        <ele>480.9</ele>
        <time>2017-03-19T13:00:50Z</time>
      </trkpt>
      <trkpt lat="43.24607" lon="5.93872">
        <ele>481.8</ele>
        <time>2017-03-19T13:00:41Z</time>
      </trkpt>
      <trkpt lat="43.24606" lon="5.93886">
        <ele>482.9</ele>
        <time>2017-03-19T13:00:29Z</time>
      </trkpt>
      <trkpt lat="43.24605" lon="5.93898">
        <ele>483.9</ele>
        <time>2017-03-19T13:00:19Z</time>
      </trkpt>
      <trkpt lat="43.24601" lon="5.93909">
        <ele>484.7</ele>
        <time>2017-03-19T13:00:09Z</time>
      </trkpt>
      <trkpt lat="43.24593" lon="5.93916">
        <ele>485.8</ele>
        <time>2017-03-19T12:59:42Z</time>
      </trkpt>
      <trkpt lat="43.2459" lon="5.93928">
        <ele>486.8</ele>
        <time>2017-03-19T12:59:31Z</time>
      </trkpt>
      <trkpt lat="43.24582" lon="5.93937">
        <ele>487.4</ele>
        <time>2017-03-19T12:59:18Z</time>
      </trkpt>
      <trkpt lat="43.24585" lon="5.93925">
        <ele>487.4</ele>
        <time>2017-03-19T12:58:56Z</time>
      </trkpt>
      <trkpt lat="43.24594" lon="5.9393">
        <ele>487.7</ele>
        <time>2017-03-19T12:58:45Z</time>
      </trkpt>
      <trkpt lat="43.24596" lon="5.93943">
        <ele>487.7</ele>
        <time>2017-03-19T12:58:36Z</time>
      </trkpt>
      <trkpt lat="43.24599" lon="5.93956">
        <ele>487.7</ele>
        <time>2017-03-19T12:58:22Z</time>
      </trkpt>
      <trkpt lat="43.24601" lon="5.93969">
        <ele>488.3</ele>
        <time>2017-03-19T12:58:12Z</time>
      </trkpt>
      <trkpt lat="43.246" lon="5.93982">
        <ele>489.7</ele>
        <time>2017-03-19T12:57:09Z</time>
      </trkpt>
      <trkpt lat="43.24609" lon="5.93977">
        <ele>489.5</ele>
        <time>2017-03-19T12:56:44Z</time>
      </trkpt>
      <trkpt lat="43.24599" lon="5.93975">
        <ele>489.4</ele>
        <time>2017-03-19T12:56:33Z</time>
      </trkpt>
      <trkpt lat="43.2459" lon="5.93979">
        <ele>489.6</ele>
        <time>2017-03-19T12:56:08Z</time>
      </trkpt>
      <trkpt lat="43.24592" lon="5.93992">
        <ele>489.8</ele>
        <time>2017-03-19T12:55:24Z</time>
      </trkpt>
      <trkpt lat="43.24601" lon="5.93987">
        <ele>490</ele>
        <time>2017-03-19T12:54:33Z</time>
      </trkpt>
      <trkpt lat="43.2461" lon="5.93989">
        <ele>490.4</ele>
        <time>2017-03-19T12:53:56Z</time>
      </trkpt>
      <trkpt lat="43.24615" lon="5.93999">
        <ele>491.1</ele>
        <time>2017-03-19T12:53:41Z</time>
      </trkpt>
      <trkpt lat="43.24623" lon="5.94005">
        <ele>491.2</ele>
        <time>2017-03-19T12:53:34Z</time>
      </trkpt>
      <trkpt lat="43.24632" lon="5.94">
        <ele>491.7</ele>
        <time>2017-03-19T12:52:02Z</time>
      </trkpt>
      <trkpt lat="43.24624" lon="5.93994">
        <ele>492.3</ele>
        <time>2017-03-19T12:51:37Z</time>
      </trkpt>
      <trkpt lat="43.24633" lon="5.93999">
        <ele>492</ele>
        <time>2017-03-19T12:50:37Z</time>
      </trkpt>
      <trkpt lat="43.24642" lon="5.94005">
        <ele>492.8</ele>
        <time>2017-03-19T12:50:35Z</time>
      </trkpt>
      <trkpt lat="43.24628" lon="5.93998">
        <ele>490</ele>
        <time>2017-03-19T12:49:18Z</time>
      </trkpt>
      <trkpt lat="43.24637" lon="5.94004">
        <ele>490</ele>
        <time>2017-03-19T12:48:50Z</time>
      </trkpt>
      <trkpt lat="43.24644" lon="5.94012">
        <ele>491</ele>
        <time>2017-03-19T12:48:34Z</time>
      </trkpt>
      <trkpt lat="43.24636" lon="5.94018">
        <ele>493.6</ele>
        <time>2017-03-19T12:48:04Z</time>
      </trkpt>
      <trkpt lat="43.24644" lon="5.94024">
        <ele>494.8</ele>
        <time>2017-03-19T12:47:56Z</time>
      </trkpt>
      <trkpt lat="43.24653" lon="5.94032">
        <ele>496.2</ele>
        <time>2017-03-19T12:47:46Z</time>
      </trkpt>
      <trkpt lat="43.24661" lon="5.94039">
        <ele>496.8</ele>
        <time>2017-03-19T12:47:39Z</time>
      </trkpt>
      <trkpt lat="43.24669" lon="5.94044">
        <ele>497.5</ele>
        <time>2017-03-19T12:47:31Z</time>
      </trkpt>
      <trkpt lat="43.24678" lon="5.94052">
        <ele>498.4</ele>
        <time>2017-03-19T12:47:21Z</time>
      </trkpt>
      <trkpt lat="43.24682" lon="5.94063">
        <ele>499.3</ele>
        <time>2017-03-19T12:47:12Z</time>
      </trkpt>
      <trkpt lat="43.24684" lon="5.94075">
        <ele>499.8</ele>
        <time>2017-03-19T12:47:05Z</time>
      </trkpt>
      <trkpt lat="43.24685" lon="5.94089">
        <ele>500.4</ele>
        <time>2017-03-19T12:46:55Z</time>
      </trkpt>
      <trkpt lat="43.24685" lon="5.94102">
        <ele>501.6</ele>
        <time>2017-03-19T12:46:45Z</time>
      </trkpt>
      <trkpt lat="43.24682" lon="5.94114">
        <ele>502.2</ele>
        <time>2017-03-19T12:46:35Z</time>
      </trkpt>
      <trkpt lat="43.24682" lon="5.94126">
        <ele>503.8</ele>
        <time>2017-03-19T12:46:14Z</time>
      </trkpt>
      <trkpt lat="43.24688" lon="5.94116">
        <ele>504</ele>
        <time>2017-03-19T12:46:02Z</time>
      </trkpt>
      <trkpt lat="43.24694" lon="5.94106">
        <ele>504.3</ele>
        <time>2017-03-19T12:45:55Z</time>
      </trkpt>
      <trkpt lat="43.24697" lon="5.94094">
        <ele>504.8</ele>
        <time>2017-03-19T12:45:45Z</time>
      </trkpt>
      <trkpt lat="43.24704" lon="5.94085">
        <ele>505.1</ele>
        <time>2017-03-19T12:45:34Z</time>
      </trkpt>
      <trkpt lat="43.24711" lon="5.94077">
        <ele>505.6</ele>
        <time>2017-03-19T12:45:18Z</time>
      </trkpt>
      <trkpt lat="43.24714" lon="5.94064">
        <ele>506.4</ele>
        <time>2017-03-19T12:45:07Z</time>
      </trkpt>
      <trkpt lat="43.24712" lon="5.9405">
        <ele>507.7</ele>
        <time>2017-03-19T12:44:55Z</time>
      </trkpt>
      <trkpt lat="43.24711" lon="5.94038">
        <ele>508.5</ele>
        <time>2017-03-19T12:44:44Z</time>
      </trkpt>
      <trkpt lat="43.24709" lon="5.94025">
        <ele>508.8</ele>
        <time>2017-03-19T12:44:35Z</time>
      </trkpt>
      <trkpt lat="43.24705" lon="5.94013">
        <ele>508.8</ele>
        <time>2017-03-19T12:44:25Z</time>
      </trkpt>
      <trkpt lat="43.24702" lon="5.94001">
        <ele>509.4</ele>
        <time>2017-03-19T12:44:15Z</time>
      </trkpt>
      <trkpt lat="43.24696" lon="5.93991">
        <ele>510</ele>
        <time>2017-03-19T12:43:54Z</time>
      </trkpt>
      <trkpt lat="43.24689" lon="5.93983">
        <ele>512.4</ele>
        <time>2017-03-19T12:39:17Z</time>
      </trkpt>
      <trkpt lat="43.24696" lon="5.93974">
        <ele>513</ele>
        <time>2017-03-19T12:38:32Z</time>
      </trkpt>
      <trkpt lat="43.24705" lon="5.9398">
        <ele>513.5</ele>
        <time>2017-03-19T12:38:22Z</time>
      </trkpt>
      <trkpt lat="43.24711" lon="5.9399">
        <ele>513.6</ele>
        <time>2017-03-19T12:38:13Z</time>
      </trkpt>
      <trkpt lat="43.24714" lon="5.94003">
        <ele>513.3</ele>
        <time>2017-03-19T12:38:03Z</time>
      </trkpt>
      <trkpt lat="43.24717" lon="5.94015">
        <ele>513.4</ele>
        <time>2017-03-19T12:37:54Z</time>
      </trkpt>
      <trkpt lat="43.2472" lon="5.94028">
        <ele>513.4</ele>
        <time>2017-03-19T12:37:46Z</time>
      </trkpt>
      <trkpt lat="43.24725" lon="5.94039">
        <ele>513.6</ele>
        <time>2017-03-19T12:37:38Z</time>
      </trkpt>
      <trkpt lat="43.2473" lon="5.94049">
        <ele>513.9</ele>
        <time>2017-03-19T12:37:29Z</time>
      </trkpt>
      <trkpt lat="43.24736" lon="5.94059">
        <ele>514.4</ele>
        <time>2017-03-19T12:37:20Z</time>
      </trkpt>
      <trkpt lat="43.24743" lon="5.94069">
        <ele>515</ele>
        <time>2017-03-19T12:37:12Z</time>
      </trkpt>
      <trkpt lat="43.24749" lon="5.94081">
        <ele>516.2</ele>
        <time>2017-03-19T12:37:02Z</time>
      </trkpt>
      <trkpt lat="43.24754" lon="5.94091">
        <ele>517</ele>
        <time>2017-03-19T12:36:54Z</time>
      </trkpt>
      <trkpt lat="43.24757" lon="5.94103">
        <ele>517.5</ele>
        <time>2017-03-19T12:36:45Z</time>
      </trkpt>
      <trkpt lat="43.24757" lon="5.94116">
        <ele>518.2</ele>
        <time>2017-03-19T12:36:36Z</time>
      </trkpt>
      <trkpt lat="43.24756" lon="5.94128">
        <ele>519</ele>
        <time>2017-03-19T12:36:28Z</time>
      </trkpt>
      <trkpt lat="43.24756" lon="5.94142">
        <ele>519.8</ele>
        <time>2017-03-19T12:36:19Z</time>
      </trkpt>
      <trkpt lat="43.24756" lon="5.94155">
        <ele>520.6</ele>
        <time>2017-03-19T12:36:10Z</time>
      </trkpt>
      <trkpt lat="43.24751" lon="5.94166">
        <ele>521.3</ele>
        <time>2017-03-19T12:36:02Z</time>
      </trkpt>
      <trkpt lat="43.24749" lon="5.94179">
        <ele>522.5</ele>
        <time>2017-03-19T12:35:50Z</time>
      </trkpt>
      <trkpt lat="43.24755" lon="5.94188">
        <ele>523.4</ele>
        <time>2017-03-19T12:35:41Z</time>
      </trkpt>
      <trkpt lat="43.24762" lon="5.94196">
        <ele>524.2</ele>
        <time>2017-03-19T12:35:32Z</time>
      </trkpt>
      <trkpt lat="43.24772" lon="5.94197">
        <ele>524.9</ele>
        <time>2017-03-19T12:35:25Z</time>
      </trkpt>
      <trkpt lat="43.24781" lon="5.94199">
        <ele>526.1</ele>
        <time>2017-03-19T12:35:18Z</time>
      </trkpt>
      <trkpt lat="43.2479" lon="5.94204">
        <ele>526.8</ele>
        <time>2017-03-19T12:35:09Z</time>
      </trkpt>
      <trkpt lat="43.24797" lon="5.94211">
        <ele>527.6</ele>
        <time>2017-03-19T12:35:00Z</time>
      </trkpt>
      <trkpt lat="43.24806" lon="5.94217">
        <ele>528.2</ele>
        <time>2017-03-19T12:34:51Z</time>
      </trkpt>
      <trkpt lat="43.24815" lon="5.9422">
        <ele>528.9</ele>
        <time>2017-03-19T12:34:43Z</time>
      </trkpt>
      <trkpt lat="43.24824" lon="5.9422">
        <ele>529.7</ele>
        <time>2017-03-19T12:34:33Z</time>
      </trkpt>
      <trkpt lat="43.24834" lon="5.94217">
        <ele>530.7</ele>
        <time>2017-03-19T12:34:24Z</time>
      </trkpt>
      <trkpt lat="43.24842" lon="5.94213">
        <ele>531.7</ele>
        <time>2017-03-19T12:34:14Z</time>
      </trkpt>
      <trkpt lat="43.24851" lon="5.94211">
        <ele>532.5</ele>
        <time>2017-03-19T12:34:06Z</time>
      </trkpt>
      <trkpt lat="43.24859" lon="5.94218">
        <ele>533.5</ele>
        <time>2017-03-19T12:33:56Z</time>
      </trkpt>
      <trkpt lat="43.24865" lon="5.94229">
        <ele>534.5</ele>
        <time>2017-03-19T12:33:47Z</time>
      </trkpt>
      <trkpt lat="43.24866" lon="5.94242">
        <ele>534.9</ele>
        <time>2017-03-19T12:33:38Z</time>
      </trkpt>
      <trkpt lat="43.24866" lon="5.94254">
        <ele>535.5</ele>
        <time>2017-03-19T12:33:29Z</time>
      </trkpt>
      <trkpt lat="43.24862" lon="5.94265">
        <ele>535.8</ele>
        <time>2017-03-19T12:33:21Z</time>
      </trkpt>
      <trkpt lat="43.24854" lon="5.94273">
        <ele>536.4</ele>
        <time>2017-03-19T12:33:13Z</time>
      </trkpt>
      <trkpt lat="43.24846" lon="5.94281">
        <ele>536.9</ele>
        <time>2017-03-19T12:33:04Z</time>
      </trkpt>
      <trkpt lat="43.2484" lon="5.94291">
        <ele>537.1</ele>
        <time>2017-03-19T12:32:55Z</time>
      </trkpt>
      <trkpt lat="43.24831" lon="5.94296">
        <ele>537.5</ele>
        <time>2017-03-19T12:32:47Z</time>
      </trkpt>
      <trkpt lat="43.24824" lon="5.94303">
        <ele>538.2</ele>
        <time>2017-03-19T12:32:39Z</time>
      </trkpt>
      <trkpt lat="43.24814" lon="5.94305">
        <ele>538.9</ele>
        <time>2017-03-19T12:32:30Z</time>
      </trkpt>
      <trkpt lat="43.24805" lon="5.94305">
        <ele>539.4</ele>
        <time>2017-03-19T12:32:20Z</time>
      </trkpt>
      <trkpt lat="43.24796" lon="5.94309">
        <ele>540.2</ele>
        <time>2017-03-19T12:32:07Z</time>
      </trkpt>
      <trkpt lat="43.24787" lon="5.9431">
        <ele>540.8</ele>
        <time>2017-03-19T12:31:55Z</time>
      </trkpt>
      <trkpt lat="43.24779" lon="5.94315">
        <ele>541.4</ele>
        <time>2017-03-19T12:31:43Z</time>
      </trkpt>
      <trkpt lat="43.24772" lon="5.94324">
        <ele>541.9</ele>
        <time>2017-03-19T12:31:33Z</time>
      </trkpt>
      <trkpt lat="43.24768" lon="5.94335">
        <ele>542.5</ele>
        <time>2017-03-19T12:31:22Z</time>
      </trkpt>
      <trkpt lat="43.24762" lon="5.94345">
        <ele>543.2</ele>
        <time>2017-03-19T12:31:13Z</time>
      </trkpt>
      <trkpt lat="43.24759" lon="5.94358">
        <ele>543.9</ele>
        <time>2017-03-19T12:31:04Z</time>
      </trkpt>
      <trkpt lat="43.24757" lon="5.9437">
        <ele>544.4</ele>
        <time>2017-03-19T12:30:56Z</time>
      </trkpt>
      <trkpt lat="43.24754" lon="5.94383">
        <ele>544.8</ele>
        <time>2017-03-19T12:30:47Z</time>
      </trkpt>
      <trkpt lat="43.24751" lon="5.94394">
        <ele>545.4</ele>
        <time>2017-03-19T12:30:39Z</time>
      </trkpt>
      <trkpt lat="43.24747" lon="5.94406">
        <ele>546</ele>
        <time>2017-03-19T12:30:31Z</time>
      </trkpt>
      <trkpt lat="43.2474" lon="5.94415">
        <ele>546.6</ele>
        <time>2017-03-19T12:30:21Z</time>
      </trkpt>
      <trkpt lat="43.24731" lon="5.94417">
        <ele>546.9</ele>
        <time>2017-03-19T12:30:14Z</time>
      </trkpt>
      <trkpt lat="43.24723" lon="5.94412">
        <ele>547.6</ele>
        <time>2017-03-19T12:30:04Z</time>
      </trkpt>
      <trkpt lat="43.24714" lon="5.94407">
        <ele>548</ele>
        <time>2017-03-19T12:29:50Z</time>
      </trkpt>
      <trkpt lat="43.24705" lon="5.94406">
        <ele>548.6</ele>
        <time>2017-03-19T12:29:39Z</time>
      </trkpt>
      <trkpt lat="43.24696" lon="5.94411">
        <ele>548.3</ele>
        <time>2017-03-19T12:29:25Z</time>
      </trkpt>
      <trkpt lat="43.24687" lon="5.94413">
        <ele>549.9</ele>
        <time>2017-03-19T12:28:44Z</time>
      </trkpt>
      <trkpt lat="43.24677" lon="5.94416">
        <ele>550.4</ele>
        <time>2017-03-19T12:28:31Z</time>
      </trkpt>
      <trkpt lat="43.24668" lon="5.94415">
        <ele>550.6</ele>
        <time>2017-03-19T12:28:18Z</time>
      </trkpt>
      <trkpt lat="43.24659" lon="5.94419">
        <ele>551</ele>
        <time>2017-03-19T12:27:53Z</time>
      </trkpt>
      <trkpt lat="43.24649" lon="5.94423">
        <ele>552.8</ele>
        <time>2017-03-19T12:27:26Z</time>
      </trkpt>
      <trkpt lat="43.24642" lon="5.9443">
        <ele>554.2</ele>
        <time>2017-03-19T12:27:14Z</time>
      </trkpt>
      <trkpt lat="43.24637" lon="5.94441">
        <ele>555.3</ele>
        <time>2017-03-19T12:27:01Z</time>
      </trkpt>
      <trkpt lat="43.24637" lon="5.94454">
        <ele>556.3</ele>
        <time>2017-03-19T12:16:13Z</time>
      </trkpt>
      <trkpt lat="43.24646" lon="5.94454">
        <ele>556.8</ele>
        <time>2017-03-19T12:07:01Z</time>
      </trkpt>
      <trkpt lat="43.24645" lon="5.94466">
        <ele>555.6</ele>
        <time>2017-03-19T12:02:55Z</time>
      </trkpt>
      <trkpt lat="43.24636" lon="5.94461">
        <ele>554.9</ele>
        <time>2017-03-19T11:52:37Z</time>
      </trkpt>
      <trkpt lat="43.24645" lon="5.94455">
        <ele>554.5</ele>
        <time>2017-03-19T11:49:00Z</time>
      </trkpt>
      <trkpt lat="43.24637" lon="5.94461">
        <ele>554.8</ele>
        <time>2017-03-19T11:46:34Z</time>
      </trkpt>
      <trkpt lat="43.24645" lon="5.94457">
        <ele>555.1</ele>
        <time>2017-03-19T11:45:48Z</time>
      </trkpt>
      <trkpt lat="43.24636" lon="5.94458">
        <ele>557.3</ele>
        <time>2017-03-19T11:32:10Z</time>
      </trkpt>
      <trkpt lat="43.24637" lon="5.94471">
        <ele>558.3</ele>
        <time>2017-03-19T11:30:51Z</time>
      </trkpt>
      <trkpt lat="43.24635" lon="5.94484">
        <ele>559.1</ele>
        <time>2017-03-19T11:30:37Z</time>
      </trkpt>
      <trkpt lat="43.24634" lon="5.94496">
        <ele>559.8</ele>
        <time>2017-03-19T11:30:25Z</time>
      </trkpt>
      <trkpt lat="43.24633" lon="5.94509">
        <ele>559.9</ele>
        <time>2017-03-19T11:30:15Z</time>
      </trkpt>
      <trkpt lat="43.24631" lon="5.94521">
        <ele>559.7</ele>
        <time>2017-03-19T11:30:08Z</time>
      </trkpt>
      <trkpt lat="43.24628" lon="5.94534">
        <ele>559.6</ele>
        <time>2017-03-19T11:29:59Z</time>
      </trkpt>
      <trkpt lat="43.24622" lon="5.94544">
        <ele>559.3</ele>
        <time>2017-03-19T11:29:51Z</time>
      </trkpt>
      <trkpt lat="43.24617" lon="5.94554">
        <ele>558.9</ele>
        <time>2017-03-19T11:29:38Z</time>
      </trkpt>
      <trkpt lat="43.24611" lon="5.94565">
        <ele>558.8</ele>
        <time>2017-03-19T11:29:28Z</time>
      </trkpt>
      <trkpt lat="43.24603" lon="5.94573">
        <ele>558.5</ele>
        <time>2017-03-19T11:29:18Z</time>
      </trkpt>
      <trkpt lat="43.24597" lon="5.94583">
        <ele>557.5</ele>
        <time>2017-03-19T11:28:55Z</time>
      </trkpt>
      <trkpt lat="43.246" lon="5.94595">
        <ele>556.5</ele>
        <time>2017-03-19T11:28:04Z</time>
      </trkpt>
      <trkpt lat="43.24596" lon="5.94607">
        <ele>556</ele>
        <time>2017-03-19T11:27:54Z</time>
      </trkpt>
      <trkpt lat="43.24589" lon="5.94616">
        <ele>555.8</ele>
        <time>2017-03-19T11:27:47Z</time>
      </trkpt>
      <trkpt lat="43.24585" lon="5.94627">
        <ele>555.5</ele>
        <time>2017-03-19T11:27:35Z</time>
      </trkpt>
      <trkpt lat="43.24587" lon="5.94639">
        <ele>555</ele>
        <time>2017-03-19T11:27:23Z</time>
      </trkpt>
      <trkpt lat="43.24585" lon="5.9465">
        <ele>555.1</ele>
        <time>2017-03-19T11:27:15Z</time>
      </trkpt>
      <trkpt lat="43.24586" lon="5.94663">
        <ele>555.1</ele>
        <time>2017-03-19T11:27:03Z</time>
      </trkpt>
      <trkpt lat="43.24587" lon="5.94676">
        <ele>554.8</ele>
        <time>2017-03-19T11:26:42Z</time>
      </trkpt>
      <trkpt lat="43.24594" lon="5.94683">
        <ele>555.1</ele>
        <time>2017-03-19T11:26:25Z</time>
      </trkpt>
      <trkpt lat="43.24598" lon="5.94695">
        <ele>554.9</ele>
        <time>2017-03-19T11:26:05Z</time>
      </trkpt>
      <trkpt lat="43.24589" lon="5.94699">
        <ele>554.9</ele>
        <time>2017-03-19T11:25:56Z</time>
      </trkpt>
      <trkpt lat="43.24581" lon="5.94705">
        <ele>554.6</ele>
        <time>2017-03-19T11:25:42Z</time>
      </trkpt>
      <trkpt lat="43.24573" lon="5.94712">
        <ele>555</ele>
        <time>2017-03-19T11:25:25Z</time>
      </trkpt>
      <trkpt lat="43.24574" lon="5.94725">
        <ele>554.8</ele>
        <time>2017-03-19T11:25:04Z</time>
      </trkpt>
      <trkpt lat="43.24581" lon="5.94733">
        <ele>554.6</ele>
        <time>2017-03-19T11:24:53Z</time>
      </trkpt>
      <trkpt lat="43.2458" lon="5.94745">
        <ele>554.6</ele>
        <time>2017-03-19T11:24:43Z</time>
      </trkpt>
      <trkpt lat="43.24585" lon="5.94756">
        <ele>554.4</ele>
        <time>2017-03-19T11:24:34Z</time>
      </trkpt>
      <trkpt lat="43.24587" lon="5.94769">
        <ele>553.9</ele>
        <time>2017-03-19T11:24:25Z</time>
      </trkpt>
      <trkpt lat="43.24589" lon="5.94781">
        <ele>553.7</ele>
        <time>2017-03-19T11:24:15Z</time>
      </trkpt>
      <trkpt lat="43.24594" lon="5.94792">
        <ele>553.2</ele>
        <time>2017-03-19T11:24:07Z</time>
      </trkpt>
      <trkpt lat="43.24601" lon="5.94802">
        <ele>553</ele>
        <time>2017-03-19T11:23:57Z</time>
      </trkpt>
      <trkpt lat="43.24605" lon="5.94814">
        <ele>552.8</ele>
        <time>2017-03-19T11:23:48Z</time>
      </trkpt>
      <trkpt lat="43.24608" lon="5.94827">
        <ele>552.3</ele>
        <time>2017-03-19T11:23:38Z</time>
      </trkpt>
      <trkpt lat="43.2461" lon="5.9484">
        <ele>551.9</ele>
        <time>2017-03-19T11:23:29Z</time>
      </trkpt>
      <trkpt lat="43.24608" lon="5.94853">
        <ele>550.8</ele>
        <time>2017-03-19T11:23:19Z</time>
      </trkpt>
      <trkpt lat="43.24605" lon="5.94864">
        <ele>550.2</ele>
        <time>2017-03-19T11:23:11Z</time>
      </trkpt>
      <trkpt lat="43.24603" lon="5.94877">
        <ele>550</ele>
        <time>2017-03-19T11:23:01Z</time>
      </trkpt>
      <trkpt lat="43.24597" lon="5.94887">
        <ele>549.7</ele>
        <time>2017-03-19T11:22:54Z</time>
      </trkpt>
      <trkpt lat="43.24596" lon="5.949">
        <ele>548.6</ele>
        <time>2017-03-19T11:22:37Z</time>
      </trkpt>
      <trkpt lat="43.2459" lon="5.9491">
        <ele>547.9</ele>
        <time>2017-03-19T11:22:29Z</time>
      </trkpt>
      <trkpt lat="43.24585" lon="5.94922">
        <ele>547.7</ele>
        <time>2017-03-19T11:22:21Z</time>
      </trkpt>
      <trkpt lat="43.24583" lon="5.94935">
        <ele>546.8</ele>
        <time>2017-03-19T11:22:10Z</time>
      </trkpt>
      <trkpt lat="43.24578" lon="5.94947">
        <ele>546.2</ele>
        <time>2017-03-19T11:21:59Z</time>
      </trkpt>
      <trkpt lat="43.24576" lon="5.94959">
        <ele>546</ele>
        <time>2017-03-19T11:21:51Z</time>
      </trkpt>
      <trkpt lat="43.24572" lon="5.94971">
        <ele>545.2</ele>
        <time>2017-03-19T11:21:39Z</time>
      </trkpt>
      <trkpt lat="43.24566" lon="5.94982">
        <ele>545</ele>
        <time>2017-03-19T11:21:30Z</time>
      </trkpt>
      <trkpt lat="43.24561" lon="5.94994">
        <ele>544.9</ele>
        <time>2017-03-19T11:21:23Z</time>
      </trkpt>
      <trkpt lat="43.24557" lon="5.95006">
        <ele>544.8</ele>
        <time>2017-03-19T11:21:14Z</time>
      </trkpt>
      <trkpt lat="43.24552" lon="5.95017">
        <ele>545</ele>
        <time>2017-03-19T11:21:02Z</time>
      </trkpt>
      <trkpt lat="43.24549" lon="5.95029">
        <ele>544.5</ele>
        <time>2017-03-19T11:20:52Z</time>
      </trkpt>
      <trkpt lat="43.24545" lon="5.95042">
        <ele>544.5</ele>
        <time>2017-03-19T11:20:44Z</time>
      </trkpt>
      <trkpt lat="43.24541" lon="5.95054">
        <ele>544.5</ele>
        <time>2017-03-19T11:20:34Z</time>
      </trkpt>
      <trkpt lat="43.24537" lon="5.95066">
        <ele>544.6</ele>
        <time>2017-03-19T11:20:26Z</time>
      </trkpt>
      <trkpt lat="43.24537" lon="5.95081">
        <ele>544.7</ele>
        <time>2017-03-19T11:20:17Z</time>
      </trkpt>
      <trkpt lat="43.24537" lon="5.95094">
        <ele>544.6</ele>
        <time>2017-03-19T11:20:07Z</time>
      </trkpt>
      <trkpt lat="43.24539" lon="5.95107">
        <ele>544.6</ele>
        <time>2017-03-19T11:19:58Z</time>
      </trkpt>
      <trkpt lat="43.2454" lon="5.95121">
        <ele>544.4</ele>
        <time>2017-03-19T11:19:47Z</time>
      </trkpt>
      <trkpt lat="43.24542" lon="5.95133">
        <ele>544.2</ele>
        <time>2017-03-19T11:19:38Z</time>
      </trkpt>
      <trkpt lat="43.2454" lon="5.95146">
        <ele>544.2</ele>
        <time>2017-03-19T11:19:30Z</time>
      </trkpt>
      <trkpt lat="43.24534" lon="5.95156">
        <ele>544.1</ele>
        <time>2017-03-19T11:19:22Z</time>
      </trkpt>
      <trkpt lat="43.2453" lon="5.95168">
        <ele>544.1</ele>
        <time>2017-03-19T11:19:16Z</time>
      </trkpt>
      <trkpt lat="43.24529" lon="5.95182">
        <ele>544.2</ele>
        <time>2017-03-19T11:19:07Z</time>
      </trkpt>
      <trkpt lat="43.24528" lon="5.95196">
        <ele>543.7</ele>
        <time>2017-03-19T11:18:56Z</time>
      </trkpt>
      <trkpt lat="43.24529" lon="5.95208">
        <ele>543.9</ele>
        <time>2017-03-19T11:18:47Z</time>
      </trkpt>
      <trkpt lat="43.24528" lon="5.95221">
        <ele>544</ele>
        <time>2017-03-19T11:18:38Z</time>
      </trkpt>
      <trkpt lat="43.24527" lon="5.95234">
        <ele>544.1</ele>
        <time>2017-03-19T11:18:30Z</time>
      </trkpt>
      <trkpt lat="43.24524" lon="5.95248">
        <ele>544.1</ele>
        <time>2017-03-19T11:18:22Z</time>
      </trkpt>
      <trkpt lat="43.24522" lon="5.95261">
        <ele>543.9</ele>
        <time>2017-03-19T11:18:13Z</time>
      </trkpt>
      <trkpt lat="43.2452" lon="5.95273">
        <ele>544</ele>
        <time>2017-03-19T11:18:03Z</time>
      </trkpt>
      <trkpt lat="43.24517" lon="5.95285">
        <ele>543.9</ele>
        <time>2017-03-19T11:17:54Z</time>
      </trkpt>
      <trkpt lat="43.24515" lon="5.95298">
        <ele>544.1</ele>
        <time>2017-03-19T11:17:42Z</time>
      </trkpt>
      <trkpt lat="43.24514" lon="5.95312">
        <ele>544.4</ele>
        <time>2017-03-19T11:17:34Z</time>
      </trkpt>
      <trkpt lat="43.2451" lon="5.95326">
        <ele>544.5</ele>
        <time>2017-03-19T11:17:27Z</time>
      </trkpt>
      <trkpt lat="43.24504" lon="5.95336">
        <ele>544.6</ele>
        <time>2017-03-19T11:17:18Z</time>
      </trkpt>
      <trkpt lat="43.24502" lon="5.95348">
        <ele>544.6</ele>
        <time>2017-03-19T11:17:07Z</time>
      </trkpt>
      <trkpt lat="43.24497" lon="5.95358">
        <ele>544.3</ele>
        <time>2017-03-19T11:16:56Z</time>
      </trkpt>
      <trkpt lat="43.24504" lon="5.95366">
        <ele>544.3</ele>
        <time>2017-03-19T11:16:42Z</time>
      </trkpt>
      <trkpt lat="43.2451" lon="5.95377">
        <ele>544.4</ele>
        <time>2017-03-19T11:16:31Z</time>
      </trkpt>
      <trkpt lat="43.24508" lon="5.95389">
        <ele>544.5</ele>
        <time>2017-03-19T11:16:22Z</time>
      </trkpt>
      <trkpt lat="43.24509" lon="5.95402">
        <ele>544.6</ele>
        <time>2017-03-19T11:16:15Z</time>
      </trkpt>
      <trkpt lat="43.24505" lon="5.95415">
        <ele>544.6</ele>
        <time>2017-03-19T11:16:07Z</time>
      </trkpt>
      <trkpt lat="43.24501" lon="5.95426">
        <ele>544.4</ele>
        <time>2017-03-19T11:15:58Z</time>
      </trkpt>
      <trkpt lat="43.24495" lon="5.95435">
        <ele>544.5</ele>
        <time>2017-03-19T11:15:50Z</time>
      </trkpt>
      <trkpt lat="43.24493" lon="5.95448">
        <ele>544.4</ele>
        <time>2017-03-19T11:15:40Z</time>
      </trkpt>
      <trkpt lat="43.24488" lon="5.95458">
        <ele>544.5</ele>
        <time>2017-03-19T11:15:33Z</time>
      </trkpt>
      <trkpt lat="43.24483" lon="5.95469">
        <ele>544.5</ele>
        <time>2017-03-19T11:15:27Z</time>
      </trkpt>
      <trkpt lat="43.24481" lon="5.95483">
        <ele>544.8</ele>
        <time>2017-03-19T11:15:17Z</time>
      </trkpt>
      <trkpt lat="43.24476" lon="5.95494">
        <ele>544.7</ele>
        <time>2017-03-19T11:15:09Z</time>
      </trkpt>
      <trkpt lat="43.24474" lon="5.95506">
        <ele>544.7</ele>
        <time>2017-03-19T11:15:02Z</time>
      </trkpt>
      <trkpt lat="43.24475" lon="5.95519">
        <ele>545</ele>
        <time>2017-03-19T11:14:50Z</time>
      </trkpt>
      <trkpt lat="43.24474" lon="5.95532">
        <ele>545.2</ele>
        <time>2017-03-19T11:14:41Z</time>
      </trkpt>
      <trkpt lat="43.24481" lon="5.9554">
        <ele>545.5</ele>
        <time>2017-03-19T11:14:31Z</time>
      </trkpt>
      <trkpt lat="43.2448" lon="5.95552">
        <ele>545.5</ele>
        <time>2017-03-19T11:14:23Z</time>
      </trkpt>
      <trkpt lat="43.24474" lon="5.95563">
        <ele>546</ele>
        <time>2017-03-19T11:14:15Z</time>
      </trkpt>
      <trkpt lat="43.24469" lon="5.95575">
        <ele>546.5</ele>
        <time>2017-03-19T11:14:05Z</time>
      </trkpt>
      <trkpt lat="43.24468" lon="5.95588">
        <ele>546.5</ele>
        <time>2017-03-19T11:13:55Z</time>
      </trkpt>
      <trkpt lat="43.24464" lon="5.95601">
        <ele>546.8</ele>
        <time>2017-03-19T11:13:47Z</time>
      </trkpt>
      <trkpt lat="43.24457" lon="5.95611">
        <ele>546.9</ele>
        <time>2017-03-19T11:13:39Z</time>
      </trkpt>
      <trkpt lat="43.24458" lon="5.95624">
        <ele>547</ele>
        <time>2017-03-19T11:13:29Z</time>
      </trkpt>
      <trkpt lat="43.2446" lon="5.95637">
        <ele>547.5</ele>
        <time>2017-03-19T11:13:21Z</time>
      </trkpt>
      <trkpt lat="43.24461" lon="5.9565">
        <ele>547.9</ele>
        <time>2017-03-19T11:13:11Z</time>
      </trkpt>
      <trkpt lat="43.24462" lon="5.95662">
        <ele>548.1</ele>
        <time>2017-03-19T11:13:01Z</time>
      </trkpt>
      <trkpt lat="43.24458" lon="5.95674">
        <ele>548.4</ele>
        <time>2017-03-19T11:12:52Z</time>
      </trkpt>
      <trkpt lat="43.24453" lon="5.95684">
        <ele>548.5</ele>
        <time>2017-03-19T11:12:47Z</time>
      </trkpt>
      <trkpt lat="43.24453" lon="5.95698">
        <ele>548.8</ele>
        <time>2017-03-19T11:12:36Z</time>
      </trkpt>
      <trkpt lat="43.24449" lon="5.9571">
        <ele>548.4</ele>
        <time>2017-03-19T11:12:26Z</time>
      </trkpt>
      <trkpt lat="43.24443" lon="5.95721">
        <ele>548.9</ele>
        <time>2017-03-19T11:12:18Z</time>
      </trkpt>
      <trkpt lat="43.24444" lon="5.95734">
        <ele>548.8</ele>
        <time>2017-03-19T11:12:09Z</time>
      </trkpt>
      <trkpt lat="43.24443" lon="5.95747">
        <ele>548.8</ele>
        <time>2017-03-19T11:11:58Z</time>
      </trkpt>
      <trkpt lat="43.24441" lon="5.95761">
        <ele>549</ele>
        <time>2017-03-19T11:11:51Z</time>
      </trkpt>
      <trkpt lat="43.24439" lon="5.95774">
        <ele>549</ele>
        <time>2017-03-19T11:11:39Z</time>
      </trkpt>
      <trkpt lat="43.24438" lon="5.95786">
        <ele>548.9</ele>
        <time>2017-03-19T11:11:27Z</time>
      </trkpt>
      <trkpt lat="43.24434" lon="5.95798">
        <ele>549</ele>
        <time>2017-03-19T11:11:22Z</time>
      </trkpt>
      <trkpt lat="43.24431" lon="5.9581">
        <ele>549.3</ele>
        <time>2017-03-19T11:11:02Z</time>
      </trkpt>
      <trkpt lat="43.24433" lon="5.95822">
        <ele>549.1</ele>
        <time>2017-03-19T11:10:45Z</time>
      </trkpt>
      <trkpt lat="43.24428" lon="5.95833">
        <ele>549</ele>
        <time>2017-03-19T11:10:19Z</time>
      </trkpt>
      <trkpt lat="43.24426" lon="5.95846">
        <ele>549</ele>
        <time>2017-03-19T11:10:02Z</time>
      </trkpt>
      <trkpt lat="43.24423" lon="5.95858">
        <ele>549</ele>
        <time>2017-03-19T11:09:53Z</time>
      </trkpt>
      <trkpt lat="43.24423" lon="5.95871">
        <ele>548.7</ele>
        <time>2017-03-19T11:09:42Z</time>
      </trkpt>
      <trkpt lat="43.24422" lon="5.95884">
        <ele>548.6</ele>
        <time>2017-03-19T11:09:28Z</time>
      </trkpt>
      <trkpt lat="43.24418" lon="5.95896">
        <ele>548.8</ele>
        <time>2017-03-19T11:09:18Z</time>
      </trkpt>
      <trkpt lat="43.24414" lon="5.95908">
        <ele>548.2</ele>
        <time>2017-03-19T11:08:55Z</time>
      </trkpt>
      <trkpt lat="43.24415" lon="5.95921">
        <ele>548.1</ele>
        <time>2017-03-19T11:08:46Z</time>
      </trkpt>
      <trkpt lat="43.24415" lon="5.95934">
        <ele>547.8</ele>
        <time>2017-03-19T11:08:32Z</time>
      </trkpt>
      <trkpt lat="43.24407" lon="5.9594">
        <ele>547.9</ele>
        <time>2017-03-19T11:08:23Z</time>
      </trkpt>
      <trkpt lat="43.24414" lon="5.95934">
        <ele>548.4</ele>
        <time>2017-03-19T11:07:30Z</time>
      </trkpt>
      <trkpt lat="43.2441" lon="5.95946">
        <ele>548.3</ele>
        <time>2017-03-19T11:07:20Z</time>
      </trkpt>
      <trkpt lat="43.24406" lon="5.95956">
        <ele>548.2</ele>
        <time>2017-03-19T11:07:09Z</time>
      </trkpt>
      <trkpt lat="43.24405" lon="5.95969">
        <ele>548.8</ele>
        <time>2017-03-19T11:06:54Z</time>
      </trkpt>
      <trkpt lat="43.24412" lon="5.95977">
        <ele>549.2</ele>
        <time>2017-03-19T11:06:46Z</time>
      </trkpt>
      <trkpt lat="43.2442" lon="5.95986">
        <ele>550.1</ele>
        <time>2017-03-19T11:06:34Z</time>
      </trkpt>
      <trkpt lat="43.24425" lon="5.95997">
        <ele>550.8</ele>
        <time>2017-03-19T11:06:25Z</time>
      </trkpt>
      <trkpt lat="43.24433" lon="5.96004">
        <ele>551.4</ele>
        <time>2017-03-19T11:06:15Z</time>
      </trkpt>
      <trkpt lat="43.24439" lon="5.96014">
        <ele>551.8</ele>
        <time>2017-03-19T11:06:06Z</time>
      </trkpt>
      <trkpt lat="43.24444" lon="5.96025">
        <ele>553.3</ele>
        <time>2017-03-19T11:05:14Z</time>
      </trkpt>
      <trkpt lat="43.24435" lon="5.96023">
        <ele>554</ele>
        <time>2017-03-19T11:04:39Z</time>
      </trkpt>
      <trkpt lat="43.24443" lon="5.9603">
        <ele>554</ele>
        <time>2017-03-19T11:04:17Z</time>
      </trkpt>
      <trkpt lat="43.24455" lon="5.96033">
        <ele>555.4</ele>
        <time>2017-03-19T11:03:09Z</time>
      </trkpt>
      <trkpt lat="43.24446" lon="5.96034">
        <ele>556.7</ele>
        <time>2017-03-19T11:01:37Z</time>
      </trkpt>
      <trkpt lat="43.24454" lon="5.9604">
        <ele>558.4</ele>
        <time>2017-03-19T11:00:51Z</time>
      </trkpt>
      <trkpt lat="43.24464" lon="5.96042">
        <ele>559.3</ele>
        <time>2017-03-19T11:00:40Z</time>
      </trkpt>
      <trkpt lat="43.24473" lon="5.96044">
        <ele>560</ele>
        <time>2017-03-19T11:00:30Z</time>
      </trkpt>
      <trkpt lat="43.24483" lon="5.9605">
        <ele>560.5</ele>
        <time>2017-03-19T11:00:24Z</time>
      </trkpt>
      <trkpt lat="43.24492" lon="5.96054">
        <ele>562.2</ele>
        <time>2017-03-19T11:00:14Z</time>
      </trkpt>
      <trkpt lat="43.24499" lon="5.96062">
        <ele>564.1</ele>
        <time>2017-03-19T11:00:03Z</time>
      </trkpt>
      <trkpt lat="43.24504" lon="5.96073">
        <ele>565.6</ele>
        <time>2017-03-19T10:59:53Z</time>
      </trkpt>
      <trkpt lat="43.24508" lon="5.96086">
        <ele>567.1</ele>
        <time>2017-03-19T10:59:42Z</time>
      </trkpt>
      <trkpt lat="43.24512" lon="5.96097">
        <ele>569.1</ele>
        <time>2017-03-19T10:59:32Z</time>
      </trkpt>
      <trkpt lat="43.24514" lon="5.96109">
        <ele>571.1</ele>
        <time>2017-03-19T10:59:20Z</time>
      </trkpt>
      <trkpt lat="43.24515" lon="5.96122">
        <ele>572.5</ele>
        <time>2017-03-19T10:59:11Z</time>
      </trkpt>
      <trkpt lat="43.24519" lon="5.96134">
        <ele>574</ele>
        <time>2017-03-19T10:59:01Z</time>
      </trkpt>
      <trkpt lat="43.24523" lon="5.96146">
        <ele>575.5</ele>
        <time>2017-03-19T10:58:52Z</time>
      </trkpt>
      <trkpt lat="43.24525" lon="5.96158">
        <ele>577.3</ele>
        <time>2017-03-19T10:58:40Z</time>
      </trkpt>
      <trkpt lat="43.24525" lon="5.9617">
        <ele>579.3</ele>
        <time>2017-03-19T10:58:27Z</time>
      </trkpt>
      <trkpt lat="43.24525" lon="5.96184">
        <ele>580.4</ele>
        <time>2017-03-19T10:58:18Z</time>
      </trkpt>
      <trkpt lat="43.24529" lon="5.96196">
        <ele>582</ele>
        <time>2017-03-19T10:58:07Z</time>
      </trkpt>
      <trkpt lat="43.24533" lon="5.96208">
        <ele>583.8</ele>
        <time>2017-03-19T10:57:56Z</time>
      </trkpt>
      <trkpt lat="43.24532" lon="5.96221">
        <ele>585</ele>
        <time>2017-03-19T10:57:45Z</time>
      </trkpt>
      <trkpt lat="43.24536" lon="5.96233">
        <ele>586.4</ele>
        <time>2017-03-19T10:57:35Z</time>
      </trkpt>
      <trkpt lat="43.24538" lon="5.96245">
        <ele>588.2</ele>
        <time>2017-03-19T10:57:24Z</time>
      </trkpt>
      <trkpt lat="43.24542" lon="5.96256">
        <ele>589.9</ele>
        <time>2017-03-19T10:57:14Z</time>
      </trkpt>
      <trkpt lat="43.24546" lon="5.96269">
        <ele>591.3</ele>
        <time>2017-03-19T10:57:04Z</time>
      </trkpt>
      <trkpt lat="43.24551" lon="5.9628">
        <ele>592.5</ele>
        <time>2017-03-19T10:56:54Z</time>
      </trkpt>
      <trkpt lat="43.24553" lon="5.96293">
        <ele>593.6</ele>
        <time>2017-03-19T10:56:42Z</time>
      </trkpt>
      <trkpt lat="43.24557" lon="5.96305">
        <ele>595.3</ele>
        <time>2017-03-19T10:56:32Z</time>
      </trkpt>
      <trkpt lat="43.2456" lon="5.96318">
        <ele>597.1</ele>
        <time>2017-03-19T10:56:21Z</time>
      </trkpt>
      <trkpt lat="43.24561" lon="5.9633">
        <ele>599.1</ele>
        <time>2017-03-19T10:56:10Z</time>
      </trkpt>
      <trkpt lat="43.24562" lon="5.96344">
        <ele>601.1</ele>
        <time>2017-03-19T10:55:55Z</time>
      </trkpt>
      <trkpt lat="43.24565" lon="5.96355">
        <ele>603.1</ele>
        <time>2017-03-19T10:55:43Z</time>
      </trkpt>
      <trkpt lat="43.24567" lon="5.96367">
        <ele>605.3</ele>
        <time>2017-03-19T10:55:30Z</time>
      </trkpt>
      <trkpt lat="43.24568" lon="5.9638">
        <ele>607.5</ele>
        <time>2017-03-19T10:55:20Z</time>
      </trkpt>
      <trkpt lat="43.24571" lon="5.96391">
        <ele>609.2</ele>
        <time>2017-03-19T10:55:12Z</time>
      </trkpt>
      <trkpt lat="43.24576" lon="5.96402">
        <ele>610.5</ele>
        <time>2017-03-19T10:55:04Z</time>
      </trkpt>
      <trkpt lat="43.24576" lon="5.96415">
        <ele>612</ele>
        <time>2017-03-19T10:54:54Z</time>
      </trkpt>
      <trkpt lat="43.24576" lon="5.96428">
        <ele>613.5</ele>
        <time>2017-03-19T10:54:42Z</time>
      </trkpt>
      <trkpt lat="43.24574" lon="5.96441">
        <ele>614.7</ele>
        <time>2017-03-19T10:54:34Z</time>
      </trkpt>
      <trkpt lat="43.24575" lon="5.96454">
        <ele>616.5</ele>
        <time>2017-03-19T10:54:25Z</time>
      </trkpt>
      <trkpt lat="43.24578" lon="5.96467">
        <ele>619</ele>
        <time>2017-03-19T10:54:14Z</time>
      </trkpt>
      <trkpt lat="43.24581" lon="5.96478">
        <ele>621.9</ele>
        <time>2017-03-19T10:54:01Z</time>
      </trkpt>
      <trkpt lat="43.24583" lon="5.96492">
        <ele>624.2</ele>
        <time>2017-03-19T10:53:51Z</time>
      </trkpt>
      <trkpt lat="43.24588" lon="5.96502">
        <ele>626.3</ele>
        <time>2017-03-19T10:53:41Z</time>
      </trkpt>
      <trkpt lat="43.24587" lon="5.96515">
        <ele>628.1</ele>
        <time>2017-03-19T10:53:32Z</time>
      </trkpt>
      <trkpt lat="43.24591" lon="5.96528">
        <ele>629.8</ele>
        <time>2017-03-19T10:53:22Z</time>
      </trkpt>
      <trkpt lat="43.24591" lon="5.96541">
        <ele>631.6</ele>
        <time>2017-03-19T10:53:10Z</time>
      </trkpt>
      <trkpt lat="43.24594" lon="5.96554">
        <ele>633</ele>
        <time>2017-03-19T10:53:01Z</time>
      </trkpt>
      <trkpt lat="43.24598" lon="5.96565">
        <ele>633.3</ele>
        <time>2017-03-19T10:52:53Z</time>
      </trkpt>
      <trkpt lat="43.24598" lon="5.96578">
        <ele>633.6</ele>
        <time>2017-03-19T10:52:43Z</time>
      </trkpt>
      <trkpt lat="43.24599" lon="5.96591">
        <ele>633.6</ele>
        <time>2017-03-19T10:52:36Z</time>
      </trkpt>
      <trkpt lat="43.24597" lon="5.96604">
        <ele>633.7</ele>
        <time>2017-03-19T10:52:26Z</time>
      </trkpt>
      <trkpt lat="43.24596" lon="5.96617">
        <ele>634</ele>
        <time>2017-03-19T10:52:18Z</time>
      </trkpt>
      <trkpt lat="43.24595" lon="5.96631">
        <ele>633.9</ele>
        <time>2017-03-19T10:52:09Z</time>
      </trkpt>
      <trkpt lat="43.24596" lon="5.96643">
        <ele>633.8</ele>
        <time>2017-03-19T10:52:01Z</time>
      </trkpt>
      <trkpt lat="43.24594" lon="5.96656">
        <ele>633.9</ele>
        <time>2017-03-19T10:51:53Z</time>
      </trkpt>
      <trkpt lat="43.24592" lon="5.9667">
        <ele>633.8</ele>
        <time>2017-03-19T10:51:44Z</time>
      </trkpt>
      <trkpt lat="43.24592" lon="5.96683">
        <ele>632.6</ele>
        <time>2017-03-19T10:51:33Z</time>
      </trkpt>
      <trkpt lat="43.24594" lon="5.96695">
        <ele>631.7</ele>
        <time>2017-03-19T10:51:21Z</time>
      </trkpt>
      <trkpt lat="43.24593" lon="5.96709">
        <ele>631.5</ele>
        <time>2017-03-19T10:51:12Z</time>
      </trkpt>
      <trkpt lat="43.24594" lon="5.96722">
        <ele>631.3</ele>
        <time>2017-03-19T10:51:03Z</time>
      </trkpt>
      <trkpt lat="43.24595" lon="5.96734">
        <ele>631</ele>
        <time>2017-03-19T10:50:54Z</time>
      </trkpt>
      <trkpt lat="43.24598" lon="5.96747">
        <ele>630.2</ele>
        <time>2017-03-19T10:50:44Z</time>
      </trkpt>
      <trkpt lat="43.24605" lon="5.96754">
        <ele>629</ele>
        <time>2017-03-19T10:50:32Z</time>
      </trkpt>
      <trkpt lat="43.24612" lon="5.96764">
        <ele>628.2</ele>
        <time>2017-03-19T10:50:21Z</time>
      </trkpt>
      <trkpt lat="43.24618" lon="5.96774">
        <ele>627.4</ele>
        <time>2017-03-19T10:50:11Z</time>
      </trkpt>
      <trkpt lat="43.24624" lon="5.96783">
        <ele>626.5</ele>
        <time>2017-03-19T10:50:01Z</time>
      </trkpt>
      <trkpt lat="43.24628" lon="5.96794">
        <ele>626.1</ele>
        <time>2017-03-19T10:49:51Z</time>
      </trkpt>
      <trkpt lat="43.24635" lon="5.96804">
        <ele>625.2</ele>
        <time>2017-03-19T10:49:41Z</time>
      </trkpt>
      <trkpt lat="43.24642" lon="5.96813">
        <ele>624.2</ele>
        <time>2017-03-19T10:49:32Z</time>
      </trkpt>
      <trkpt lat="43.2465" lon="5.96819">
        <ele>622.9</ele>
        <time>2017-03-19T10:49:18Z</time>
      </trkpt>
      <trkpt lat="43.24659" lon="5.96826">
        <ele>621.7</ele>
        <time>2017-03-19T10:49:06Z</time>
      </trkpt>
      <trkpt lat="43.24665" lon="5.96836">
        <ele>619.6</ele>
        <time>2017-03-19T10:48:50Z</time>
      </trkpt>
      <trkpt lat="43.24673" lon="5.96842">
        <ele>618.6</ele>
        <time>2017-03-19T10:48:41Z</time>
      </trkpt>
      <trkpt lat="43.24681" lon="5.96852">
        <ele>617.2</ele>
        <time>2017-03-19T10:48:28Z</time>
      </trkpt>
      <trkpt lat="43.24687" lon="5.96861">
        <ele>615.8</ele>
        <time>2017-03-19T10:48:18Z</time>
      </trkpt>
      <trkpt lat="43.24695" lon="5.96868">
        <ele>614</ele>
        <time>2017-03-19T10:48:08Z</time>
      </trkpt>
      <trkpt lat="43.24704" lon="5.96876">
        <ele>613.6</ele>
        <time>2017-03-19T10:47:58Z</time>
      </trkpt>
      <trkpt lat="43.24711" lon="5.96884">
        <ele>613.2</ele>
        <time>2017-03-19T10:47:48Z</time>
      </trkpt>
      <trkpt lat="43.24719" lon="5.9689">
        <ele>612</ele>
        <time>2017-03-19T10:47:36Z</time>
      </trkpt>
      <trkpt lat="43.24727" lon="5.96897">
        <ele>612</ele>
        <time>2017-03-19T10:47:28Z</time>
      </trkpt>
      <trkpt lat="43.24735" lon="5.96904">
        <ele>611.8</ele>
        <time>2017-03-19T10:47:19Z</time>
      </trkpt>
      <trkpt lat="43.24743" lon="5.96912">
        <ele>611.9</ele>
        <time>2017-03-19T10:47:12Z</time>
      </trkpt>
      <trkpt lat="43.24751" lon="5.9692">
        <ele>612</ele>
        <time>2017-03-19T10:47:02Z</time>
      </trkpt>
      <trkpt lat="43.24759" lon="5.96928">
        <ele>612.1</ele>
        <time>2017-03-19T10:46:54Z</time>
      </trkpt>
      <trkpt lat="43.24763" lon="5.9694">
        <ele>613</ele>
        <time>2017-03-19T10:46:42Z</time>
      </trkpt>
      <trkpt lat="43.24766" lon="5.96952">
        <ele>613.6</ele>
        <time>2017-03-19T10:46:33Z</time>
      </trkpt>
      <trkpt lat="43.24771" lon="5.96964">
        <ele>614.3</ele>
        <time>2017-03-19T10:46:25Z</time>
      </trkpt>
      <trkpt lat="43.24774" lon="5.96976">
        <ele>615.5</ele>
        <time>2017-03-19T10:46:14Z</time>
      </trkpt>
      <trkpt lat="43.24781" lon="5.96985">
        <ele>617.2</ele>
        <time>2017-03-19T10:46:03Z</time>
      </trkpt>
      <trkpt lat="43.24789" lon="5.96993">
        <ele>618.4</ele>
        <time>2017-03-19T10:45:53Z</time>
      </trkpt>
      <trkpt lat="43.24796" lon="5.97002">
        <ele>619.9</ele>
        <time>2017-03-19T10:45:42Z</time>
      </trkpt>
      <trkpt lat="43.24802" lon="5.97011">
        <ele>620.9</ele>
        <time>2017-03-19T10:45:31Z</time>
      </trkpt>
      <trkpt lat="43.24809" lon="5.9702">
        <ele>623.1</ele>
        <time>2017-03-19T10:45:15Z</time>
      </trkpt>
      <trkpt lat="43.24816" lon="5.97027">
        <ele>624</ele>
        <time>2017-03-19T10:45:06Z</time>
      </trkpt>
      <trkpt lat="43.24824" lon="5.97034">
        <ele>625.4</ele>
        <time>2017-03-19T10:44:48Z</time>
      </trkpt>
      <trkpt lat="43.24831" lon="5.97044">
        <ele>625.6</ele>
        <time>2017-03-19T10:44:11Z</time>
      </trkpt>
      <trkpt lat="43.24835" lon="5.97055">
        <ele>625.8</ele>
        <time>2017-03-19T10:43:35Z</time>
      </trkpt>
      <trkpt lat="43.24844" lon="5.97057">
        <ele>626.1</ele>
        <time>2017-03-19T10:42:26Z</time>
      </trkpt>
      <trkpt lat="43.24835" lon="5.97063">
        <ele>625.9</ele>
        <time>2017-03-19T10:42:13Z</time>
      </trkpt>
      <trkpt lat="43.24832" lon="5.97075">
        <ele>625</ele>
        <time>2017-03-19T10:41:31Z</time>
      </trkpt>
      <trkpt lat="43.24826" lon="5.97065">
        <ele>626.1</ele>
        <time>2017-03-19T10:37:50Z</time>
      </trkpt>
      <trkpt lat="43.2483" lon="5.97055">
        <ele>624</ele>
        <time>2017-03-19T10:37:14Z</time>
      </trkpt>
      <trkpt lat="43.24824" lon="5.97046">
        <ele>622.7</ele>
        <time>2017-03-19T10:37:03Z</time>
      </trkpt>
      <trkpt lat="43.24818" lon="5.97035">
        <ele>621.2</ele>
        <time>2017-03-19T10:36:51Z</time>
      </trkpt>
      <trkpt lat="43.2481" lon="5.97028">
        <ele>620</ele>
        <time>2017-03-19T10:36:38Z</time>
      </trkpt>
      <trkpt lat="43.24801" lon="5.97024">
        <ele>617.9</ele>
        <time>2017-03-19T10:36:24Z</time>
      </trkpt>
      <trkpt lat="43.24792" lon="5.97017">
        <ele>616.4</ele>
        <time>2017-03-19T10:36:11Z</time>
      </trkpt>
      <trkpt lat="43.24789" lon="5.97005">
        <ele>614.9</ele>
        <time>2017-03-19T10:36:00Z</time>
      </trkpt>
      <trkpt lat="43.24783" lon="5.96996">
        <ele>613.9</ele>
        <time>2017-03-19T10:35:49Z</time>
      </trkpt>
      <trkpt lat="43.24777" lon="5.96986">
        <ele>612.8</ele>
        <time>2017-03-19T10:35:38Z</time>
      </trkpt>
      <trkpt lat="43.24772" lon="5.96974">
        <ele>611.9</ele>
        <time>2017-03-19T10:35:28Z</time>
      </trkpt>
      <trkpt lat="43.24769" lon="5.96962">
        <ele>611.5</ele>
        <time>2017-03-19T10:35:19Z</time>
      </trkpt>
      <trkpt lat="43.24762" lon="5.96952">
        <ele>610.9</ele>
        <time>2017-03-19T10:35:11Z</time>
      </trkpt>
      <trkpt lat="43.24757" lon="5.96941">
        <ele>610.6</ele>
        <time>2017-03-19T10:35:00Z</time>
      </trkpt>
      <trkpt lat="43.24751" lon="5.96932">
        <ele>610.5</ele>
        <time>2017-03-19T10:34:51Z</time>
      </trkpt>
      <trkpt lat="43.24745" lon="5.96922">
        <ele>610.2</ele>
        <time>2017-03-19T10:34:42Z</time>
      </trkpt>
      <trkpt lat="43.24738" lon="5.96912">
        <ele>610.2</ele>
        <time>2017-03-19T10:34:34Z</time>
      </trkpt>
      <trkpt lat="43.24735" lon="5.969">
        <ele>610</ele>
        <time>2017-03-19T10:34:26Z</time>
      </trkpt>
      <trkpt lat="43.24734" lon="5.96886">
        <ele>609.3</ele>
        <time>2017-03-19T10:34:15Z</time>
      </trkpt>
      <trkpt lat="43.24732" lon="5.96873">
        <ele>608.5</ele>
        <time>2017-03-19T10:34:02Z</time>
      </trkpt>
      <trkpt lat="43.24725" lon="5.96866">
        <ele>608</ele>
        <time>2017-03-19T10:33:19Z</time>
      </trkpt>
      <trkpt lat="43.2473" lon="5.96855">
        <ele>608.1</ele>
        <time>2017-03-19T10:32:59Z</time>
      </trkpt>
      <trkpt lat="43.24734" lon="5.96843">
        <ele>608.1</ele>
        <time>2017-03-19T10:32:15Z</time>
      </trkpt>
      <trkpt lat="43.24741" lon="5.96835">
        <ele>608</ele>
        <time>2017-03-19T10:31:51Z</time>
      </trkpt>
      <trkpt lat="43.24741" lon="5.96822">
        <ele>609.2</ele>
        <time>2017-03-19T10:30:47Z</time>
      </trkpt>
      <trkpt lat="43.24741" lon="5.9681">
        <ele>609.4</ele>
        <time>2017-03-19T10:30:12Z</time>
      </trkpt>
      <trkpt lat="43.24733" lon="5.96812">
        <ele>609.5</ele>
        <time>2017-03-19T10:29:42Z</time>
      </trkpt>
      <trkpt lat="43.24739" lon="5.96822">
        <ele>609.1</ele>
        <time>2017-03-19T10:28:53Z</time>
      </trkpt>
      <trkpt lat="43.24746" lon="5.9683">
        <ele>608.7</ele>
        <time>2017-03-19T10:28:19Z</time>
      </trkpt>
      <trkpt lat="43.24738" lon="5.96823">
        <ele>608.3</ele>
        <time>2017-03-19T10:23:36Z</time>
      </trkpt>
      <trkpt lat="43.24745" lon="5.96831">
        <ele>609.5</ele>
        <time>2017-03-19T10:21:13Z</time>
      </trkpt>
      <trkpt lat="43.24747" lon="5.96819">
        <ele>610.5</ele>
        <time>2017-03-19T10:20:04Z</time>
      </trkpt>
      <trkpt lat="43.24756" lon="5.96823">
        <ele>610.9</ele>
        <time>2017-03-19T10:19:51Z</time>
      </trkpt>
      <trkpt lat="43.24765" lon="5.96819">
        <ele>610.3</ele>
        <time>2017-03-19T10:19:31Z</time>
      </trkpt>
      <trkpt lat="43.24773" lon="5.96811">
        <ele>608.4</ele>
        <time>2017-03-19T10:19:14Z</time>
      </trkpt>
      <trkpt lat="43.24778" lon="5.968">
        <ele>607.4</ele>
        <time>2017-03-19T10:18:59Z</time>
      </trkpt>
      <trkpt lat="43.24783" lon="5.9679">
        <ele>606.3</ele>
        <time>2017-03-19T10:18:47Z</time>
      </trkpt>
      <trkpt lat="43.24787" lon="5.96778">
        <ele>605.2</ele>
        <time>2017-03-19T10:18:34Z</time>
      </trkpt>
      <trkpt lat="43.24789" lon="5.96766">
        <ele>603.8</ele>
        <time>2017-03-19T10:18:21Z</time>
      </trkpt>
      <trkpt lat="43.24792" lon="5.96753">
        <ele>602.2</ele>
        <time>2017-03-19T10:18:05Z</time>
      </trkpt>
      <trkpt lat="43.24794" lon="5.9674">
        <ele>601.2</ele>
        <time>2017-03-19T10:17:54Z</time>
      </trkpt>
      <trkpt lat="43.24796" lon="5.96728">
        <ele>600</ele>
        <time>2017-03-19T10:17:36Z</time>
      </trkpt>
      <trkpt lat="43.24802" lon="5.96719">
        <ele>598.3</ele>
        <time>2017-03-19T10:17:21Z</time>
      </trkpt>
      <trkpt lat="43.2481" lon="5.96713">
        <ele>596.4</ele>
        <time>2017-03-19T10:17:03Z</time>
      </trkpt>
      <trkpt lat="43.24815" lon="5.96723">
        <ele>594.4</ele>
        <time>2017-03-19T10:16:45Z</time>
      </trkpt>
      <trkpt lat="43.2482" lon="5.96734">
        <ele>592.3</ele>
        <time>2017-03-19T10:16:23Z</time>
      </trkpt>
      <trkpt lat="43.24823" lon="5.96746">
        <ele>589.5</ele>
        <time>2017-03-19T10:15:52Z</time>
      </trkpt>
      <trkpt lat="43.2483" lon="5.96754">
        <ele>587.9</ele>
        <time>2017-03-19T10:15:37Z</time>
      </trkpt>
      <trkpt lat="43.24837" lon="5.96762">
        <ele>583.2</ele>
        <time>2017-03-19T10:14:55Z</time>
      </trkpt>
      <trkpt lat="43.24839" lon="5.9675">
        <ele>580.9</ele>
        <time>2017-03-19T10:14:38Z</time>
      </trkpt>
      <trkpt lat="43.24844" lon="5.9674">
        <ele>576.8</ele>
        <time>2017-03-19T10:14:09Z</time>
      </trkpt>
      <trkpt lat="43.24843" lon="5.96727">
        <ele>575.4</ele>
        <time>2017-03-19T10:13:55Z</time>
      </trkpt>
      <trkpt lat="43.24851" lon="5.96721">
        <ele>574.4</ele>
        <time>2017-03-19T10:13:42Z</time>
      </trkpt>
      <trkpt lat="43.24857" lon="5.9673">
        <ele>572.8</ele>
        <time>2017-03-19T10:13:24Z</time>
      </trkpt>
      <trkpt lat="43.24862" lon="5.96741">
        <ele>569.9</ele>
        <time>2017-03-19T10:12:55Z</time>
      </trkpt>
      <trkpt lat="43.24869" lon="5.9675">
        <ele>565.9</ele>
        <time>2017-03-19T10:12:05Z</time>
      </trkpt>
      <trkpt lat="43.24878" lon="5.96749">
        <ele>563.8</ele>
        <time>2017-03-19T10:11:42Z</time>
      </trkpt>
      <trkpt lat="43.24886" lon="5.96756">
        <ele>562.4</ele>
        <time>2017-03-19T10:11:27Z</time>
      </trkpt>
      <trkpt lat="43.24893" lon="5.96765">
        <ele>561.1</ele>
        <time>2017-03-19T10:11:13Z</time>
      </trkpt>
      <trkpt lat="43.24896" lon="5.96777">
        <ele>559.2</ele>
        <time>2017-03-19T10:10:56Z</time>
      </trkpt>
      <trkpt lat="43.24902" lon="5.96787">
        <ele>558.3</ele>
        <time>2017-03-19T10:10:44Z</time>
      </trkpt>
      <trkpt lat="43.24907" lon="5.96798">
        <ele>557.4</ele>
        <time>2017-03-19T10:10:30Z</time>
      </trkpt>
      <trkpt lat="43.24911" lon="5.9681">
        <ele>556.3</ele>
        <time>2017-03-19T10:10:19Z</time>
      </trkpt>
      <trkpt lat="43.24919" lon="5.96818">
        <ele>555.5</ele>
        <time>2017-03-19T10:10:09Z</time>
      </trkpt>
      <trkpt lat="43.24924" lon="5.96829">
        <ele>554.2</ele>
        <time>2017-03-19T10:09:56Z</time>
      </trkpt>
      <trkpt lat="43.24931" lon="5.96836">
        <ele>554</ele>
        <time>2017-03-19T10:09:48Z</time>
      </trkpt>
      <trkpt lat="43.24939" lon="5.96844">
        <ele>553.4</ele>
        <time>2017-03-19T10:09:38Z</time>
      </trkpt>
      <trkpt lat="43.24944" lon="5.96855">
        <ele>552.7</ele>
        <time>2017-03-19T10:09:29Z</time>
      </trkpt>
      <trkpt lat="43.24948" lon="5.96867">
        <ele>551.7</ele>
        <time>2017-03-19T10:09:20Z</time>
      </trkpt>
      <trkpt lat="43.24951" lon="5.96879">
        <ele>550.9</ele>
        <time>2017-03-19T10:09:09Z</time>
      </trkpt>
      <trkpt lat="43.24956" lon="5.9689">
        <ele>550.3</ele>
        <time>2017-03-19T10:09:00Z</time>
      </trkpt>
      <trkpt lat="43.24959" lon="5.96903">
        <ele>549</ele>
        <time>2017-03-19T10:08:23Z</time>
      </trkpt>
      <trkpt lat="43.24967" lon="5.96908">
        <ele>547.8</ele>
        <time>2017-03-19T10:08:03Z</time>
      </trkpt>
      <trkpt lat="43.24972" lon="5.96918">
        <ele>546.1</ele>
        <time>2017-03-19T10:05:54Z</time>
      </trkpt>
      <trkpt lat="43.24979" lon="5.96926">
        <ele>544</ele>
        <time>2017-03-19T10:05:33Z</time>
      </trkpt>
      <trkpt lat="43.24988" lon="5.96931">
        <ele>541.8</ele>
        <time>2017-03-19T10:05:13Z</time>
      </trkpt>
      <trkpt lat="43.24994" lon="5.96941">
        <ele>539</ele>
        <time>2017-03-19T10:04:17Z</time>
      </trkpt>
      <trkpt lat="43.25001" lon="5.96949">
        <ele>536.4</ele>
        <time>2017-03-19T10:03:59Z</time>
      </trkpt>
      <trkpt lat="43.25009" lon="5.96956">
        <ele>532.5</ele>
        <time>2017-03-19T10:03:24Z</time>
      </trkpt>
      <trkpt lat="43.25015" lon="5.96966">
        <ele>530.3</ele>
        <time>2017-03-19T10:03:07Z</time>
      </trkpt>
      <trkpt lat="43.25023" lon="5.96974">
        <ele>528.6</ele>
        <time>2017-03-19T10:02:42Z</time>
      </trkpt>
      <trkpt lat="43.25031" lon="5.96981">
        <ele>526.4</ele>
        <time>2017-03-19T10:02:08Z</time>
      </trkpt>
      <trkpt lat="43.25039" lon="5.96987">
        <ele>524.1</ele>
        <time>2017-03-19T10:01:48Z</time>
      </trkpt>
      <trkpt lat="43.25047" lon="5.96994">
        <ele>522.8</ele>
        <time>2017-03-19T10:01:37Z</time>
      </trkpt>
      <trkpt lat="43.25056" lon="5.96997">
        <ele>521.1</ele>
        <time>2017-03-19T10:01:24Z</time>
      </trkpt>
      <trkpt lat="43.25063" lon="5.97004">
        <ele>519.7</ele>
        <time>2017-03-19T10:01:11Z</time>
      </trkpt>
      <trkpt lat="43.25069" lon="5.97015">
        <ele>518.1</ele>
        <time>2017-03-19T10:00:56Z</time>
      </trkpt>
      <trkpt lat="43.25078" lon="5.97021">
        <ele>516.6</ele>
        <time>2017-03-19T10:00:41Z</time>
      </trkpt>
      <trkpt lat="43.25081" lon="5.97033">
        <ele>513.7</ele>
        <time>2017-03-19T10:00:18Z</time>
      </trkpt>
      <trkpt lat="43.25087" lon="5.97043">
        <ele>512.2</ele>
        <time>2017-03-19T10:00:03Z</time>
      </trkpt>
      <trkpt lat="43.25091" lon="5.97054">
        <ele>511.2</ele>
        <time>2017-03-19T09:59:09Z</time>
      </trkpt>
      <trkpt lat="43.251" lon="5.97058">
        <ele>509.7</ele>
        <time>2017-03-19T09:58:40Z</time>
      </trkpt>
      <trkpt lat="43.25106" lon="5.97068">
        <ele>509</ele>
        <time>2017-03-19T09:58:25Z</time>
      </trkpt>
      <trkpt lat="43.25111" lon="5.97077">
        <ele>506</ele>
        <time>2017-03-19T09:56:50Z</time>
      </trkpt>
      <trkpt lat="43.25119" lon="5.97085">
        <ele>503.4</ele>
        <time>2017-03-19T09:56:27Z</time>
      </trkpt>
      <trkpt lat="43.25123" lon="5.97096">
        <ele>498.7</ele>
        <time>2017-03-19T09:55:46Z</time>
      </trkpt>
      <trkpt lat="43.25131" lon="5.97091">
        <ele>493.8</ele>
        <time>2017-03-19T09:55:01Z</time>
      </trkpt>
      <trkpt lat="43.25134" lon="5.97079">
        <ele>491.6</ele>
        <time>2017-03-19T09:54:42Z</time>
      </trkpt>
      <trkpt lat="43.25138" lon="5.97068">
        <ele>488.5</ele>
        <time>2017-03-19T09:54:12Z</time>
      </trkpt>
      <trkpt lat="43.25145" lon="5.97059">
        <ele>485.2</ele>
        <time>2017-03-19T09:53:47Z</time>
      </trkpt>
      <trkpt lat="43.25153" lon="5.97052">
        <ele>481.6</ele>
        <time>2017-03-19T09:53:14Z</time>
      </trkpt>
      <trkpt lat="43.25161" lon="5.97046">
        <ele>479</ele>
        <time>2017-03-19T09:52:52Z</time>
      </trkpt>
      <trkpt lat="43.25165" lon="5.97034">
        <ele>477.3</ele>
        <time>2017-03-19T09:52:31Z</time>
      </trkpt>
      <trkpt lat="43.2517" lon="5.97025">
        <ele>474.4</ele>
        <time>2017-03-19T09:52:09Z</time>
      </trkpt>
      <trkpt lat="43.25175" lon="5.97014">
        <ele>471.7</ele>
        <time>2017-03-19T09:51:42Z</time>
      </trkpt>
      <trkpt lat="43.25173" lon="5.97002">
        <ele>469.1</ele>
        <time>2017-03-19T09:51:21Z</time>
      </trkpt>
      <trkpt lat="43.25181" lon="5.96993">
        <ele>466.4</ele>
        <time>2017-03-19T09:51:00Z</time>
      </trkpt>
      <trkpt lat="43.25188" lon="5.96986">
        <ele>464.4</ele>
        <time>2017-03-19T09:50:41Z</time>
      </trkpt>
      <trkpt lat="43.25194" lon="5.96977">
        <ele>461.7</ele>
        <time>2017-03-19T09:50:00Z</time>
      </trkpt>
      <trkpt lat="43.25203" lon="5.96975">
        <ele>459.7</ele>
        <time>2017-03-19T09:49:43Z</time>
      </trkpt>
      <trkpt lat="43.25212" lon="5.96978">
        <ele>459</ele>
        <time>2017-03-19T09:49:35Z</time>
      </trkpt>
      <trkpt lat="43.25222" lon="5.96978">
        <ele>454.6</ele>
        <time>2017-03-19T09:48:31Z</time>
      </trkpt>
      <trkpt lat="43.25219" lon="5.96966">
        <ele>453.7</ele>
        <time>2017-03-19T09:48:14Z</time>
      </trkpt>
      <trkpt lat="43.25222" lon="5.96954">
        <ele>453.9</ele>
        <time>2017-03-19T09:47:41Z</time>
      </trkpt>
      <trkpt lat="43.25229" lon="5.96947">
        <ele>451.7</ele>
        <time>2017-03-19T09:46:37Z</time>
      </trkpt>
      <trkpt lat="43.25236" lon="5.96937">
        <ele>450.3</ele>
        <time>2017-03-19T09:46:25Z</time>
      </trkpt>
      <trkpt lat="43.25245" lon="5.96933">
        <ele>448.9</ele>
        <time>2017-03-19T09:46:11Z</time>
      </trkpt>
      <trkpt lat="43.25252" lon="5.96924">
        <ele>445.6</ele>
        <time>2017-03-19T09:45:45Z</time>
      </trkpt>
      <trkpt lat="43.2526" lon="5.96919">
        <ele>444.4</ele>
        <time>2017-03-19T09:45:36Z</time>
      </trkpt>
      <trkpt lat="43.25268" lon="5.9691">
        <ele>443.1</ele>
        <time>2017-03-19T09:45:19Z</time>
      </trkpt>
      <trkpt lat="43.25277" lon="5.96907">
        <ele>441.6</ele>
        <time>2017-03-19T09:44:44Z</time>
      </trkpt>
      <trkpt lat="43.25275" lon="5.96895">
        <ele>440.8</ele>
        <time>2017-03-19T09:42:16Z</time>
      </trkpt>
      <trkpt lat="43.25282" lon="5.96887">
        <ele>437.6</ele>
        <time>2017-03-19T09:40:33Z</time>
      </trkpt>
      <trkpt lat="43.25291" lon="5.96883">
        <ele>436.7</ele>
        <time>2017-03-19T09:40:21Z</time>
      </trkpt>
      <trkpt lat="43.25301" lon="5.9688">
        <ele>435.6</ele>
        <time>2017-03-19T09:40:06Z</time>
      </trkpt>
      <trkpt lat="43.25311" lon="5.96882">
        <ele>433.6</ele>
        <time>2017-03-19T09:39:49Z</time>
      </trkpt>
      <trkpt lat="43.25319" lon="5.96888">
        <ele>431.9</ele>
        <time>2017-03-19T09:39:37Z</time>
      </trkpt>
      <trkpt lat="43.25327" lon="5.96894">
        <ele>430.7</ele>
        <time>2017-03-19T09:39:26Z</time>
      </trkpt>
      <trkpt lat="43.25336" lon="5.96898">
        <ele>428.6</ele>
        <time>2017-03-19T09:39:08Z</time>
      </trkpt>
      <trkpt lat="43.25345" lon="5.96897">
        <ele>427.1</ele>
        <time>2017-03-19T09:38:56Z</time>
      </trkpt>
      <trkpt lat="43.25354" lon="5.96891">
        <ele>425.8</ele>
        <time>2017-03-19T09:38:44Z</time>
      </trkpt>
      <trkpt lat="43.2536" lon="5.96882">
        <ele>423.6</ele>
        <time>2017-03-19T09:38:29Z</time>
      </trkpt>
      <trkpt lat="43.25367" lon="5.96873">
        <ele>421.7</ele>
        <time>2017-03-19T09:38:15Z</time>
      </trkpt>
      <trkpt lat="43.25373" lon="5.96864">
        <ele>420.2</ele>
        <time>2017-03-19T09:38:03Z</time>
      </trkpt>
      <trkpt lat="43.25382" lon="5.96859">
        <ele>419</ele>
        <time>2017-03-19T09:37:55Z</time>
      </trkpt>
      <trkpt lat="43.25391" lon="5.96859">
        <ele>418.2</ele>
        <time>2017-03-19T09:37:49Z</time>
      </trkpt>
      <trkpt lat="43.254" lon="5.96865">
        <ele>417.2</ele>
        <time>2017-03-19T09:37:35Z</time>
      </trkpt>
      <trkpt lat="43.25409" lon="5.96863">
        <ele>416.7</ele>
        <time>2017-03-19T09:37:23Z</time>
      </trkpt>
      <trkpt lat="43.25418" lon="5.9686">
        <ele>416.1</ele>
        <time>2017-03-19T09:37:11Z</time>
      </trkpt>
      <trkpt lat="43.25428" lon="5.9686">
        <ele>415.3</ele>
        <time>2017-03-19T09:37:00Z</time>
      </trkpt>
      <trkpt lat="43.25437" lon="5.96857">
        <ele>414.7</ele>
        <time>2017-03-19T09:36:51Z</time>
      </trkpt>
      <trkpt lat="43.25446" lon="5.96854">
        <ele>413.8</ele>
        <time>2017-03-19T09:36:38Z</time>
      </trkpt>
      <trkpt lat="43.25453" lon="5.96847">
        <ele>412.1</ele>
        <time>2017-03-19T09:36:25Z</time>
      </trkpt>
      <trkpt lat="43.25462" lon="5.9684">
        <ele>410.8</ele>
        <time>2017-03-19T09:36:14Z</time>
      </trkpt>
      <trkpt lat="43.25471" lon="5.96837">
        <ele>409.2</ele>
        <time>2017-03-19T09:36:04Z</time>
      </trkpt>
      <trkpt lat="43.2548" lon="5.96834">
        <ele>407.9</ele>
        <time>2017-03-19T09:35:53Z</time>
      </trkpt>
      <trkpt lat="43.2549" lon="5.96833">
        <ele>407.1</ele>
        <time>2017-03-19T09:35:42Z</time>
      </trkpt>
      <trkpt lat="43.25499" lon="5.96834">
        <ele>406.4</ele>
        <time>2017-03-19T09:35:32Z</time>
      </trkpt>
      <trkpt lat="43.25508" lon="5.96833">
        <ele>405.7</ele>
        <time>2017-03-19T09:35:17Z</time>
      </trkpt>
      <trkpt lat="43.25502" lon="5.96824">
        <ele>404.3</ele>
        <time>2017-03-19T09:34:36Z</time>
      </trkpt>
      <trkpt lat="43.25511" lon="5.96823">
        <ele>402.6</ele>
        <time>2017-03-19T09:34:22Z</time>
      </trkpt>
      <trkpt lat="43.2552" lon="5.96819">
        <ele>400.6</ele>
        <time>2017-03-19T09:34:03Z</time>
      </trkpt>
      <trkpt lat="43.25526" lon="5.9681">
        <ele>398</ele>
        <time>2017-03-19T09:33:43Z</time>
      </trkpt>
      <trkpt lat="43.25536" lon="5.96807">
        <ele>395.9</ele>
        <time>2017-03-19T09:33:28Z</time>
      </trkpt>
      <trkpt lat="43.25543" lon="5.968">
        <ele>393.3</ele>
        <time>2017-03-19T09:33:01Z</time>
      </trkpt>
      <trkpt lat="43.25553" lon="5.96799">
        <ele>392.3</ele>
        <time>2017-03-19T09:32:50Z</time>
      </trkpt>
      <trkpt lat="43.2556" lon="5.96791">
        <ele>389.7</ele>
        <time>2017-03-19T09:32:30Z</time>
      </trkpt>
      <trkpt lat="43.25569" lon="5.96787">
        <ele>388.6</ele>
        <time>2017-03-19T09:32:17Z</time>
      </trkpt>
      <trkpt lat="43.25579" lon="5.96784">
        <ele>386.9</ele>
        <time>2017-03-19T09:32:04Z</time>
      </trkpt>
      <trkpt lat="43.25589" lon="5.96783">
        <ele>383.9</ele>
        <time>2017-03-19T09:31:33Z</time>
      </trkpt>
      <trkpt lat="43.2558" lon="5.9678">
        <ele>382.4</ele>
        <time>2017-03-19T09:31:21Z</time>
      </trkpt>
      <trkpt lat="43.2557" lon="5.96775">
        <ele>380.1</ele>
        <time>2017-03-19T09:31:01Z</time>
      </trkpt>
      <trkpt lat="43.25563" lon="5.96767">
        <ele>379.3</ele>
        <time>2017-03-19T09:30:53Z</time>
      </trkpt>
      <trkpt lat="43.25555" lon="5.9676">
        <ele>377.1</ele>
        <time>2017-03-19T09:30:38Z</time>
      </trkpt>
      <trkpt lat="43.25551" lon="5.96748">
        <ele>375.8</ele>
        <time>2017-03-19T09:30:21Z</time>
      </trkpt>
      <trkpt lat="43.25561" lon="5.96748">
        <ele>373.5</ele>
        <time>2017-03-19T09:29:52Z</time>
      </trkpt>
      <trkpt lat="43.25553" lon="5.9674">
        <ele>369.4</ele>
        <time>2017-03-19T09:29:20Z</time>
      </trkpt>
      <trkpt lat="43.25545" lon="5.96735">
        <ele>368</ele>
        <time>2017-03-19T09:29:07Z</time>
      </trkpt>
      <trkpt lat="43.25538" lon="5.96726">
        <ele>366.6</ele>
        <time>2017-03-19T09:28:54Z</time>
      </trkpt>
      <trkpt lat="43.25531" lon="5.96718">
        <ele>364.6</ele>
        <time>2017-03-19T09:28:38Z</time>
      </trkpt>
      <trkpt lat="43.25522" lon="5.96715">
        <ele>361.3</ele>
        <time>2017-03-19T09:28:11Z</time>
      </trkpt>
      <trkpt lat="43.25513" lon="5.96709">
        <ele>360.2</ele>
        <time>2017-03-19T09:28:00Z</time>
      </trkpt>
      <trkpt lat="43.25504" lon="5.96706">
        <ele>357.3</ele>
        <time>2017-03-19T09:27:28Z</time>
      </trkpt>
      <trkpt lat="43.25496" lon="5.967">
        <ele>355.6</ele>
        <time>2017-03-19T09:27:05Z</time>
      </trkpt>
      <trkpt lat="43.25494" lon="5.96687">
        <ele>353.4</ele>
        <time>2017-03-19T09:26:37Z</time>
      </trkpt>
      <trkpt lat="43.25484" lon="5.96688">
        <ele>351.4</ele>
        <time>2017-03-19T09:26:07Z</time>
      </trkpt>
      <trkpt lat="43.25477" lon="5.9668">
        <ele>349.6</ele>
        <time>2017-03-19T09:25:50Z</time>
      </trkpt>
      <trkpt lat="43.25468" lon="5.96676">
        <ele>349.9</ele>
        <time>2017-03-19T09:25:27Z</time>
      </trkpt>
      <trkpt lat="43.25459" lon="5.96673">
        <ele>350.7</ele>
        <time>2017-03-19T09:25:16Z</time>
      </trkpt>
      <trkpt lat="43.25451" lon="5.96678">
        <ele>351.8</ele>
        <time>2017-03-19T09:25:01Z</time>
      </trkpt>
      <trkpt lat="43.25442" lon="5.96682">
        <ele>352.8</ele>
        <time>2017-03-19T09:24:50Z</time>
      </trkpt>
      <trkpt lat="43.25433" lon="5.96686">
        <ele>353.4</ele>
        <time>2017-03-19T09:24:42Z</time>
      </trkpt>
      <trkpt lat="43.25424" lon="5.96691">
        <ele>353.8</ele>
        <time>2017-03-19T09:24:35Z</time>
      </trkpt>
      <trkpt lat="43.25418" lon="5.967">
        <ele>354.6</ele>
        <time>2017-03-19T09:24:17Z</time>
      </trkpt>
      <trkpt lat="43.25411" lon="5.96709">
        <ele>355.7</ele>
        <time>2017-03-19T09:24:01Z</time>
      </trkpt>
      <trkpt lat="43.25403" lon="5.96716">
        <ele>356.5</ele>
        <time>2017-03-19T09:23:48Z</time>
      </trkpt>
      <trkpt lat="43.25393" lon="5.96715">
        <ele>356.9</ele>
        <time>2017-03-19T09:23:40Z</time>
      </trkpt>
      <trkpt lat="43.25384" lon="5.96719">
        <ele>357.2</ele>
        <time>2017-03-19T09:23:29Z</time>
      </trkpt>
      <trkpt lat="43.25378" lon="5.96729">
        <ele>356.7</ele>
        <time>2017-03-19T09:23:02Z</time>
      </trkpt>
      <trkpt lat="43.25387" lon="5.96726">
        <ele>355.7</ele>
        <time>2017-03-19T09:22:31Z</time>
      </trkpt>
      <trkpt lat="43.25379" lon="5.96721">
        <ele>355.7</ele>
        <time>2017-03-19T09:22:22Z</time>
      </trkpt>
      <trkpt lat="43.25376" lon="5.96709">
        <ele>355.7</ele>
        <time>2017-03-19T09:21:54Z</time>
      </trkpt>
      <trkpt lat="43.25366" lon="5.96711">
        <ele>354.7</ele>
        <time>2017-03-19T09:21:27Z</time>
      </trkpt>
      <trkpt lat="43.2536" lon="5.96702">
        <ele>353.4</ele>
        <time>2017-03-19T09:21:00Z</time>
      </trkpt>
      <trkpt lat="43.2537" lon="5.96703">
        <ele>352.4</ele>
        <time>2017-03-19T09:20:38Z</time>
      </trkpt>
      <trkpt lat="43.25377" lon="5.96695">
        <ele>351.5</ele>
        <time>2017-03-19T09:20:28Z</time>
      </trkpt>
      <trkpt lat="43.25383" lon="5.96686">
        <ele>350.1</ele>
        <time>2017-03-19T09:20:15Z</time>
      </trkpt>
      <trkpt lat="43.2538" lon="5.96675">
        <ele>349</ele>
        <time>2017-03-19T09:20:02Z</time>
      </trkpt>
      <trkpt lat="43.25378" lon="5.96662">
        <ele>347.8</ele>
        <time>2017-03-19T09:19:42Z</time>
      </trkpt>
      <trkpt lat="43.25385" lon="5.96654">
        <ele>346.6</ele>
        <time>2017-03-19T09:19:27Z</time>
      </trkpt>
      <trkpt lat="43.25393" lon="5.96648">
        <ele>345.2</ele>
        <time>2017-03-19T09:19:18Z</time>
      </trkpt>
      <trkpt lat="43.25404" lon="5.96645">
        <ele>344.7</ele>
        <time>2017-03-19T09:19:12Z</time>
      </trkpt>
      <trkpt lat="43.25412" lon="5.96637">
        <ele>343.4</ele>
        <time>2017-03-19T09:19:00Z</time>
      </trkpt>
      <trkpt lat="43.25421" lon="5.96633">
        <ele>343</ele>
        <time>2017-03-19T09:18:51Z</time>
      </trkpt>
      <trkpt lat="43.25429" lon="5.96625">
        <ele>343</ele>
        <time>2017-03-19T09:18:43Z</time>
      </trkpt>
      <trkpt lat="43.25435" lon="5.96616">
        <ele>342.8</ele>
        <time>2017-03-19T09:18:32Z</time>
      </trkpt>
      <trkpt lat="43.25442" lon="5.96606">
        <ele>342.5</ele>
        <time>2017-03-19T09:18:23Z</time>
      </trkpt>
      <trkpt lat="43.25445" lon="5.96593">
        <ele>342</ele>
        <time>2017-03-19T09:18:08Z</time>
      </trkpt>
      <trkpt lat="43.25452" lon="5.96585">
        <ele>341.3</ele>
        <time>2017-03-19T09:17:57Z</time>
      </trkpt>
      <trkpt lat="43.25459" lon="5.96576">
        <ele>340.4</ele>
        <time>2017-03-19T09:17:44Z</time>
      </trkpt>
      <trkpt lat="43.25467" lon="5.96569">
        <ele>339.5</ele>
        <time>2017-03-19T09:17:35Z</time>
      </trkpt>
      <trkpt lat="43.25474" lon="5.96561">
        <ele>338.5</ele>
        <time>2017-03-19T09:17:25Z</time>
      </trkpt>
      <trkpt lat="43.25482" lon="5.96552">
        <ele>337.5</ele>
        <time>2017-03-19T09:17:15Z</time>
      </trkpt>
      <trkpt lat="43.2549" lon="5.96546">
        <ele>336.9</ele>
        <time>2017-03-19T09:17:08Z</time>
      </trkpt>
      <trkpt lat="43.25497" lon="5.96539">
        <ele>336.1</ele>
        <time>2017-03-19T09:16:59Z</time>
      </trkpt>
      <trkpt lat="43.25505" lon="5.96532">
        <ele>335.4</ele>
        <time>2017-03-19T09:16:49Z</time>
      </trkpt>
      <trkpt lat="43.25511" lon="5.96522">
        <ele>334.1</ele>
        <time>2017-03-19T09:16:36Z</time>
      </trkpt>
      <trkpt lat="43.2552" lon="5.9652">
        <ele>331.4</ele>
        <time>2017-03-19T09:13:54Z</time>
      </trkpt>
      <trkpt lat="43.25529" lon="5.9652">
        <ele>329.3</ele>
        <time>2017-03-19T09:13:35Z</time>
      </trkpt>
      <trkpt lat="43.25539" lon="5.96517">
        <ele>328.8</ele>
        <time>2017-03-19T09:13:27Z</time>
      </trkpt>
      <trkpt lat="43.25548" lon="5.96515">
        <ele>328.1</ele>
        <time>2017-03-19T09:13:18Z</time>
      </trkpt>
      <trkpt lat="43.25558" lon="5.96513">
        <ele>327.1</ele>
        <time>2017-03-19T09:13:11Z</time>
      </trkpt>
      <trkpt lat="43.25567" lon="5.96508">
        <ele>326.1</ele>
        <time>2017-03-19T09:13:01Z</time>
      </trkpt>
      <trkpt lat="43.25576" lon="5.96504">
        <ele>325.4</ele>
        <time>2017-03-19T09:12:52Z</time>
      </trkpt>
      <trkpt lat="43.25583" lon="5.96495">
        <ele>324.1</ele>
        <time>2017-03-19T09:12:42Z</time>
      </trkpt>
      <trkpt lat="43.2559" lon="5.96485">
        <ele>322.7</ele>
        <time>2017-03-19T09:12:29Z</time>
      </trkpt>
      <trkpt lat="43.25597" lon="5.96477">
        <ele>321.8</ele>
        <time>2017-03-19T09:12:19Z</time>
      </trkpt>
      <trkpt lat="43.25604" lon="5.96468">
        <ele>320.6</ele>
        <time>2017-03-19T09:12:09Z</time>
      </trkpt>
      <trkpt lat="43.25613" lon="5.96462">
        <ele>319.3</ele>
        <time>2017-03-19T09:12:00Z</time>
      </trkpt>
      <trkpt lat="43.25621" lon="5.96453">
        <ele>318.5</ele>
        <time>2017-03-19T09:11:51Z</time>
      </trkpt>
      <trkpt lat="43.25629" lon="5.96446">
        <ele>317.9</ele>
        <time>2017-03-19T09:11:42Z</time>
      </trkpt>
      <trkpt lat="43.25638" lon="5.96439">
        <ele>317.3</ele>
        <time>2017-03-19T09:11:33Z</time>
      </trkpt>
      <trkpt lat="43.25647" lon="5.96435">
        <ele>316.8</ele>
        <time>2017-03-19T09:11:26Z</time>
      </trkpt>
      <trkpt lat="43.25656" lon="5.9643">
        <ele>316.4</ele>
        <time>2017-03-19T09:11:20Z</time>
      </trkpt>
      <trkpt lat="43.25665" lon="5.96429">
        <ele>315.1</ele>
        <time>2017-03-19T09:11:08Z</time>
      </trkpt>
      <trkpt lat="43.25674" lon="5.96435">
        <ele>314</ele>
        <time>2017-03-19T09:11:00Z</time>
      </trkpt>
      <trkpt lat="43.25683" lon="5.96441">
        <ele>313.5</ele>
        <time>2017-03-19T09:10:51Z</time>
      </trkpt>
      <trkpt lat="43.2569" lon="5.9645">
        <ele>312.8</ele>
        <time>2017-03-19T09:10:41Z</time>
      </trkpt>
      <trkpt lat="43.25696" lon="5.96461">
        <ele>312.3</ele>
        <time>2017-03-19T09:10:33Z</time>
      </trkpt>
      <trkpt lat="43.25703" lon="5.9647">
        <ele>311.8</ele>
        <time>2017-03-19T09:10:22Z</time>
      </trkpt>
      <trkpt lat="43.25711" lon="5.96477">
        <ele>311.6</ele>
        <time>2017-03-19T09:10:15Z</time>
      </trkpt>
      <trkpt lat="43.25721" lon="5.96481">
        <ele>310.8</ele>
        <time>2017-03-19T09:10:05Z</time>
      </trkpt>
      <trkpt lat="43.2573" lon="5.96482">
        <ele>308.9</ele>
        <time>2017-03-19T09:09:35Z</time>
      </trkpt>
      <trkpt lat="43.25739" lon="5.96487">
        <ele>308.2</ele>
        <time>2017-03-19T09:09:26Z</time>
      </trkpt>
      <trkpt lat="43.25748" lon="5.96492">
        <ele>307.1</ele>
        <time>2017-03-19T09:09:13Z</time>
      </trkpt>
      <trkpt lat="43.25756" lon="5.96498">
        <ele>306.3</ele>
        <time>2017-03-19T09:09:04Z</time>
      </trkpt>
      <trkpt lat="43.25761" lon="5.96509">
        <ele>305.2</ele>
        <time>2017-03-19T09:08:55Z</time>
      </trkpt>
      <trkpt lat="43.25762" lon="5.96522">
        <ele>304.4</ele>
        <time>2017-03-19T09:08:44Z</time>
      </trkpt>
      <trkpt lat="43.25766" lon="5.96533">
        <ele>303.6</ele>
        <time>2017-03-19T09:08:35Z</time>
      </trkpt>
      <trkpt lat="43.2577" lon="5.96545">
        <ele>303.1</ele>
        <time>2017-03-19T09:08:26Z</time>
      </trkpt>
      <trkpt lat="43.25772" lon="5.96557">
        <ele>302.7</ele>
        <time>2017-03-19T09:08:18Z</time>
      </trkpt>
      <trkpt lat="43.25769" lon="5.96571">
        <ele>302</ele>
        <time>2017-03-19T09:07:46Z</time>
      </trkpt>
      <trkpt lat="43.25778" lon="5.96573">
        <ele>301.6</ele>
        <time>2017-03-19T09:07:07Z</time>
      </trkpt>
      <trkpt lat="43.25772" lon="5.96583">
        <ele>301.4</ele>
        <time>2017-03-19T09:06:28Z</time>
      </trkpt>
      <trkpt lat="43.2578" lon="5.96577">
        <ele>301.5</ele>
        <time>2017-03-19T09:05:31Z</time>
      </trkpt>
      <trkpt lat="43.25772" lon="5.96583">
        <ele>301.3</ele>
        <time>2017-03-19T09:03:38Z</time>
      </trkpt>
      <trkpt lat="43.25782" lon="5.96583">
        <ele>301.3</ele>
        <time>2017-03-19T09:03:26Z</time>
      </trkpt>
      <trkpt lat="43.2579" lon="5.96588">
        <ele>300.7</ele>
        <time>2017-03-19T09:02:46Z</time>
      </trkpt>
      <trkpt lat="43.25796" lon="5.96597">
        <ele>300.3</ele>
        <time>2017-03-19T09:02:36Z</time>
      </trkpt>
      <trkpt lat="43.258" lon="5.96609">
        <ele>300</ele>
        <time>2017-03-19T09:02:15Z</time>
      </trkpt>
      <trkpt lat="43.25809" lon="5.96613">
        <ele>299.7</ele>
        <time>2017-03-19T09:02:03Z</time>
      </trkpt>
      <trkpt lat="43.25819" lon="5.96617">
        <ele>299.3</ele>
        <time>2017-03-19T09:01:51Z</time>
      </trkpt>
      <trkpt lat="43.25826" lon="5.96626">
        <ele>298.7</ele>
        <time>2017-03-19T09:01:42Z</time>
      </trkpt>
      <trkpt lat="43.25831" lon="5.96638">
        <ele>298.6</ele>
        <time>2017-03-19T09:01:36Z</time>
      </trkpt>
      <trkpt lat="43.2584" lon="5.96644">
        <ele>298.1</ele>
        <time>2017-03-19T09:01:27Z</time>
      </trkpt>
      <trkpt lat="43.25847" lon="5.96654">
        <ele>297.8</ele>
        <time>2017-03-19T09:01:17Z</time>
      </trkpt>
      <trkpt lat="43.25852" lon="5.96665">
        <ele>297.6</ele>
        <time>2017-03-19T09:01:08Z</time>
      </trkpt>
      <trkpt lat="43.25858" lon="5.96675">
        <ele>297.5</ele>
        <time>2017-03-19T09:01:01Z</time>
      </trkpt>
      <trkpt lat="43.25865" lon="5.96685">
        <ele>296.8</ele>
        <time>2017-03-19T09:00:55Z</time>
      </trkpt>
      <trkpt lat="43.25872" lon="5.96694">
        <ele>296.3</ele>
        <time>2017-03-19T09:00:50Z</time>
      </trkpt>
      <trkpt lat="43.25879" lon="5.96705">
        <ele>296.5</ele>
        <time>2017-03-19T09:00:42Z</time>
      </trkpt>
      <trkpt lat="43.25887" lon="5.96712">
        <ele>296.6</ele>
        <time>2017-03-19T09:00:29Z</time>
      </trkpt>
      <trkpt lat="43.25892" lon="5.96724">
        <ele>296.5</ele>
        <time>2017-03-19T09:00:21Z</time>
      </trkpt>
      <trkpt lat="43.25896" lon="5.96737">
        <ele>296.1</ele>
        <time>2017-03-19T09:00:12Z</time>
      </trkpt>
      <trkpt lat="43.25903" lon="5.96747">
        <ele>295.9</ele>
        <time>2017-03-19T09:00:05Z</time>
      </trkpt>
      <trkpt lat="43.2591" lon="5.96757">
        <ele>296.2</ele>
        <time>2017-03-19T08:59:58Z</time>
      </trkpt>
      <trkpt lat="43.25919" lon="5.96764">
        <ele>296.2</ele>
        <time>2017-03-19T08:59:49Z</time>
      </trkpt>
      <trkpt lat="43.25922" lon="5.96777">
        <ele>296.1</ele>
        <time>2017-03-19T08:59:37Z</time>
      </trkpt>
      <trkpt lat="43.25925" lon="5.96791">
        <ele>295.9</ele>
        <time>2017-03-19T08:59:29Z</time>
      </trkpt>
      <trkpt lat="43.25934" lon="5.96795">
        <ele>295.5</ele>
        <time>2017-03-19T08:59:09Z</time>
      </trkpt>
      <trkpt lat="43.25941" lon="5.96802">
        <ele>295.5</ele>
        <time>2017-03-19T08:59:04Z</time>
      </trkpt>
      <trkpt lat="43.25951" lon="5.96808">
        <ele>295.4</ele>
        <time>2017-03-19T08:58:58Z</time>
      </trkpt>
      <trkpt lat="43.25957" lon="5.96818">
        <ele>295.3</ele>
        <time>2017-03-19T08:58:48Z</time>
      </trkpt>
      <trkpt lat="43.25964" lon="5.96828">
        <ele>295.5</ele>
        <time>2017-03-19T08:58:39Z</time>
      </trkpt>
      <trkpt lat="43.2597" lon="5.96838">
        <ele>294.8</ele>
        <time>2017-03-19T08:58:29Z</time>
      </trkpt>
      <trkpt lat="43.25973" lon="5.9685">
        <ele>294.3</ele>
        <time>2017-03-19T08:58:20Z</time>
      </trkpt>
      <trkpt lat="43.25979" lon="5.96861">
        <ele>293.5</ele>
        <time>2017-03-19T08:58:10Z</time>
      </trkpt>
      <trkpt lat="43.25987" lon="5.96869">
        <ele>293.2</ele>
        <time>2017-03-19T08:58:02Z</time>
      </trkpt>
      <trkpt lat="43.25996" lon="5.9687">
        <ele>292.3</ele>
        <time>2017-03-19T08:57:54Z</time>
      </trkpt>
      <trkpt lat="43.26004" lon="5.96878">
        <ele>291.9</ele>
        <time>2017-03-19T08:57:47Z</time>
      </trkpt>
      <trkpt lat="43.2601" lon="5.96889">
        <ele>291.3</ele>
        <time>2017-03-19T08:57:37Z</time>
      </trkpt>
      <trkpt lat="43.26018" lon="5.96895">
        <ele>290.6</ele>
        <time>2017-03-19T08:57:30Z</time>
      </trkpt>
      <trkpt lat="43.26026" lon="5.96902">
        <ele>289.6</ele>
        <time>2017-03-19T08:57:19Z</time>
      </trkpt>
      <trkpt lat="43.26034" lon="5.9691">
        <ele>288.5</ele>
        <time>2017-03-19T08:57:09Z</time>
      </trkpt>
      <trkpt lat="43.26041" lon="5.96917">
        <ele>288.1</ele>
        <time>2017-03-19T08:57:00Z</time>
      </trkpt>
      <trkpt lat="43.26041" lon="5.9693">
        <ele>286.5</ele>
        <time>2017-03-19T08:56:46Z</time>
      </trkpt>
      <trkpt lat="43.2605" lon="5.96936">
        <ele>285.9</ele>
        <time>2017-03-19T08:56:29Z</time>
      </trkpt>
      <trkpt lat="43.2606" lon="5.96937">
        <ele>285.1</ele>
        <time>2017-03-19T08:56:18Z</time>
      </trkpt>
      <trkpt lat="43.26068" lon="5.96933">
        <ele>284.7</ele>
        <time>2017-03-19T08:56:05Z</time>
      </trkpt>
      <trkpt lat="43.26073" lon="5.96923">
        <ele>283.6</ele>
        <time>2017-03-19T08:55:24Z</time>
      </trkpt>
      <trkpt lat="43.26064" lon="5.96919">
        <ele>282.8</ele>
        <time>2017-03-19T08:55:16Z</time>
      </trkpt>
      <trkpt lat="43.26065" lon="5.96907">
        <ele>281.8</ele>
        <time>2017-03-19T08:55:07Z</time>
      </trkpt>
      <trkpt lat="43.26065" lon="5.96894">
        <ele>280.4</ele>
        <time>2017-03-19T08:54:57Z</time>
      </trkpt>
      <trkpt lat="43.26068" lon="5.96881">
        <ele>279</ele>
        <time>2017-03-19T08:54:47Z</time>
      </trkpt>
      <trkpt lat="43.26071" lon="5.96868">
        <ele>277.8</ele>
        <time>2017-03-19T08:54:36Z</time>
      </trkpt>
      <trkpt lat="43.26072" lon="5.96855">
        <ele>276.4</ele>
        <time>2017-03-19T08:54:25Z</time>
      </trkpt>
      <trkpt lat="43.26066" lon="5.96845">
        <ele>275.1</ele>
        <time>2017-03-19T08:54:16Z</time>
      </trkpt>
      <trkpt lat="43.26068" lon="5.96832">
        <ele>274.2</ele>
        <time>2017-03-19T08:54:08Z</time>
      </trkpt>
      <trkpt lat="43.26065" lon="5.96819">
        <ele>272.8</ele>
        <time>2017-03-19T08:53:59Z</time>
      </trkpt>
      <trkpt lat="43.26067" lon="5.96805">
        <ele>272</ele>
        <time>2017-03-19T08:53:51Z</time>
      </trkpt>
      <trkpt lat="43.2607" lon="5.96794">
        <ele>271.6</ele>
        <time>2017-03-19T08:53:46Z</time>
      </trkpt>
      <trkpt lat="43.2607" lon="5.9678">
        <ele>270.9</ele>
        <time>2017-03-19T08:53:37Z</time>
      </trkpt>
      <trkpt lat="43.26069" lon="5.96766">
        <ele>270.4</ele>
        <time>2017-03-19T08:53:28Z</time>
      </trkpt>
      <trkpt lat="43.26073" lon="5.96755">
        <ele>269.9</ele>
        <time>2017-03-19T08:53:20Z</time>
      </trkpt>
      <trkpt lat="43.26076" lon="5.96743">
        <ele>269.7</ele>
        <time>2017-03-19T08:53:16Z</time>
      </trkpt>
      <trkpt lat="43.26082" lon="5.96733">
        <ele>269.4</ele>
        <time>2017-03-19T08:53:11Z</time>
      </trkpt>
      <trkpt lat="43.26081" lon="5.9672">
        <ele>268.7</ele>
        <time>2017-03-19T08:53:00Z</time>
      </trkpt>
      <trkpt lat="43.26083" lon="5.96706">
        <ele>268.2</ele>
        <time>2017-03-19T08:52:52Z</time>
      </trkpt>
      <trkpt lat="43.26089" lon="5.96696">
        <ele>267.6</ele>
        <time>2017-03-19T08:52:45Z</time>
      </trkpt>
      <trkpt lat="43.26098" lon="5.96687">
        <ele>266.9</ele>
        <time>2017-03-19T08:52:37Z</time>
      </trkpt>
      <trkpt lat="43.26098" lon="5.96673">
        <ele>265.6</ele>
        <time>2017-03-19T08:52:28Z</time>
      </trkpt>
      <trkpt lat="43.26105" lon="5.96664">
        <ele>265.1</ele>
        <time>2017-03-19T08:52:22Z</time>
      </trkpt>
      <trkpt lat="43.26105" lon="5.96651">
        <ele>263.9</ele>
        <time>2017-03-19T08:52:08Z</time>
      </trkpt>
      <trkpt lat="43.26114" lon="5.96643">
        <ele>263.6</ele>
        <time>2017-03-19T08:52:03Z</time>
      </trkpt>
      <trkpt lat="43.2612" lon="5.96632">
        <ele>262.9</ele>
        <time>2017-03-19T08:51:55Z</time>
      </trkpt>
      <trkpt lat="43.26124" lon="5.96621">
        <ele>262.8</ele>
        <time>2017-03-19T08:51:42Z</time>
      </trkpt>
      <trkpt lat="43.26119" lon="5.96609">
        <ele>262.6</ele>
        <time>2017-03-19T08:51:35Z</time>
      </trkpt>
      <trkpt lat="43.26122" lon="5.96598">
        <ele>262.3</ele>
        <time>2017-03-19T08:51:30Z</time>
      </trkpt>
      <trkpt lat="43.26126" lon="5.96584">
        <ele>261</ele>
        <time>2017-03-19T08:51:22Z</time>
      </trkpt>
      <trkpt lat="43.26134" lon="5.96573">
        <ele>260</ele>
        <time>2017-03-19T08:51:14Z</time>
      </trkpt>
      <trkpt lat="43.26142" lon="5.9656">
        <ele>257</ele>
        <time>2017-03-19T08:50:58Z</time>
      </trkpt>
      <trkpt lat="43.26157" lon="5.96556">
        <ele>256</ele>
        <time>2017-03-19T08:50:50Z</time>
      </trkpt>
      <trkpt lat="43.26167" lon="5.96552">
        <ele>255</ele>
        <time>2017-03-19T08:50:38Z</time>
      </trkpt>
      <trkpt lat="43.26179" lon="5.96545">
        <ele>253</ele>
        <time>2017-03-19T08:50:26Z</time>
      </trkpt>
      <trkpt lat="43.26186" lon="5.96536">
        <ele>253.4</ele>
        <time>2017-03-19T08:50:18Z</time>
      </trkpt>
      <trkpt lat="43.2619" lon="5.96525">
        <ele>252.2</ele>
        <time>2017-03-19T08:50:08Z</time>
      </trkpt>
      <trkpt lat="43.26181" lon="5.96518">
        <ele>250</ele>
        <time>2017-03-19T08:49:48Z</time>
      </trkpt>
      <trkpt lat="43.26189" lon="5.96516">
        <ele>248.6</ele>
        <time>2017-03-19T08:49:37Z</time>
      </trkpt>
      <trkpt lat="43.26183" lon="5.965">
        <ele>247</ele>
        <time>2017-03-19T08:49:27Z</time>
      </trkpt>
      <trkpt lat="43.26193" lon="5.96488">
        <ele>246</ele>
        <time>2017-03-19T08:49:19Z</time>
      </trkpt>
      <trkpt lat="43.26197" lon="5.96472">
        <ele>245</ele>
        <time>2017-03-19T08:49:11Z</time>
      </trkpt>
      <trkpt lat="43.26204" lon="5.96461">
        <ele>244</ele>
        <time>2017-03-19T08:48:59Z</time>
      </trkpt>
      <trkpt lat="43.26213" lon="5.96451">
        <ele>243</ele>
        <time>2017-03-19T08:48:51Z</time>
      </trkpt>
      <trkpt lat="43.26214" lon="5.96437">
        <ele>243</ele>
        <time>2017-03-19T08:48:42Z</time>
      </trkpt>
      <trkpt lat="43.2622" lon="5.96426">
        <ele>242</ele>
        <time>2017-03-19T08:48:34Z</time>
      </trkpt>
      <trkpt lat="43.2623" lon="5.96415">
        <ele>241</ele>
        <time>2017-03-19T08:48:22Z</time>
      </trkpt>
      <trkpt lat="43.26237" lon="5.96405">
        <ele>239</ele>
        <time>2017-03-19T08:48:10Z</time>
      </trkpt>
      <trkpt lat="43.26245" lon="5.96396">
        <ele>239</ele>
        <time>2017-03-19T08:48:02Z</time>
      </trkpt>
      <trkpt lat="43.26255" lon="5.96389">
        <ele>238.7</ele>
        <time>2017-03-19T08:47:49Z</time>
      </trkpt>
      <trkpt lat="43.26258" lon="5.96376">
        <ele>237.6</ele>
        <time>2017-03-19T08:47:35Z</time>
      </trkpt>
      <trkpt lat="43.26265" lon="5.96365">
        <ele>237.2</ele>
        <time>2017-03-19T08:47:29Z</time>
      </trkpt>
      <trkpt lat="43.26272" lon="5.96356">
        <ele>236.3</ele>
        <time>2017-03-19T08:47:15Z</time>
      </trkpt>
      <trkpt lat="43.26277" lon="5.96344">
        <ele>235.5</ele>
        <time>2017-03-19T08:47:01Z</time>
      </trkpt>
      <trkpt lat="43.26282" lon="5.96334">
        <ele>235.1</ele>
        <time>2017-03-19T08:46:39Z</time>
      </trkpt>
      <trkpt lat="43.2629" lon="5.96341">
        <ele>235.1</ele>
        <time>2017-03-19T08:46:18Z</time>
      </trkpt>
      <trkpt lat="43.26299" lon="5.96344">
        <ele>236</ele>
        <time>2017-03-19T08:44:55Z</time>
      </trkpt>
      <trkpt lat="43.26308" lon="5.96343">
        <ele>234.9</ele>
        <time>2017-03-19T08:43:48Z</time>
      </trkpt>
      <trkpt lat="43.26299" lon="5.96344">
        <ele>234.6</ele>
        <time>2017-03-19T08:43:34Z</time>
      </trkpt>
      <trkpt lat="43.26294" lon="5.96334">
        <ele>233.7</ele>
        <time>2017-03-19T08:42:44Z</time>
      </trkpt>
      <trkpt lat="43.26298" lon="5.96323">
        <ele>235.3</ele>
        <time>2017-03-19T08:40:40Z</time>
      </trkpt>
      <trkpt lat="43.26304" lon="5.96332">
        <ele>235.3</ele>
        <time>2017-03-19T08:40:23Z</time>
      </trkpt>
      <trkpt lat="43.26295" lon="5.96333">
        <ele>235.8</ele>
        <time>2017-03-19T08:38:30Z</time>
      </trkpt>
      <trkpt lat="43.263" lon="5.96343">
        <ele>232.9</ele>
        <time>2017-03-19T08:37:37Z</time>
      </trkpt>
      <trkpt lat="43.26293" lon="5.96332">
        <ele>218</ele>
        <time>2017-03-19T08:37:05Z</time>
      </trkpt>
      <trkpt lat="43.26291" lon="5.96333">
        <ele>219</ele>
        <time>2017-03-19T08:37:06Z</time>
      </trkpt>
      <trkpt lat="43.26291" lon="5.96333">
        <ele>219</ele>
        <time>2017-03-19T08:37:06Z</time>
      </trkpt>
    </trkseg>
  </trk>
</gpx>